﻿<?xml version="1.0" encoding="utf-8"?><gpx creator="Garmin Desktop App" version="1.1" xsi:schemaLocation="http://www.topografix.com/GPX/1/1 http://www.topografix.com/GPX/1/1/gpx.xsd http://www.garmin.com/xmlschemas/WaypointExtension/v1 http://www8.garmin.com/xmlschemas/WaypointExtensionv1.xsd http://www.garmin.com/xmlschemas/TrackPointExtension/v1 http://www.garmin.com/xmlschemas/TrackPointExtensionv1.xsd http://www.garmin.com/xmlschemas/GpxExtensions/v3 http://www8.garmin.com/xmlschemas/GpxExtensionsv3.xsd http://www.garmin.com/xmlschemas/ActivityExtension/v1 http://www8.garmin.com/xmlschemas/ActivityExtensionv1.xsd http://www.garmin.com/xmlschemas/AdventuresExtensions/v1 http://www8.garmin.com/xmlschemas/AdventuresExtensionv1.xsd http://www.garmin.com/xmlschemas/PressureExtension/v1 http://www.garmin.com/xmlschemas/PressureExtensionv1.xsd http://www.garmin.com/xmlschemas/TripExtensions/v1 http://www.garmin.com/xmlschemas/TripExtensionsv1.xsd http://www.garmin.com/xmlschemas/TripMetaDataExtensions/v1 http://www.garmin.com/xmlschemas/TripMetaDataExtensionsv1.xsd http://www.garmin.com/xmlschemas/ViaPointTransportationModeExtensions/v1 http://www.garmin.com/xmlschemas/ViaPointTransportationModeExtensionsv1.xsd http://www.garmin.com/xmlschemas/CreationTimeExtension/v1 http://www.garmin.com/xmlschemas/CreationTimeExtensionsv1.xsd http://www.garmin.com/xmlschemas/AccelerationExtension/v1 http://www.garmin.com/xmlschemas/AccelerationExtensionv1.xsd http://www.garmin.com/xmlschemas/PowerExtension/v1 http://www.garmin.com/xmlschemas/PowerExtensionv1.xsd http://www.garmin.com/xmlschemas/VideoExtension/v1 http://www.garmin.com/xmlschemas/VideoExtensionv1.xsd" xmlns="http://www.topografix.com/GPX/1/1" xmlns:xsi="http://www.w3.org/2001/XMLSchema-instance" xmlns:wptx1="http://www.garmin.com/xmlschemas/WaypointExtension/v1" xmlns:gpxtrx="http://www.garmin.com/xmlschemas/GpxExtensions/v3" xmlns:gpxtpx="http://www.garmin.com/xmlschemas/TrackPointExtension/v1" xmlns:gpxx="http://www.garmin.com/xmlschemas/GpxExtensions/v3" xmlns:trp="http://www.garmin.com/xmlschemas/TripExtensions/v1" xmlns:adv="http://www.garmin.com/xmlschemas/AdventuresExtensions/v1" xmlns:prs="http://www.garmin.com/xmlschemas/PressureExtension/v1" xmlns:tmd="http://www.garmin.com/xmlschemas/TripMetaDataExtensions/v1" xmlns:vptm="http://www.garmin.com/xmlschemas/ViaPointTransportationModeExtensions/v1" xmlns:ctx="http://www.garmin.com/xmlschemas/CreationTimeExtension/v1" xmlns:gpxacc="http://www.garmin.com/xmlschemas/AccelerationExtension/v1" xmlns:gpxpx="http://www.garmin.com/xmlschemas/PowerExtension/v1" xmlns:vidx1="http://www.garmin.com/xmlschemas/VideoExtension/v1">

  <metadata>
    <link href="http://www.garmin.com">
      <text>Garmin International</text>
    </link>
    <time>2026-04-08T16:26:47Z</time>
    <bounds maxlat="50.376364002004266" maxlon="7.79608198441565" minlat="50.292598027735949" minlon="7.700528036803007" />
  </metadata>

  <trk>
    <name>Oelim_E08_E11_RD_45K</name>
    <extensions>
      <gpxx:TrackExtension>
        <gpxx:DisplayColor>DarkGray</gpxx:DisplayColor>
      </gpxx:TrackExtension>
    </extensions>
    <trkseg>
      <trkpt lat="50.304208975285292" lon="7.700543962419033">
        <ele>346.366761</ele>
        <time>2026-04-08T08:27:27Z</time>
      </trkpt>
      <trkpt lat="50.304252980276942" lon="7.700582016259432">
        <ele>346.366761</ele>
        <time>2026-04-08T08:27:34Z</time>
      </trkpt>
      <trkpt lat="50.304277958348393" lon="7.700528036803007">
        <ele>346.366761</ele>
        <time>2026-04-08T08:28:36Z</time>
      </trkpt>
      <trkpt lat="50.304344007745385" lon="7.700537005439401">
        <ele>346.366761</ele>
        <time>2026-04-08T08:29:37Z</time>
      </trkpt>
      <trkpt lat="50.304380971938372" lon="7.700586961582303">
        <ele>346.366761</ele>
        <time>2026-04-08T08:30:06Z</time>
      </trkpt>
      <trkpt lat="50.30448398552835" lon="7.70117998123169">
        <ele>346.366761</ele>
        <time>2026-04-08T08:30:28Z</time>
      </trkpt>
      <trkpt lat="50.304466970264912" lon="7.701169000938535">
        <ele>346.366761</ele>
        <time>2026-04-08T08:32:52Z</time>
      </trkpt>
      <trkpt lat="50.30452698469162" lon="7.701230021193624">
        <ele>346.357553</ele>
        <time>2026-04-08T08:34:27Z</time>
      </trkpt>
      <trkpt lat="50.304517010226846" lon="7.701229015365243">
        <ele>346.35016999999999</ele>
        <time>2026-04-08T08:34:48Z</time>
      </trkpt>
      <trkpt lat="50.304321963340044" lon="7.701490027830005">
        <ele>346.16955300000001</ele>
        <time>2026-04-08T08:34:59Z</time>
      </trkpt>
      <trkpt lat="50.304215010255575" lon="7.701774006709456">
        <ele>346.01932099999999</ele>
        <time>2026-04-08T08:35:10Z</time>
      </trkpt>
      <trkpt lat="50.304131023585796" lon="7.701720027253032">
        <ele>345.90163000000001</ele>
        <time>2026-04-08T08:35:42Z</time>
      </trkpt>
      <trkpt lat="50.304146027192473" lon="7.701704017817974">
        <ele>345.87890800000002</ele>
        <time>2026-04-08T08:36:30Z</time>
      </trkpt>
      <trkpt lat="50.303875962272286" lon="7.70264295861125">
        <ele>345.40969100000001</ele>
        <time>2026-04-08T08:36:51Z</time>
      </trkpt>
      <trkpt lat="50.303912004455924" lon="7.702715964987874">
        <ele>345.368492</ele>
        <time>2026-04-08T08:36:54Z</time>
      </trkpt>
      <trkpt lat="50.304308971390128" lon="7.703447034582496">
        <ele>346.18663900000001</ele>
        <time>2026-04-08T08:37:23Z</time>
      </trkpt>
      <trkpt lat="50.304392036050558" lon="7.703465977683663">
        <ele>346.50062400000002</ele>
        <time>2026-04-08T08:37:28Z</time>
      </trkpt>
      <trkpt lat="50.304475016891956" lon="7.703766971826553">
        <ele>347.35071199999999</ele>
        <time>2026-04-08T08:37:51Z</time>
      </trkpt>
      <trkpt lat="50.304575012996793" lon="7.704546991735697">
        <ele>349.33112999999997</ele>
        <time>2026-04-08T08:38:49Z</time>
      </trkpt>
      <trkpt lat="50.304605020210147" lon="7.704689987003803">
        <ele>349.69026300000002</ele>
        <time>2026-04-08T08:38:53Z</time>
      </trkpt>
      <trkpt lat="50.304736029356718" lon="7.705449974164367">
        <ele>351.590352</ele>
        <time>2026-04-08T08:39:16Z</time>
      </trkpt>
      <trkpt lat="50.304766036570072" lon="7.705660024657846">
        <ele>352.256327</ele>
        <time>2026-04-08T08:39:23Z</time>
      </trkpt>
      <trkpt lat="50.304795037955046" lon="7.706007035449147">
        <ele>353.60022600000002</ele>
        <time>2026-04-08T08:39:33Z</time>
      </trkpt>
      <trkpt lat="50.304873995482922" lon="7.706609023734927">
        <ele>355.97124500000001</ele>
        <time>2026-04-08T08:39:50Z</time>
      </trkpt>
      <trkpt lat="50.304933004081249" lon="7.706841034814715">
        <ele>356.931578</ele>
        <time>2026-04-08T08:39:58Z</time>
      </trkpt>
      <trkpt lat="50.305068958550692" lon="7.707748040556908">
        <ele>360.50894399999999</ele>
        <time>2026-04-08T08:40:28Z</time>
      </trkpt>
      <trkpt lat="50.30512997880578" lon="7.708182977512479">
        <ele>362.21998500000001</ele>
        <time>2026-04-08T08:40:42Z</time>
      </trkpt>
      <trkpt lat="50.305260987952352" lon="7.709185034036636">
        <ele>364.44854900000001</ele>
        <time>2026-04-08T08:41:14Z</time>
      </trkpt>
      <trkpt lat="50.30527900904417" lon="7.709146980196238">
        <ele>364.55021699999998</ele>
        <time>2026-04-08T08:43:09Z</time>
      </trkpt>
      <trkpt lat="50.305311027914286" lon="7.709548976272345">
        <ele>365.511685</ele>
        <time>2026-04-08T08:44:03Z</time>
      </trkpt>
      <trkpt lat="50.305310022085905" lon="7.709547970443964">
        <ele>365.515311</ele>
        <time>2026-04-08T08:44:13Z</time>
      </trkpt>
      <trkpt lat="50.305276997387409" lon="7.709584012627602">
        <ele>365.65001699999999</ele>
        <time>2026-04-08T08:44:18Z</time>
      </trkpt>
      <trkpt lat="50.304775005206466" lon="7.710695033892989">
        <ele>368.344427</ele>
        <time>2026-04-08T08:44:54Z</time>
      </trkpt>
      <trkpt lat="50.304214004427195" lon="7.711842013522983">
        <ele>371.77510899999999</ele>
        <time>2026-04-08T08:45:33Z</time>
      </trkpt>
      <trkpt lat="50.303940000012517" lon="7.71239597350359">
        <ele>373.44083799999999</ele>
        <time>2026-04-08T08:45:49Z</time>
      </trkpt>
      <trkpt lat="50.30381603166461" lon="7.712652962654829">
        <ele>374.21522299999998</ele>
        <time>2026-04-08T08:45:57Z</time>
      </trkpt>
      <trkpt lat="50.303150005638599" lon="7.713944027200341">
        <ele>377.37988100000001</ele>
        <time>2026-04-08T08:46:40Z</time>
      </trkpt>
      <trkpt lat="50.302952025085688" lon="7.714383993297815">
        <ele>378.39520800000003</ele>
        <time>2026-04-08T08:47:14Z</time>
      </trkpt>
      <trkpt lat="50.302652958780527" lon="7.715020012110472">
        <ele>379.84435300000001</ele>
        <time>2026-04-08T08:47:59Z</time>
      </trkpt>
      <trkpt lat="50.302639966830611" lon="7.715022023767233">
        <ele>379.88139000000001</ele>
        <time>2026-04-08T08:48:16Z</time>
      </trkpt>
      <trkpt lat="50.302523961290717" lon="7.714997967705131">
        <ele>380.35585700000001</ele>
        <time>2026-04-08T08:48:26Z</time>
      </trkpt>
      <trkpt lat="50.302044013515115" lon="7.714852038770914">
        <ele>382.442497</ele>
        <time>2026-04-08T08:49:24Z</time>
      </trkpt>
      <trkpt lat="50.301297018304467" lon="7.714564958587289">
        <ele>385.71116799999999</ele>
        <time>2026-04-08T08:50:30Z</time>
      </trkpt>
      <trkpt lat="50.300966016948223" lon="7.714400002732873">
        <ele>387.194141</ele>
        <time>2026-04-08T08:51:03Z</time>
      </trkpt>
      <trkpt lat="50.30055002309382" lon="7.71426497027278">
        <ele>387.75304399999999</ele>
        <time>2026-04-08T08:51:39Z</time>
      </trkpt>
      <trkpt lat="50.300469975918531" lon="7.714493041858077">
        <ele>387.86053700000002</ele>
        <time>2026-04-08T08:52:23Z</time>
      </trkpt>
      <trkpt lat="50.300238970667124" lon="7.71491096355021">
        <ele>388.057321</ele>
        <time>2026-04-08T08:52:35Z</time>
      </trkpt>
      <trkpt lat="50.299407988786697" lon="7.715384960174561">
        <ele>388.56811599999997</ele>
        <time>2026-04-08T08:53:03Z</time>
      </trkpt>
      <trkpt lat="50.299357026815414" lon="7.7154899854213">
        <ele>388.97454800000003</ele>
        <time>2026-04-08T08:53:29Z</time>
      </trkpt>
      <trkpt lat="50.299357026815414" lon="7.715494008734822">
        <ele>388.99527899999998</ele>
        <time>2026-04-08T08:53:55Z</time>
      </trkpt>
      <trkpt lat="50.299181006848812" lon="7.715863985940814">
        <ele>390.38695200000001</ele>
        <time>2026-04-08T08:54:10Z</time>
      </trkpt>
      <trkpt lat="50.298954024910927" lon="7.716186018660665">
        <ele>391.78220700000003</ele>
        <time>2026-04-08T08:54:24Z</time>
      </trkpt>
      <trkpt lat="50.298732994124293" lon="7.716425992548466">
        <ele>393.00970699999999</ele>
        <time>2026-04-08T08:54:35Z</time>
      </trkpt>
      <trkpt lat="50.298464018851519" lon="7.716732015833259">
        <ele>394.52579500000002</ele>
        <time>2026-04-08T08:54:47Z</time>
      </trkpt>
      <trkpt lat="50.298028998076916" lon="7.717291004955769">
        <ele>397.59147100000001</ele>
        <time>2026-04-08T08:55:13Z</time>
      </trkpt>
      <trkpt lat="50.297836968675256" lon="7.717522010207176">
        <ele>400.26325900000001</ele>
        <time>2026-04-08T08:55:27Z</time>
      </trkpt>
      <trkpt lat="50.297560030594468" lon="7.717792997136712">
        <ele>403.869508</ele>
        <time>2026-04-08T08:55:47Z</time>
      </trkpt>
      <trkpt lat="50.297466991469264" lon="7.717903973534703">
        <ele>405.15881300000001</ele>
        <time>2026-04-08T08:55:55Z</time>
      </trkpt>
      <trkpt lat="50.297335982322693" lon="7.718085022643209">
        <ele>407.08439099999998</ele>
        <time>2026-04-08T08:56:07Z</time>
      </trkpt>
      <trkpt lat="50.297327013686299" lon="7.718099020421505">
        <ele>407.22410000000002</ele>
        <time>2026-04-08T08:56:08Z</time>
      </trkpt>
      <trkpt lat="50.297207990661263" lon="7.718194993212819">
        <ele>408.703033</ele>
        <time>2026-04-08T08:56:17Z</time>
      </trkpt>
      <trkpt lat="50.297129033133388" lon="7.7183030359447">
        <ele>409.92219999999998</ele>
        <time>2026-04-08T08:56:51Z</time>
      </trkpt>
      <trkpt lat="50.296914037317038" lon="7.718635965138674">
        <ele>413.30614200000002</ele>
        <time>2026-04-08T08:57:33Z</time>
      </trkpt>
      <trkpt lat="50.296873971819878" lon="7.718696985393763">
        <ele>413.92670099999998</ele>
        <time>2026-04-08T08:57:42Z</time>
      </trkpt>
      <trkpt lat="50.296636009588838" lon="7.718974007293582">
        <ele>416.48845399999999</ele>
        <time>2026-04-08T08:58:27Z</time>
      </trkpt>
      <trkpt lat="50.296570966020226" lon="7.719251029193401">
        <ele>416.28985499999999</ele>
        <time>2026-04-08T08:59:31Z</time>
      </trkpt>
      <trkpt lat="50.296570966020226" lon="7.719255974516273">
        <ele>416.28662200000002</ele>
        <time>2026-04-08T09:00:40Z</time>
      </trkpt>
      <trkpt lat="50.296512963250279" lon="7.719427971169353">
        <ele>416.15832899999998</ele>
        <time>2026-04-08T09:00:46Z</time>
      </trkpt>
      <trkpt lat="50.295773008838296" lon="7.721080966293812">
        <ele>414.85239200000001</ele>
        <time>2026-04-08T09:01:20Z</time>
      </trkpt>
      <trkpt lat="50.295602018013597" lon="7.721443986520171">
        <ele>414.31218799999999</ele>
        <time>2026-04-08T09:01:27Z</time>
      </trkpt>
      <trkpt lat="50.295430021360517" lon="7.721840031445026">
        <ele>413.55153100000001</ele>
        <time>2026-04-08T09:01:34Z</time>
      </trkpt>
      <trkpt lat="50.295156016945839" lon="7.722434978932142">
        <ele>412.38405899999998</ele>
        <time>2026-04-08T09:01:44Z</time>
      </trkpt>
      <trkpt lat="50.294521003961563" lon="7.723726965487003">
        <ele>409.81759199999999</ele>
        <time>2026-04-08T09:02:18Z</time>
      </trkpt>
      <trkpt lat="50.293943993747234" lon="7.724831029772759">
        <ele>407.70235100000002</ele>
        <time>2026-04-08T09:02:48Z</time>
      </trkpt>
      <trkpt lat="50.293929995968938" lon="7.724853996187449">
        <ele>407.65527700000001</ele>
        <time>2026-04-08T09:02:50Z</time>
      </trkpt>
      <trkpt lat="50.293909963220358" lon="7.724858019500971">
        <ele>407.59927800000003</ele>
        <time>2026-04-08T09:03:18Z</time>
      </trkpt>
      <trkpt lat="50.293878028169274" lon="7.724951980635524">
        <ele>407.44126199999999</ele>
        <time>2026-04-08T09:03:22Z</time>
      </trkpt>
      <trkpt lat="50.29320202767849" lon="7.726392997428775">
        <ele>404.70541800000001</ele>
        <time>2026-04-08T09:04:05Z</time>
      </trkpt>
      <trkpt lat="50.293132038787007" lon="7.726512020453811">
        <ele>404.45058799999998</ele>
        <time>2026-04-08T09:04:07Z</time>
      </trkpt>
      <trkpt lat="50.292812017723918" lon="7.727128006517887">
        <ele>403.19962600000002</ele>
        <time>2026-04-08T09:04:18Z</time>
      </trkpt>
      <trkpt lat="50.292598027735949" lon="7.727568978443742">
        <ele>402.31664899999998</ele>
        <time>2026-04-08T09:04:41Z</time>
      </trkpt>
      <trkpt lat="50.292620994150639" lon="7.727588005363941">
        <ele>402.24696499999999</ele>
        <time>2026-04-08T09:04:55Z</time>
      </trkpt>
      <trkpt lat="50.292878989130259" lon="7.727530002593994">
        <ele>401.28002600000002</ele>
        <time>2026-04-08T09:05:04Z</time>
      </trkpt>
      <trkpt lat="50.293109994381666" lon="7.727309977635741">
        <ele>399.26030200000002</ele>
        <time>2026-04-08T09:05:10Z</time>
      </trkpt>
      <trkpt lat="50.293579967692494" lon="7.727383989840746">
        <ele>395.63231200000001</ele>
        <time>2026-04-08T09:05:20Z</time>
      </trkpt>
      <trkpt lat="50.29363302513957" lon="7.727423971518874">
        <ele>395.19337999999999</ele>
        <time>2026-04-08T09:05:21Z</time>
      </trkpt>
      <trkpt lat="50.293995039537549" lon="7.727706022560597">
        <ele>392.17661900000002</ele>
        <time>2026-04-08T09:05:28Z</time>
      </trkpt>
      <trkpt lat="50.294253034517169" lon="7.727912971749902">
        <ele>390.01346799999999</ele>
        <time>2026-04-08T09:05:35Z</time>
      </trkpt>
      <trkpt lat="50.294503988698125" lon="7.728134002536535">
        <ele>387.79277200000001</ele>
        <time>2026-04-08T09:06:00Z</time>
      </trkpt>
      <trkpt lat="50.294905984774232" lon="7.728128973394632">
        <ele>384.10012999999998</ele>
        <time>2026-04-08T09:06:08Z</time>
      </trkpt>
      <trkpt lat="50.295301023870707" lon="7.728471960872412">
        <ele>379.92152900000002</ele>
        <time>2026-04-08T09:06:17Z</time>
      </trkpt>
      <trkpt lat="50.295464973896742" lon="7.728775972500444">
        <ele>377.69690200000002</ele>
        <time>2026-04-08T09:06:22Z</time>
      </trkpt>
      <trkpt lat="50.295551978051662" lon="7.728973031044006">
        <ele>376.35791599999999</ele>
        <time>2026-04-08T09:06:25Z</time>
      </trkpt>
      <trkpt lat="50.295612998306751" lon="7.729213004931808">
        <ele>374.912173</ele>
        <time>2026-04-08T09:06:28Z</time>
      </trkpt>
      <trkpt lat="50.295710982754827" lon="7.729762019589543">
        <ele>371.703845</ele>
        <time>2026-04-08T09:06:35Z</time>
      </trkpt>
      <trkpt lat="50.295820031315088" lon="7.730379011482">
        <ele>368.03434800000002</ele>
        <time>2026-04-08T09:06:42Z</time>
      </trkpt>
      <trkpt lat="50.295921033248305" lon="7.73087102919817">
        <ele>365.07178499999998</ele>
        <time>2026-04-08T09:06:48Z</time>
      </trkpt>
      <trkpt lat="50.296079032123089" lon="7.731356006115675">
        <ele>361.95115700000002</ele>
        <time>2026-04-08T09:06:54Z</time>
      </trkpt>
      <trkpt lat="50.296196965500712" lon="7.731694970279932">
        <ele>359.73799600000001</ele>
        <time>2026-04-08T09:06:58Z</time>
      </trkpt>
      <trkpt lat="50.296488991007209" lon="7.731917006894946">
        <ele>356.67878899999999</ele>
        <time>2026-04-08T09:07:04Z</time>
      </trkpt>
      <trkpt lat="50.296588987112045" lon="7.731938967481256">
        <ele>355.81519600000001</ele>
        <time>2026-04-08T09:07:06Z</time>
      </trkpt>
      <trkpt lat="50.29685796238482" lon="7.732425034046173">
        <ele>352.24149599999998</ele>
        <time>2026-04-08T09:07:14Z</time>
      </trkpt>
      <trkpt lat="50.296695018187165" lon="7.73276399821043">
        <ele>349.92377800000003</ele>
        <time>2026-04-08T09:07:19Z</time>
      </trkpt>
      <trkpt lat="50.296598039567471" lon="7.732889978215098">
        <ele>348.87616500000001</ele>
        <time>2026-04-08T09:07:21Z</time>
      </trkpt>
      <trkpt lat="50.296442974358797" lon="7.733285017311573">
        <ele>346.406429</ele>
        <time>2026-04-08T09:07:26Z</time>
      </trkpt>
      <trkpt lat="50.296444986015558" lon="7.733498001471162">
        <ele>345.27492699999999</ele>
        <time>2026-04-08T09:07:28Z</time>
      </trkpt>
      <trkpt lat="50.2964480035007" lon="7.73400996811688">
        <ele>342.55360400000001</ele>
        <time>2026-04-08T09:07:33Z</time>
      </trkpt>
      <trkpt lat="50.296247005462646" lon="7.734581027179956">
        <ele>339.43763300000001</ele>
        <time>2026-04-08T09:07:40Z</time>
      </trkpt>
      <trkpt lat="50.296039972454309" lon="7.735307989642024">
        <ele>335.88701900000001</ele>
        <time>2026-04-08T09:07:50Z</time>
      </trkpt>
      <trkpt lat="50.295862024649978" lon="7.735924981534481">
        <ele>332.88507399999997</ele>
        <time>2026-04-08T09:07:58Z</time>
      </trkpt>
      <trkpt lat="50.295786000788212" lon="7.736151041463018">
        <ele>331.75376299999999</ele>
        <time>2026-04-08T09:08:01Z</time>
      </trkpt>
      <trkpt lat="50.2957399841398" lon="7.736635012552142">
        <ele>329.57561500000003</ele>
        <time>2026-04-08T09:08:07Z</time>
      </trkpt>
      <trkpt lat="50.295722968876362" lon="7.737288968637586">
        <ele>326.418993</ele>
        <time>2026-04-08T09:08:15Z</time>
      </trkpt>
      <trkpt lat="50.295722968876362" lon="7.737373039126396">
        <ele>326.00490200000002</ele>
        <time>2026-04-08T09:08:16Z</time>
      </trkpt>
      <trkpt lat="50.295798992738128" lon="7.737973015755415">
        <ele>322.98124799999999</ele>
        <time>2026-04-08T09:08:23Z</time>
      </trkpt>
      <trkpt lat="50.295893959701061" lon="7.738362019881606">
        <ele>320.92747200000002</ele>
        <time>2026-04-08T09:08:28Z</time>
      </trkpt>
      <trkpt lat="50.295989010483027" lon="7.738743983209133">
        <ele>318.90602100000001</ele>
        <time>2026-04-08T09:08:33Z</time>
      </trkpt>
      <trkpt lat="50.296046007424593" lon="7.739363992586732">
        <ele>315.80696</ele>
        <time>2026-04-08T09:08:43Z</time>
      </trkpt>
      <trkpt lat="50.296349013224244" lon="7.739974027499557">
        <ele>313.08048200000002</ele>
        <time>2026-04-08T09:09:16Z</time>
      </trkpt>
      <trkpt lat="50.296854022890329" lon="7.740896958857775">
        <ele>309.21077400000001</ele>
        <time>2026-04-08T09:09:31Z</time>
      </trkpt>
      <trkpt lat="50.297298012301326" lon="7.741619981825352">
        <ele>306.00030600000002</ele>
        <time>2026-04-08T09:09:42Z</time>
      </trkpt>
      <trkpt lat="50.297419968992472" lon="7.741827014833689">
        <ele>304.91744399999999</ele>
        <time>2026-04-08T09:09:45Z</time>
      </trkpt>
      <trkpt lat="50.297815008088946" lon="7.742709964513779">
        <ele>300.77143599999999</ele>
        <time>2026-04-08T09:09:55Z</time>
      </trkpt>
      <trkpt lat="50.298287998884916" lon="7.743488978594542">
        <ele>296.63854700000002</ele>
        <time>2026-04-08T09:10:05Z</time>
      </trkpt>
      <trkpt lat="50.298558985814452" lon="7.743990970775485">
        <ele>293.50298900000001</ele>
        <time>2026-04-08T09:10:12Z</time>
      </trkpt>
      <trkpt lat="50.298817986622453" lon="7.744553983211517">
        <ele>289.43344200000001</ele>
        <time>2026-04-08T09:10:19Z</time>
      </trkpt>
      <trkpt lat="50.298952013254166" lon="7.745021022856236">
        <ele>286.42509799999999</ele>
        <time>2026-04-08T09:10:24Z</time>
      </trkpt>
      <trkpt lat="50.299077993258834" lon="7.745500970631838">
        <ele>283.38213200000001</ele>
        <time>2026-04-08T09:10:29Z</time>
      </trkpt>
      <trkpt lat="50.299206990748644" lon="7.746048979461193">
        <ele>279.95782500000001</ele>
        <time>2026-04-08T09:10:35Z</time>
      </trkpt>
      <trkpt lat="50.299329031258821" lon="7.74649397470057">
        <ele>277.97698700000001</ele>
        <time>2026-04-08T09:10:40Z</time>
      </trkpt>
      <trkpt lat="50.299360966309905" lon="7.746575027704239">
        <ele>277.71088200000003</ele>
        <time>2026-04-08T09:10:41Z</time>
      </trkpt>
      <trkpt lat="50.299944011494517" lon="7.747161006554961">
        <ele>274.637091</ele>
        <time>2026-04-08T09:10:53Z</time>
      </trkpt>
      <trkpt lat="50.300092035904527" lon="7.747237030416727">
        <ele>273.95579099999998</ele>
        <time>2026-04-08T09:10:56Z</time>
      </trkpt>
      <trkpt lat="50.300366040319204" lon="7.747421013191342">
        <ele>272.65100100000001</ele>
        <time>2026-04-08T09:11:02Z</time>
      </trkpt>
      <trkpt lat="50.300409039482474" lon="7.747463006526232">
        <ele>272.42931099999998</ele>
        <time>2026-04-08T09:11:03Z</time>
      </trkpt>
      <trkpt lat="50.300713973119855" lon="7.747761989012361">
        <ele>270.83761700000002</ele>
        <time>2026-04-08T09:11:10Z</time>
      </trkpt>
      <trkpt lat="50.30102301388979" lon="7.748219976201654">
        <ele>268.24542400000001</ele>
        <time>2026-04-08T09:11:18Z</time>
      </trkpt>
      <trkpt lat="50.301114963367581" lon="7.748435977846384">
        <ele>267.23547100000002</ele>
        <time>2026-04-08T09:11:24Z</time>
      </trkpt>
      <trkpt lat="50.301335994154215" lon="7.749185990542173">
        <ele>264.01802700000002</ele>
        <time>2026-04-08T09:11:55Z</time>
      </trkpt>
      <trkpt lat="50.301378993317485" lon="7.749335020780563">
        <ele>263.38212600000003</ele>
        <time>2026-04-08T09:11:57Z</time>
      </trkpt>
      <trkpt lat="50.301526011899114" lon="7.749707009643316">
        <ele>261.68017500000002</ele>
        <time>2026-04-08T09:12:02Z</time>
      </trkpt>
      <trkpt lat="50.301743019372225" lon="7.750283014029265">
        <ele>258.568127</ele>
        <time>2026-04-08T09:12:09Z</time>
      </trkpt>
      <trkpt lat="50.301766991615295" lon="7.750363983213902">
        <ele>258.01671199999998</ele>
        <time>2026-04-08T09:12:10Z</time>
      </trkpt>
      <trkpt lat="50.301908981055021" lon="7.750762039795518">
        <ele>255.20126099999999</ele>
        <time>2026-04-08T09:12:15Z</time>
      </trkpt>
      <trkpt lat="50.301982993260026" lon="7.75111299008131">
        <ele>252.914512</ele>
        <time>2026-04-08T09:12:19Z</time>
      </trkpt>
      <trkpt lat="50.3019929677248" lon="7.751193037256599">
        <ele>252.411102</ele>
        <time>2026-04-08T09:12:20Z</time>
      </trkpt>
      <trkpt lat="50.302217015996575" lon="7.751473998650909">
        <ele>248.90028000000001</ele>
        <time>2026-04-08T09:12:28Z</time>
      </trkpt>
      <trkpt lat="50.302323969081044" lon="7.751440973952413">
        <ele>247.8459</ele>
        <time>2026-04-08T09:12:30Z</time>
      </trkpt>
      <trkpt lat="50.302624963223934" lon="7.751564020290971">
        <ele>244.635502</ele>
        <time>2026-04-08T09:12:37Z</time>
      </trkpt>
      <trkpt lat="50.302638961002231" lon="7.751888986676931">
        <ele>242.60933900000001</ele>
        <time>2026-04-08T09:12:41Z</time>
      </trkpt>
      <trkpt lat="50.302639966830611" lon="7.752033993601799">
        <ele>242.32729399999999</ele>
        <time>2026-04-08T09:12:43Z</time>
      </trkpt>
      <trkpt lat="50.302629992365837" lon="7.752262987196446">
        <ele>241.93281999999999</ele>
        <time>2026-04-08T09:13:07Z</time>
      </trkpt>
      <trkpt lat="50.302663017064333" lon="7.752863969653845">
        <ele>240.92388600000001</ele>
        <time>2026-04-08T09:13:20Z</time>
      </trkpt>
      <trkpt lat="50.302736023440957" lon="7.753349030390382">
        <ele>240.098985</ele>
        <time>2026-04-08T09:13:28Z</time>
      </trkpt>
      <trkpt lat="50.302677014842629" lon="7.754975035786629">
        <ele>237.23966899999999</ele>
        <time>2026-04-08T09:14:07Z</time>
      </trkpt>
      <trkpt lat="50.3019929677248" lon="7.756112040951848">
        <ele>234.03532899999999</ele>
        <time>2026-04-08T09:14:38Z</time>
      </trkpt>
      <trkpt lat="50.301463985815644" lon="7.757118958979845">
        <ele>230.37671800000001</ele>
        <time>2026-04-08T09:14:51Z</time>
      </trkpt>
      <trkpt lat="50.301283020526171" lon="7.757506035268307">
        <ele>228.163928</ele>
        <time>2026-04-08T09:14:55Z</time>
      </trkpt>
      <trkpt lat="50.300988983362913" lon="7.758010039106011">
        <ele>225.01422199999999</ele>
        <time>2026-04-08T09:15:01Z</time>
      </trkpt>
      <trkpt lat="50.300840036943555" lon="7.758220005780459">
        <ele>223.566273</ele>
        <time>2026-04-08T09:15:04Z</time>
      </trkpt>
      <trkpt lat="50.300694024190307" lon="7.758810007944703">
        <ele>220.553504</ele>
        <time>2026-04-08T09:15:10Z</time>
      </trkpt>
      <trkpt lat="50.300802988931537" lon="7.759459018707275">
        <ele>217.30132800000001</ele>
        <time>2026-04-08T09:15:16Z</time>
      </trkpt>
      <trkpt lat="50.300947995856404" lon="7.759843999519944">
        <ele>215.042044</ele>
        <time>2026-04-08T09:15:20Z</time>
      </trkpt>
      <trkpt lat="50.301213031634688" lon="7.760282959789038">
        <ele>212.004099</ele>
        <time>2026-04-08T09:15:28Z</time>
      </trkpt>
      <trkpt lat="50.301374970003963" lon="7.76054497808218">
        <ele>210.16854900000001</ele>
        <time>2026-04-08T09:15:57Z</time>
      </trkpt>
      <trkpt lat="50.301678981631994" lon="7.761043030768633">
        <ele>206.70642799999999</ele>
        <time>2026-04-08T09:16:04Z</time>
      </trkpt>
      <trkpt lat="50.301975030452013" lon="7.761578969657421">
        <ele>203.37691100000001</ele>
        <time>2026-04-08T09:16:09Z</time>
      </trkpt>
      <trkpt lat="50.302319023758173" lon="7.762311967089772">
        <ele>199.37576300000001</ele>
        <time>2026-04-08T09:16:15Z</time>
      </trkpt>
      <trkpt lat="50.302438968792558" lon="7.76271496899426">
        <ele>197.42038600000001</ele>
        <time>2026-04-08T09:16:18Z</time>
      </trkpt>
      <trkpt lat="50.302617000415921" lon="7.763373032212257">
        <ele>194.27922799999999</ele>
        <time>2026-04-08T09:16:23Z</time>
      </trkpt>
      <trkpt lat="50.302681038156152" lon="7.76363898999989">
        <ele>193.02974699999999</ele>
        <time>2026-04-08T09:16:25Z</time>
      </trkpt>
      <trkpt lat="50.302777010947466" lon="7.764350026845932">
        <ele>189.847542</ele>
        <time>2026-04-08T09:16:30Z</time>
      </trkpt>
      <trkpt lat="50.302784973755479" lon="7.764985039830208">
        <ele>187.066667</ele>
        <time>2026-04-08T09:16:34Z</time>
      </trkpt>
      <trkpt lat="50.302767036482692" lon="7.765476973727346">
        <ele>184.91186099999999</ele>
        <time>2026-04-08T09:16:37Z</time>
      </trkpt>
      <trkpt lat="50.302795032039285" lon="7.766212988644838">
        <ele>181.68722700000001</ele>
        <time>2026-04-08T09:16:42Z</time>
      </trkpt>
      <trkpt lat="50.302854040637612" lon="7.767141032963991">
        <ele>178.19789900000001</ele>
        <time>2026-04-08T09:16:50Z</time>
      </trkpt>
      <trkpt lat="50.302828978747129" lon="7.767361979931593">
        <ele>177.42056400000001</ele>
        <time>2026-04-08T09:17:14Z</time>
      </trkpt>
      <trkpt lat="50.302793020382524" lon="7.767816027626395">
        <ele>175.82988499999999</ele>
        <time>2026-04-08T09:18:13Z</time>
      </trkpt>
      <trkpt lat="50.302685983479023" lon="7.768911961466074">
        <ele>172.05138099999999</ele>
        <time>2026-04-08T09:18:26Z</time>
      </trkpt>
      <trkpt lat="50.302698975428939" lon="7.769515961408615">
        <ele>170.174474</ele>
        <time>2026-04-08T09:18:32Z</time>
      </trkpt>
      <trkpt lat="50.302749015390873" lon="7.770265974104404">
        <ele>168.25062700000001</ele>
        <time>2026-04-08T09:18:39Z</time>
      </trkpt>
      <trkpt lat="50.302765024825931" lon="7.770376028493047">
        <ele>167.962863</ele>
        <time>2026-04-08T09:18:40Z</time>
      </trkpt>
      <trkpt lat="50.30282998457551" lon="7.770800990983844">
        <ele>166.84804099999999</ele>
        <time>2026-04-08T09:18:44Z</time>
      </trkpt>
      <trkpt lat="50.302842976525426" lon="7.771137021481991">
        <ele>165.98931899999999</ele>
        <time>2026-04-08T09:18:47Z</time>
      </trkpt>
      <trkpt lat="50.303114969283342" lon="7.772892024368048">
        <ele>161.471993</ele>
        <time>2026-04-08T09:19:03Z</time>
      </trkpt>
      <trkpt lat="50.303224017843604" lon="7.773446990177035">
        <ele>160.05380500000001</ele>
        <time>2026-04-08T09:19:08Z</time>
      </trkpt>
      <trkpt lat="50.303373970091343" lon="7.773994999006391">
        <ele>158.59760600000001</ele>
        <time>2026-04-08T09:19:13Z</time>
      </trkpt>
      <trkpt lat="50.303512020036578" lon="7.774545019492507">
        <ele>157.15336199999999</ele>
        <time>2026-04-08T09:19:18Z</time>
      </trkpt>
      <trkpt lat="50.303893983364105" lon="7.775693004950881">
        <ele>152.41588300000001</ele>
        <time>2026-04-08T09:19:29Z</time>
      </trkpt>
      <trkpt lat="50.304150972515345" lon="7.776437988504767">
        <ele>149.12524099999999</ele>
        <time>2026-04-08T09:19:39Z</time>
      </trkpt>
      <trkpt lat="50.304266978055239" lon="7.77676697820425">
        <ele>147.65655699999999</ele>
        <time>2026-04-08T09:20:06Z</time>
      </trkpt>
      <trkpt lat="50.304306037724018" lon="7.77710996568203">
        <ele>146.303314</ele>
        <time>2026-04-08T09:20:12Z</time>
      </trkpt>
      <trkpt lat="50.304217021912336" lon="7.777697034180164">
        <ele>144.218413</ele>
        <time>2026-04-08T09:20:18Z</time>
      </trkpt>
      <trkpt lat="50.304173016920686" lon="7.777876993641257">
        <ele>143.58485899999999</ele>
        <time>2026-04-08T09:20:20Z</time>
      </trkpt>
      <trkpt lat="50.304148038849235" lon="7.777955029159784">
        <ele>143.29798199999999</ele>
        <time>2026-04-08T09:20:21Z</time>
      </trkpt>
      <trkpt lat="50.304234959185123" lon="7.778408993035555">
        <ele>141.621824</ele>
        <time>2026-04-08T09:20:27Z</time>
      </trkpt>
      <trkpt lat="50.304393041878939" lon="7.778805959969759">
        <ele>140.083753</ele>
        <time>2026-04-08T09:20:32Z</time>
      </trkpt>
      <trkpt lat="50.304737035185099" lon="7.779952017590404">
        <ele>136.051174</ele>
        <time>2026-04-08T09:20:45Z</time>
      </trkpt>
      <trkpt lat="50.30478598549962" lon="7.780131977051497">
        <ele>135.56237400000001</ele>
        <time>2026-04-08T09:20:47Z</time>
      </trkpt>
      <trkpt lat="50.30491498298943" lon="7.780847959220409">
        <ele>133.702167</ele>
        <time>2026-04-08T09:20:54Z</time>
      </trkpt>
      <trkpt lat="50.305114975199103" lon="7.782225022092462">
        <ele>130.174285</ele>
        <time>2026-04-08T09:21:07Z</time>
      </trkpt>
      <trkpt lat="50.305222012102604" lon="7.782943015918136">
        <ele>128.34558999999999</ele>
        <time>2026-04-08T09:21:13Z</time>
      </trkpt>
      <trkpt lat="50.305155962705612" lon="7.783415000885725">
        <ele>127.12564399999999</ele>
        <time>2026-04-08T09:21:17Z</time>
      </trkpt>
      <trkpt lat="50.305073987692595" lon="7.783635025843978">
        <ele>126.49706999999999</ele>
        <time>2026-04-08T09:21:19Z</time>
      </trkpt>
      <trkpt lat="50.305083962157369" lon="7.784614032134414">
        <ele>124.012106</ele>
        <time>2026-04-08T09:21:29Z</time>
      </trkpt>
      <trkpt lat="50.305100977420807" lon="7.784712016582489">
        <ele>123.761511</ele>
        <time>2026-04-08T09:21:31Z</time>
      </trkpt>
      <trkpt lat="50.305143976584077" lon="7.785032959654927">
        <ele>122.882127</ele>
        <time>2026-04-08T09:21:56Z</time>
      </trkpt>
      <trkpt lat="50.305120004341006" lon="7.786754015833139">
        <ele>120.23841400000001</ele>
        <time>2026-04-08T09:22:32Z</time>
      </trkpt>
      <trkpt lat="50.305282026529312" lon="7.787090968340635">
        <ele>119.63426</ele>
        <time>2026-04-08T09:22:40Z</time>
      </trkpt>
      <trkpt lat="50.306019969284534" lon="7.78778700158">
        <ele>116.33918199999999</ele>
        <time>2026-04-08T09:22:52Z</time>
      </trkpt>
      <trkpt lat="50.30650201253593" lon="7.788241971284151">
        <ele>113.046672</ele>
        <time>2026-04-08T09:23:02Z</time>
      </trkpt>
      <trkpt lat="50.306642996147275" lon="7.788317995145917">
        <ele>112.149462</ele>
        <time>2026-04-08T09:23:31Z</time>
      </trkpt>
      <trkpt lat="50.306774005293846" lon="7.788440035656095">
        <ele>111.241551</ele>
        <time>2026-04-08T09:23:38Z</time>
      </trkpt>
      <trkpt lat="50.3069559764117" lon="7.78862401843071">
        <ele>109.975515</ele>
        <time>2026-04-08T09:23:44Z</time>
      </trkpt>
      <trkpt lat="50.30734196305275" lon="7.789106983691454">
        <ele>107.068462</ele>
        <time>2026-04-08T09:23:53Z</time>
      </trkpt>
      <trkpt lat="50.307415975257754" lon="7.789271017536521">
        <ele>106.309732</ele>
        <time>2026-04-08T09:23:55Z</time>
      </trkpt>
      <trkpt lat="50.307571962475777" lon="7.789690028876066">
        <ele>104.47880000000001</ele>
        <time>2026-04-08T09:24:00Z</time>
      </trkpt>
      <trkpt lat="50.307573974132538" lon="7.790433000773192">
        <ele>101.62251000000001</ele>
        <time>2026-04-08T09:24:07Z</time>
      </trkpt>
      <trkpt lat="50.307543966919184" lon="7.790637016296387">
        <ele>100.83223099999999</ele>
        <time>2026-04-08T09:24:09Z</time>
      </trkpt>
      <trkpt lat="50.307541033253074" lon="7.790813036262989">
        <ele>100.167371</ele>
        <time>2026-04-08T09:24:11Z</time>
      </trkpt>
      <trkpt lat="50.307445982471108" lon="7.791261970996857">
        <ele>97.729198999999994</ele>
        <time>2026-04-08T09:24:30Z</time>
      </trkpt>
      <trkpt lat="50.307441959157586" lon="7.791297007352114">
        <ele>97.594972999999996</ele>
        <time>2026-04-08T09:25:42Z</time>
      </trkpt>
      <trkpt lat="50.307518988847733" lon="7.791300024837256">
        <ele>97.464667000000006</ele>
        <time>2026-04-08T09:25:47Z</time>
      </trkpt>
      <trkpt lat="50.307704983279109" lon="7.791253002360463">
        <ele>97.402742000000003</ele>
        <time>2026-04-08T09:25:54Z</time>
      </trkpt>
      <trkpt lat="50.308126006275415" lon="7.791758012026548">
        <ele>97.226951</ele>
        <time>2026-04-08T09:26:08Z</time>
      </trkpt>
      <trkpt lat="50.308292973786592" lon="7.791946018114686">
        <ele>97.159412000000003</ele>
        <time>2026-04-08T09:26:38Z</time>
      </trkpt>
      <trkpt lat="50.308410990983248" lon="7.792067974805832">
        <ele>97.112189999999998</ele>
        <time>2026-04-08T09:27:30Z</time>
      </trkpt>
      <trkpt lat="50.308323986828327" lon="7.792453039437532">
        <ele>97.021608999999998</ele>
        <time>2026-04-08T09:27:41Z</time>
      </trkpt>
      <trkpt lat="50.308238994330168" lon="7.792629981413484">
        <ele>96.974643</ele>
        <time>2026-04-08T09:27:48Z</time>
      </trkpt>
      <trkpt lat="50.308161964640021" lon="7.792714973911643">
        <ele>96.943696000000003</ele>
        <time>2026-04-08T09:27:52Z</time>
      </trkpt>
      <trkpt lat="50.307699032127857" lon="7.793015968054533">
        <ele>99.509924999999996</ele>
        <time>2026-04-08T09:28:15Z</time>
      </trkpt>
      <trkpt lat="50.307419998571277" lon="7.793580992147327">
        <ele>102.739553</ele>
        <time>2026-04-08T09:28:35Z</time>
      </trkpt>
      <trkpt lat="50.307287983596325" lon="7.794432006776333">
        <ele>106.67045</ele>
        <time>2026-04-08T09:29:00Z</time>
      </trkpt>
      <trkpt lat="50.307282032445073" lon="7.794467965140939">
        <ele>106.837221</ele>
        <time>2026-04-08T09:29:01Z</time>
      </trkpt>
      <trkpt lat="50.307237021625042" lon="7.794725960120559">
        <ele>108.036083</ele>
        <time>2026-04-08T09:29:08Z</time>
      </trkpt>
      <trkpt lat="50.30712797306478" lon="7.795229963958263">
        <ele>109.247208</ele>
        <time>2026-04-08T09:29:42Z</time>
      </trkpt>
      <trkpt lat="50.307007022202015" lon="7.795858019962907">
        <ele>108.329054</ele>
        <time>2026-04-08T09:30:00Z</time>
      </trkpt>
      <trkpt lat="50.307020014151931" lon="7.795888027176261">
        <ele>108.279698</ele>
        <time>2026-04-08T09:30:01Z</time>
      </trkpt>
      <trkpt lat="50.307108024135232" lon="7.796079972758889">
        <ele>107.95793999999999</ele>
        <time>2026-04-08T09:30:11Z</time>
      </trkpt>
      <trkpt lat="50.307301981374621" lon="7.79608198441565">
        <ele>107.543188</ele>
        <time>2026-04-08T09:30:18Z</time>
      </trkpt>
      <trkpt lat="50.307695008814335" lon="7.795838993042707">
        <ele>106.63383899999999</ele>
        <time>2026-04-08T09:30:55Z</time>
      </trkpt>
      <trkpt lat="50.307720992714167" lon="7.795812003314495">
        <ele>106.567335</ele>
        <time>2026-04-08T09:30:56Z</time>
      </trkpt>
      <trkpt lat="50.308202030137181" lon="7.795658027753234">
        <ele>105.147713</ele>
        <time>2026-04-08T09:31:06Z</time>
      </trkpt>
      <trkpt lat="50.308690024539828" lon="7.795698009431362">
        <ele>102.08246800000001</ele>
        <time>2026-04-08T09:31:14Z</time>
      </trkpt>
      <trkpt lat="50.309323025867343" lon="7.795765986666083">
        <ele>98.101325000000003</ele>
        <time>2026-04-08T09:31:26Z</time>
      </trkpt>
      <trkpt lat="50.309925014153123" lon="7.795845028012991">
        <ele>94.376531999999997</ele>
        <time>2026-04-08T09:31:36Z</time>
      </trkpt>
      <trkpt lat="50.310337990522385" lon="7.795901019126177">
        <ele>93.480896999999999</ele>
        <time>2026-04-08T09:31:42Z</time>
      </trkpt>
      <trkpt lat="50.310576036572456" lon="7.79590898193419">
        <ele>92.966592000000006</ele>
        <time>2026-04-08T09:31:46Z</time>
      </trkpt>
      <trkpt lat="50.310626998543739" lon="7.795900013297796">
        <ele>92.855711999999997</ele>
        <time>2026-04-08T09:31:47Z</time>
      </trkpt>
      <trkpt lat="50.310982977971435" lon="7.795817032456398">
        <ele>92.075733</ele>
        <time>2026-04-08T09:32:17Z</time>
      </trkpt>
      <trkpt lat="50.311160003766418" lon="7.79567101970315">
        <ele>91.639905999999996</ele>
        <time>2026-04-08T09:32:27Z</time>
      </trkpt>
      <trkpt lat="50.31116503290832" lon="7.795579992234707">
        <ele>91.513853999999995</ele>
        <time>2026-04-08T09:32:30Z</time>
      </trkpt>
      <trkpt lat="50.311695020645857" lon="7.795044975355268">
        <ele>90.333164999999994</ele>
        <time>2026-04-08T09:32:52Z</time>
      </trkpt>
      <trkpt lat="50.312467999756336" lon="7.794282976537943">
        <ele>89.358867000000004</ele>
        <time>2026-04-08T09:33:09Z</time>
      </trkpt>
      <trkpt lat="50.31264997087419" lon="7.794038979336619">
        <ele>89.107602</ele>
        <time>2026-04-08T09:33:13Z</time>
      </trkpt>
      <trkpt lat="50.312728006392717" lon="7.793911993503571">
        <ele>88.989597000000003</ele>
        <time>2026-04-08T09:33:15Z</time>
      </trkpt>
      <trkpt lat="50.313939023762941" lon="7.791719036176801">
        <ele>89.829246999999995</ele>
        <time>2026-04-08T09:34:00Z</time>
      </trkpt>
      <trkpt lat="50.314098028466105" lon="7.791389040648937">
        <ele>90.036579000000003</ele>
        <time>2026-04-08T09:34:06Z</time>
      </trkpt>
      <trkpt lat="50.314157959073782" lon="7.791222995147109">
        <ele>90.142387999999997</ele>
        <time>2026-04-08T09:34:09Z</time>
      </trkpt>
      <trkpt lat="50.31438703648746" lon="7.789803016930819">
        <ele>90.984689000000003</ele>
        <time>2026-04-08T09:34:37Z</time>
      </trkpt>
      <trkpt lat="50.314147984609008" lon="7.789404038339853">
        <ele>91.292719000000005</ele>
        <time>2026-04-08T09:34:46Z</time>
      </trkpt>
      <trkpt lat="50.314036002382636" lon="7.788962982594967">
        <ele>91.565222000000006</ele>
        <time>2026-04-08T09:34:57Z</time>
      </trkpt>
      <trkpt lat="50.31412904150784" lon="7.788536008447409">
        <ele>91.805746999999997</ele>
        <time>2026-04-08T09:35:07Z</time>
      </trkpt>
      <trkpt lat="50.314420983195305" lon="7.788222022354603">
        <ele>92.097613999999993</ele>
        <time>2026-04-08T09:35:18Z</time>
      </trkpt>
      <trkpt lat="50.315293036401272" lon="7.787693962454796">
        <ele>92.861603000000002</ele>
        <time>2026-04-08T09:35:43Z</time>
      </trkpt>
      <trkpt lat="50.315872980281711" lon="7.787098009139299">
        <ele>92.516328999999999</ele>
        <time>2026-04-08T09:35:58Z</time>
      </trkpt>
      <trkpt lat="50.315897958353162" lon="7.787031959742308">
        <ele>92.447090000000003</ele>
        <time>2026-04-08T09:35:59Z</time>
      </trkpt>
      <trkpt lat="50.316018993034959" lon="7.786220004782081">
        <ele>91.690617000000003</ele>
        <time>2026-04-08T09:36:11Z</time>
      </trkpt>
      <trkpt lat="50.316039025783539" lon="7.785497987642884">
        <ele>91.003814000000006</ele>
        <time>2026-04-08T09:37:00Z</time>
      </trkpt>
      <trkpt lat="50.316041959449649" lon="7.785495975986123">
        <ele>90.999206999999998</ele>
        <time>2026-04-08T09:37:06Z</time>
      </trkpt>
      <trkpt lat="50.316168023273349" lon="7.784492997452617">
        <ele>90.575243</ele>
        <time>2026-04-08T09:37:26Z</time>
      </trkpt>
      <trkpt lat="50.316219991073012" lon="7.78398497030139">
        <ele>90.589433</ele>
        <time>2026-04-08T09:37:34Z</time>
      </trkpt>
      <trkpt lat="50.316222002729774" lon="7.783914981409907">
        <ele>90.591365999999994</ele>
        <time>2026-04-08T09:37:35Z</time>
      </trkpt>
      <trkpt lat="50.316142039373517" lon="7.781274011358619">
        <ele>91.466835000000003</ele>
        <time>2026-04-08T09:38:20Z</time>
      </trkpt>
      <trkpt lat="50.316119994968176" lon="7.781148031353951">
        <ele>91.578588999999994</ele>
        <time>2026-04-08T09:38:23Z</time>
      </trkpt>
      <trkpt lat="50.315829981118441" lon="7.780458033084869">
        <ele>92.315690000000004</ele>
        <time>2026-04-08T09:38:40Z</time>
      </trkpt>
      <trkpt lat="50.315069993957877" lon="7.777252038940787">
        <ele>92.904443000000001</ele>
        <time>2026-04-08T09:39:35Z</time>
      </trkpt>
      <trkpt lat="50.314434980973601" lon="7.774888006970286">
        <ele>95.273596999999995</ele>
        <time>2026-04-08T09:40:19Z</time>
      </trkpt>
      <trkpt lat="50.313928965479136" lon="7.772629000246525">
        <ele>97.436279999999996</ele>
        <time>2026-04-08T09:40:57Z</time>
      </trkpt>
      <trkpt lat="50.313755962997675" lon="7.771633984521031">
        <ele>98.103285</ele>
        <time>2026-04-08T09:41:39Z</time>
      </trkpt>
      <trkpt lat="50.313794016838074" lon="7.770645003765822">
        <ele>96.961534</ele>
        <time>2026-04-08T09:41:55Z</time>
      </trkpt>
      <trkpt lat="50.314526008442044" lon="7.767962040379643">
        <ele>93.882317</ele>
        <time>2026-04-08T09:42:18Z</time>
      </trkpt>
      <trkpt lat="50.314571019262075" lon="7.767863972112536">
        <ele>93.772658000000007</ele>
        <time>2026-04-08T09:42:19Z</time>
      </trkpt>
      <trkpt lat="50.315482970327139" lon="7.766657983884215">
        <ele>92.365343999999993</ele>
        <time>2026-04-08T09:42:43Z</time>
      </trkpt>
      <trkpt lat="50.317531004548073" lon="7.765331966802478">
        <ele>91.974845000000002</ele>
        <time>2026-04-08T09:43:37Z</time>
      </trkpt>
      <trkpt lat="50.318338014185429" lon="7.76514102704823">
        <ele>92.021974</ele>
        <time>2026-04-08T09:43:54Z</time>
      </trkpt>
      <trkpt lat="50.31857798807323" lon="7.765123005956411">
        <ele>92.035846000000006</ele>
        <time>2026-04-08T09:43:59Z</time>
      </trkpt>
      <trkpt lat="50.319012003019452" lon="7.765074977651238">
        <ele>91.641942999999998</ele>
        <time>2026-04-08T09:44:09Z</time>
      </trkpt>
      <trkpt lat="50.319147035479546" lon="7.765075983479619">
        <ele>91.501402999999996</ele>
        <time>2026-04-08T09:44:12Z</time>
      </trkpt>
      <trkpt lat="50.320241041481495" lon="7.764964001253247">
        <ele>90.361643999999998</ele>
        <time>2026-04-08T09:44:36Z</time>
      </trkpt>
      <trkpt lat="50.320387976244092" lon="7.764915972948074">
        <ele>90.205511999999999</ele>
        <time>2026-04-08T09:44:39Z</time>
      </trkpt>
      <trkpt lat="50.320480009540915" lon="7.764898035675287">
        <ele>90.147987000000001</ele>
        <time>2026-04-08T09:44:41Z</time>
      </trkpt>
      <trkpt lat="50.320767005905509" lon="7.764855958521366">
        <ele>90.042340999999993</ele>
        <time>2026-04-08T09:44:47Z</time>
      </trkpt>
      <trkpt lat="50.322077013552189" lon="7.764600981026888">
        <ele>89.557749999999999</ele>
        <time>2026-04-08T09:45:16Z</time>
      </trkpt>
      <trkpt lat="50.322172986343503" lon="7.764594024047256">
        <ele>89.522526999999997</ele>
        <time>2026-04-08T09:45:18Z</time>
      </trkpt>
      <trkpt lat="50.322388987988234" lon="7.764564016833901">
        <ele>89.498829999999998</ele>
        <time>2026-04-08T09:45:23Z</time>
      </trkpt>
      <trkpt lat="50.322523014619946" lon="7.764514982700348">
        <ele>89.490458000000004</ele>
        <time>2026-04-08T09:45:26Z</time>
      </trkpt>
      <trkpt lat="50.322812022641301" lon="7.764423033222556">
        <ele>89.472515000000001</ele>
        <time>2026-04-08T09:45:33Z</time>
      </trkpt>
      <trkpt lat="50.323042022064328" lon="7.764280959963799">
        <ele>89.457474000000005</ele>
        <time>2026-04-08T09:45:39Z</time>
      </trkpt>
      <trkpt lat="50.323318960145116" lon="7.764102006331086">
        <ele>89.439237000000006</ele>
        <time>2026-04-08T09:45:46Z</time>
      </trkpt>
      <trkpt lat="50.323822963982821" lon="7.763432040810585">
        <ele>89.422127000000003</ele>
        <time>2026-04-08T09:46:01Z</time>
      </trkpt>
      <trkpt lat="50.324091017246246" lon="7.763147978112102">
        <ele>89.691743000000002</ele>
        <time>2026-04-08T09:46:09Z</time>
      </trkpt>
      <trkpt lat="50.324943037703633" lon="7.762492010369897">
        <ele>90.481235999999996</ele>
        <time>2026-04-08T09:46:35Z</time>
      </trkpt>
      <trkpt lat="50.325352996587753" lon="7.762027988210321">
        <ele>90.912205999999998</ele>
        <time>2026-04-08T09:46:47Z</time>
      </trkpt>
      <trkpt lat="50.326367039233446" lon="7.761055016890168">
        <ele>93.158024999999995</ele>
        <time>2026-04-08T09:47:28Z</time>
      </trkpt>
      <trkpt lat="50.326368967071176" lon="7.761022998020053">
        <ele>93.196616000000006</ele>
        <time>2026-04-08T09:47:41Z</time>
      </trkpt>
      <trkpt lat="50.326383970677853" lon="7.760959966108203">
        <ele>93.278440000000003</ele>
        <time>2026-04-08T09:47:44Z</time>
      </trkpt>
      <trkpt lat="50.326625034213066" lon="7.759044030681253">
        <ele>92.819858999999994</ele>
        <time>2026-04-08T09:48:20Z</time>
      </trkpt>
      <trkpt lat="50.326606007292867" lon="7.758797015994787">
        <ele>92.510226000000003</ele>
        <time>2026-04-08T09:48:24Z</time>
      </trkpt>
      <trkpt lat="50.326825026422739" lon="7.758615966886282">
        <ele>91.931873999999993</ele>
        <time>2026-04-08T09:48:32Z</time>
      </trkpt>
      <trkpt lat="50.327253006398678" lon="7.758719986304641">
        <ele>91.085554000000002</ele>
        <time>2026-04-08T09:49:09Z</time>
      </trkpt>
      <trkpt lat="50.327373035252094" lon="7.758710011839867">
        <ele>90.851311999999993</ele>
        <time>2026-04-08T09:49:13Z</time>
      </trkpt>
      <trkpt lat="50.327604040503502" lon="7.758686039596796">
        <ele>90.224143999999995</ele>
        <time>2026-04-08T09:49:18Z</time>
      </trkpt>
      <trkpt lat="50.32775298692286" lon="7.758694002404809">
        <ele>89.797635</ele>
        <time>2026-04-08T09:49:21Z</time>
      </trkpt>
      <trkpt lat="50.327863963320851" lon="7.757926974445581">
        <ele>88.257194999999996</ele>
        <time>2026-04-08T09:49:30Z</time>
      </trkpt>
      <trkpt lat="50.327889025211334" lon="7.757387012243271">
        <ele>87.268377999999998</ele>
        <time>2026-04-08T09:49:35Z</time>
      </trkpt>
      <trkpt lat="50.327780982479453" lon="7.756327036768198">
        <ele>85.562663999999998</ele>
        <time>2026-04-08T09:49:47Z</time>
      </trkpt>
      <trkpt lat="50.32734202221036" lon="7.754645040258765">
        <ele>84.928050999999996</ele>
        <time>2026-04-08T09:50:24Z</time>
      </trkpt>
      <trkpt lat="50.326693011447787" lon="7.753116013482213">
        <ele>84.574173000000002</ele>
        <time>2026-04-08T09:51:04Z</time>
      </trkpt>
      <trkpt lat="50.325948027893901" lon="7.751551028341055">
        <ele>84.415102000000005</ele>
        <time>2026-04-08T09:51:46Z</time>
      </trkpt>
      <trkpt lat="50.324880005791783" lon="7.750227022916079">
        <ele>83.983936</ele>
        <time>2026-04-08T09:52:19Z</time>
      </trkpt>
      <trkpt lat="50.324220014736056" lon="7.750420980155468">
        <ele>83.987067999999994</ele>
        <time>2026-04-08T09:52:39Z</time>
      </trkpt>
      <trkpt lat="50.323934024199843" lon="7.750066006556153">
        <ele>84.067509999999999</ele>
        <time>2026-04-08T09:52:47Z</time>
      </trkpt>
      <trkpt lat="50.322682019323111" lon="7.748606968671084">
        <ele>83.874588000000003</ele>
        <time>2026-04-08T09:53:23Z</time>
      </trkpt>
      <trkpt lat="50.322916964069009" lon="7.747689988464117">
        <ele>83.412591000000006</ele>
        <time>2026-04-08T09:53:39Z</time>
      </trkpt>
      <trkpt lat="50.322887040674686" lon="7.747644977644086">
        <ele>83.385030999999998</ele>
        <time>2026-04-08T09:53:40Z</time>
      </trkpt>
      <trkpt lat="50.322372978553176" lon="7.746950034052134">
        <ele>83.018546000000001</ele>
        <time>2026-04-08T09:53:55Z</time>
      </trkpt>
      <trkpt lat="50.320933973416686" lon="7.745351018384099">
        <ele>82.545490999999998</ele>
        <time>2026-04-08T09:54:36Z</time>
      </trkpt>
      <trkpt lat="50.320333996787667" lon="7.744697984308004">
        <ele>82.486816000000005</ele>
        <time>2026-04-08T09:54:52Z</time>
      </trkpt>
      <trkpt lat="50.320025961846113" lon="7.744482988491654">
        <ele>82.459677999999997</ele>
        <time>2026-04-08T09:54:59Z</time>
      </trkpt>
      <trkpt lat="50.31969697214663" lon="7.7443010173738">
        <ele>82.431646000000001</ele>
        <time>2026-04-08T09:55:07Z</time>
      </trkpt>
      <trkpt lat="50.319478958845139" lon="7.743259984999895">
        <ele>82.141077999999993</ele>
        <time>2026-04-08T09:55:23Z</time>
      </trkpt>
      <trkpt lat="50.31849299557507" lon="7.740317014977336">
        <ele>81.418563000000006</ele>
        <time>2026-04-08T09:56:10Z</time>
      </trkpt>
      <trkpt lat="50.317790005356073" lon="7.73856301791966">
        <ele>81.310332000000002</ele>
        <time>2026-04-08T09:56:40Z</time>
      </trkpt>
      <trkpt lat="50.317664025351405" lon="7.737993970513344">
        <ele>81.253927000000004</ele>
        <time>2026-04-08T09:56:48Z</time>
      </trkpt>
      <trkpt lat="50.317350961267948" lon="7.735967980697751">
        <ele>81.021094000000005</ele>
        <time>2026-04-08T09:57:24Z</time>
      </trkpt>
      <trkpt lat="50.317350039258599" lon="7.735904026776552">
        <ele>81.009910000000005</ele>
        <time>2026-04-08T09:57:25Z</time>
      </trkpt>
      <trkpt lat="50.317345010116696" lon="7.73540697991848">
        <ele>80.923044000000004</ele>
        <time>2026-04-08T09:57:32Z</time>
      </trkpt>
      <trkpt lat="50.317355990409851" lon="7.735333973541856">
        <ele>80.909940000000006</ele>
        <time>2026-04-08T09:57:33Z</time>
      </trkpt>
      <trkpt lat="50.317651033401489" lon="7.733443016186357">
        <ele>80.582542000000004</ele>
        <time>2026-04-08T09:58:01Z</time>
      </trkpt>
      <trkpt lat="50.31765497289598" lon="7.733317036181688">
        <ele>80.567560999999998</ele>
        <time>2026-04-08T09:58:03Z</time>
      </trkpt>
      <trkpt lat="50.318036014214158" lon="7.732410030439496">
        <ele>80.426507999999998</ele>
        <time>2026-04-08T09:58:21Z</time>
      </trkpt>
      <trkpt lat="50.318575976416469" lon="7.732023959979415">
        <ele>80.316087999999993</ele>
        <time>2026-04-08T09:58:35Z</time>
      </trkpt>
      <trkpt lat="50.318610006943345" lon="7.731988001614809">
        <ele>80.308457000000004</ele>
        <time>2026-04-08T09:58:36Z</time>
      </trkpt>
      <trkpt lat="50.320427035912871" lon="7.730205003172159">
        <ele>79.790474000000003</ele>
        <time>2026-04-08T09:59:26Z</time>
      </trkpt>
      <trkpt lat="50.321442000567913" lon="7.730376999825239">
        <ele>78.977722</ele>
        <time>2026-04-08T09:59:52Z</time>
      </trkpt>
      <trkpt lat="50.321848019957542" lon="7.730584032833576">
        <ele>78.645698999999993</ele>
        <time>2026-04-08T10:00:28Z</time>
      </trkpt>
      <trkpt lat="50.322755025699735" lon="7.731002038344741">
        <ele>78.347441000000003</ele>
        <time>2026-04-08T10:00:57Z</time>
      </trkpt>
      <trkpt lat="50.324707003310323" lon="7.731835031881928">
        <ele>78.591572999999997</ele>
        <time>2026-04-08T10:01:46Z</time>
      </trkpt>
      <trkpt lat="50.325356014072895" lon="7.731912983581424">
        <ele>78.892656000000002</ele>
        <time>2026-04-08T10:02:05Z</time>
      </trkpt>
      <trkpt lat="50.326651018112898" lon="7.731793038547039">
        <ele>79.930420999999996</ele>
        <time>2026-04-08T10:02:39Z</time>
      </trkpt>
      <trkpt lat="50.327057959511876" lon="7.731449967250228">
        <ele>80.316159999999996</ele>
        <time>2026-04-08T10:02:51Z</time>
      </trkpt>
      <trkpt lat="50.327820964157581" lon="7.730612028390169">
        <ele>81.132955999999993</ele>
        <time>2026-04-08T10:03:14Z</time>
      </trkpt>
      <trkpt lat="50.327894976362586" lon="7.730547990649939">
        <ele>81.207558000000006</ele>
        <time>2026-04-08T10:03:16Z</time>
      </trkpt>
      <trkpt lat="50.328298984095454" lon="7.730222018435597">
        <ele>81.611008999999996</ele>
        <time>2026-04-08T10:03:41Z</time>
      </trkpt>
      <trkpt lat="50.328369978815317" lon="7.730277003720403">
        <ele>81.681550999999999</ele>
        <time>2026-04-08T10:03:44Z</time>
      </trkpt>
      <trkpt lat="50.328697040677071" lon="7.731060041114688">
        <ele>81.922481000000005</ele>
        <time>2026-04-08T10:03:59Z</time>
      </trkpt>
      <trkpt lat="50.329071963205934" lon="7.730826018378139">
        <ele>81.712501000000003</ele>
        <time>2026-04-08T10:04:09Z</time>
      </trkpt>
      <trkpt lat="50.329400030896068" lon="7.730514965951443">
        <ele>81.523045999999994</ele>
        <time>2026-04-08T10:04:17Z</time>
      </trkpt>
      <trkpt lat="50.329465996474028" lon="7.730417987331748">
        <ele>81.478331999999995</ele>
        <time>2026-04-08T10:04:19Z</time>
      </trkpt>
      <trkpt lat="50.329656014218926" lon="7.730144988745451">
        <ele>81.350943999999998</ele>
        <time>2026-04-08T10:04:25Z</time>
      </trkpt>
      <trkpt lat="50.329757016152143" lon="7.730024037882686">
        <ele>81.288122000000001</ele>
        <time>2026-04-08T10:04:28Z</time>
      </trkpt>
      <trkpt lat="50.329892970621586" lon="7.729870984330773">
        <ele>81.205394999999996</ele>
        <time>2026-04-08T10:04:32Z</time>
      </trkpt>
      <trkpt lat="50.330166975036263" lon="7.729065986350179">
        <ele>80.977317999999997</ele>
        <time>2026-04-08T10:05:11Z</time>
      </trkpt>
      <trkpt lat="50.330397980287671" lon="7.728385040536523">
        <ele>80.801496</ele>
        <time>2026-04-08T10:05:30Z</time>
      </trkpt>
      <trkpt lat="50.330366967245936" lon="7.728332988917828">
        <ele>80.784718999999996</ele>
        <time>2026-04-08T10:05:36Z</time>
      </trkpt>
      <trkpt lat="50.330258002504706" lon="7.728236010298133">
        <ele>80.740268999999998</ele>
        <time>2026-04-08T10:09:17Z</time>
      </trkpt>
      <trkpt lat="50.330317011103034" lon="7.728221006691456">
        <ele>80.718890999999999</ele>
        <time>2026-04-08T10:09:39Z</time>
      </trkpt>
      <trkpt lat="50.330541981384158" lon="7.72814498282969">
        <ele>80.626468000000003</ele>
        <time>2026-04-08T10:09:52Z</time>
      </trkpt>
      <trkpt lat="50.33106199465692" lon="7.725624963641167">
        <ele>81.944953999999996</ele>
        <time>2026-04-08T10:10:37Z</time>
      </trkpt>
      <trkpt lat="50.331087978556752" lon="7.725367974489927">
        <ele>82.124454</ele>
        <time>2026-04-08T10:10:41Z</time>
      </trkpt>
      <trkpt lat="50.331464996561408" lon="7.722214031964541">
        <ele>82.720455000000001</ele>
        <time>2026-04-08T10:11:31Z</time>
      </trkpt>
      <trkpt lat="50.33151101320982" lon="7.721813041716814">
        <ele>82.942164000000005</ele>
        <time>2026-04-08T10:11:38Z</time>
      </trkpt>
      <trkpt lat="50.331648979336023" lon="7.721390007063747">
        <ele>83.243626000000006</ele>
        <time>2026-04-08T10:11:45Z</time>
      </trkpt>
      <trkpt lat="50.331801027059555" lon="7.720984993502498">
        <ele>83.541416999999996</ele>
        <time>2026-04-08T10:11:52Z</time>
      </trkpt>
      <trkpt lat="50.331959025934339" lon="7.72058098576963">
        <ele>83.841781999999995</ele>
        <time>2026-04-08T10:11:59Z</time>
      </trkpt>
      <trkpt lat="50.332161029800773" lon="7.72008502855897">
        <ele>84.214716999999993</ele>
        <time>2026-04-08T10:12:08Z</time>
      </trkpt>
      <trkpt lat="50.332195982336998" lon="7.719971034675837">
        <ele>84.294880000000006</ele>
        <time>2026-04-08T10:12:10Z</time>
      </trkpt>
      <trkpt lat="50.33226597122848" lon="7.719747992232442">
        <ele>84.452358000000004</ele>
        <time>2026-04-08T10:12:14Z</time>
      </trkpt>
      <trkpt lat="50.332425981760025" lon="7.719376003369689">
        <ele>84.610337000000001</ele>
        <time>2026-04-08T10:12:21Z</time>
      </trkpt>
      <trkpt lat="50.334050981327891" lon="7.715752003714442">
        <ele>85.840611999999993</ele>
        <time>2026-04-08T10:13:26Z</time>
      </trkpt>
      <trkpt lat="50.334087023511529" lon="7.715695006772876">
        <ele>85.862914000000004</ele>
        <time>2026-04-08T10:13:27Z</time>
      </trkpt>
      <trkpt lat="50.334252985194325" lon="7.715408010408282">
        <ele>85.970663000000002</ele>
        <time>2026-04-08T10:13:32Z</time>
      </trkpt>
      <trkpt lat="50.334633020684123" lon="7.714723041281104">
        <ele>86.883519000000007</ele>
        <time>2026-04-08T10:14:04Z</time>
      </trkpt>
      <trkpt lat="50.334770986810327" lon="7.714740978553891">
        <ele>87.213661000000002</ele>
        <time>2026-04-08T10:14:09Z</time>
      </trkpt>
      <trkpt lat="50.335907991975546" lon="7.714936025440693">
        <ele>89.915741999999995</ele>
        <time>2026-04-08T10:14:46Z</time>
      </trkpt>
      <trkpt lat="50.335968006402254" lon="7.714947005733848">
        <ele>90.058204000000003</ele>
        <time>2026-04-08T10:14:48Z</time>
      </trkpt>
      <trkpt lat="50.336435968056321" lon="7.714832006022334">
        <ele>90.384508999999994</ele>
        <time>2026-04-08T10:14:58Z</time>
      </trkpt>
      <trkpt lat="50.337364012375474" lon="7.714542998000979">
        <ele>90.562768000000005</ele>
        <time>2026-04-08T10:15:13Z</time>
      </trkpt>
      <trkpt lat="50.337473982945085" lon="7.714516008272767">
        <ele>90.583747000000002</ele>
        <time>2026-04-08T10:15:15Z</time>
      </trkpt>
      <trkpt lat="50.338827995583415" lon="7.71415600553155">
        <ele>92.792717999999994</ele>
        <time>2026-04-08T10:15:54Z</time>
      </trkpt>
      <trkpt lat="50.33894601278007" lon="7.71404997445643">
        <ele>93.083347000000003</ele>
        <time>2026-04-08T10:15:58Z</time>
      </trkpt>
      <trkpt lat="50.339262010529637" lon="7.714175032451749">
        <ele>93.778862000000004</ele>
        <time>2026-04-08T10:16:07Z</time>
      </trkpt>
      <trkpt lat="50.340979965403676" lon="7.714766962453723">
        <ele>96.445075000000003</ele>
        <time>2026-04-08T10:16:55Z</time>
      </trkpt>
      <trkpt lat="50.341900968924165" lon="7.716104965656996">
        <ele>97.50076</ele>
        <time>2026-04-08T10:17:32Z</time>
      </trkpt>
      <trkpt lat="50.342406984418631" lon="7.716434961184859">
        <ele>97.880343999999994</ele>
        <time>2026-04-08T10:17:50Z</time>
      </trkpt>
      <trkpt lat="50.342485019937158" lon="7.716580973938108">
        <ele>97.95626</ele>
        <time>2026-04-08T10:17:53Z</time>
      </trkpt>
      <trkpt lat="50.342621980234981" lon="7.716894038021565">
        <ele>98.245650999999995</ele>
        <time>2026-04-08T10:17:59Z</time>
      </trkpt>
      <trkpt lat="50.343261016532779" lon="7.718536974862218">
        <ele>101.547713</ele>
        <time>2026-04-08T10:18:34Z</time>
      </trkpt>
      <trkpt lat="50.344041036441922" lon="7.71987003274262">
        <ele>103.88877100000001</ele>
        <time>2026-04-08T10:19:06Z</time>
      </trkpt>
      <trkpt lat="50.344411013647914" lon="7.719727037474513">
        <ele>104.491406</ele>
        <time>2026-04-08T10:19:18Z</time>
      </trkpt>
      <trkpt lat="50.345695037394762" lon="7.718696985393763">
        <ele>107.923501</ele>
        <time>2026-04-08T10:19:58Z</time>
      </trkpt>
      <trkpt lat="50.346178002655506" lon="7.718318039551377">
        <ele>109.700541</ele>
        <time>2026-04-08T10:20:14Z</time>
      </trkpt>
      <trkpt lat="50.347035974264145" lon="7.71772300824523">
        <ele>112.707898</ele>
        <time>2026-04-08T10:20:43Z</time>
      </trkpt>
      <trkpt lat="50.348102990537882" lon="7.717553023248911">
        <ele>116.01829499999999</ele>
        <time>2026-04-08T10:21:13Z</time>
      </trkpt>
      <trkpt lat="50.349478041753173" lon="7.718016039580107">
        <ele>118.425679</ele>
        <time>2026-04-08T10:21:52Z</time>
      </trkpt>
      <trkpt lat="50.350326960906386" lon="7.719002002850175">
        <ele>119.50291799999999</ele>
        <time>2026-04-08T10:22:20Z</time>
      </trkpt>
      <trkpt lat="50.350562995299697" lon="7.719072997570038">
        <ele>119.604026</ele>
        <time>2026-04-08T10:22:26Z</time>
      </trkpt>
      <trkpt lat="50.351179987192154" lon="7.719468036666513">
        <ele>119.888413</ele>
        <time>2026-04-08T10:22:44Z</time>
      </trkpt>
      <trkpt lat="50.35164300352335" lon="7.720060972496867">
        <ele>120.141263</ele>
        <time>2026-04-08T10:23:00Z</time>
      </trkpt>
      <trkpt lat="50.352342976257205" lon="7.721782028675079">
        <ele>120.67469</ele>
        <time>2026-04-08T10:23:34Z</time>
      </trkpt>
      <trkpt lat="50.353391971439123" lon="7.723244000226259">
        <ele>120.891734</ele>
        <time>2026-04-08T10:24:13Z</time>
      </trkpt>
      <trkpt lat="50.355066005140543" lon="7.724237004294992">
        <ele>122.29980999999999</ele>
        <time>2026-04-08T10:25:00Z</time>
      </trkpt>
      <trkpt lat="50.356726041063666" lon="7.724743019789457">
        <ele>125.353323</ele>
        <time>2026-04-08T10:25:46Z</time>
      </trkpt>
      <trkpt lat="50.358012998476624" lon="7.725049965083599">
        <ele>128.446674</ele>
        <time>2026-04-08T10:26:25Z</time>
      </trkpt>
      <trkpt lat="50.358453970402479" lon="7.724579991772771">
        <ele>130.09686600000001</ele>
        <time>2026-04-08T10:26:48Z</time>
      </trkpt>
      <trkpt lat="50.359257962554693" lon="7.724400032311678">
        <ele>132.35987399999999</ele>
        <time>2026-04-08T10:27:13Z</time>
      </trkpt>
      <trkpt lat="50.35969901829958" lon="7.724434984847903">
        <ele>133.74248499999999</ele>
        <time>2026-04-08T10:27:55Z</time>
      </trkpt>
      <trkpt lat="50.360436961054802" lon="7.724847961217165">
        <ele>136.20328599999999</ele>
        <time>2026-04-08T10:53:54Z</time>
      </trkpt>
      <trkpt lat="50.361254028975964" lon="7.725006965920329">
        <ele>138.519386</ele>
        <time>2026-04-08T10:54:29Z</time>
      </trkpt>
      <trkpt lat="50.361805977299809" lon="7.725595040246844">
        <ele>139.963514</ele>
        <time>2026-04-08T10:54:49Z</time>
      </trkpt>
      <trkpt lat="50.361947966739535" lon="7.725929981097579">
        <ele>140.514848</ele>
        <time>2026-04-08T10:54:54Z</time>
      </trkpt>
      <trkpt lat="50.362119041383266" lon="7.72629601880908">
        <ele>141.13583600000001</ele>
        <time>2026-04-08T10:54:59Z</time>
      </trkpt>
      <trkpt lat="50.362366978079081" lon="7.726914016529918">
        <ele>141.91371100000001</ele>
        <time>2026-04-08T10:55:07Z</time>
      </trkpt>
      <trkpt lat="50.362740978598595" lon="7.727659000083804">
        <ele>142.60699600000001</ele>
        <time>2026-04-08T10:55:23Z</time>
      </trkpt>
      <trkpt lat="50.362766040489078" lon="7.727915989235044">
        <ele>142.79566399999999</ele>
        <time>2026-04-08T10:55:27Z</time>
      </trkpt>
      <trkpt lat="50.362909035757184" lon="7.728721993044019">
        <ele>143.40290300000001</ele>
        <time>2026-04-08T10:55:43Z</time>
      </trkpt>
      <trkpt lat="50.362821025773883" lon="7.728883009403944">
        <ele>143.55796000000001</ele>
        <time>2026-04-08T10:55:47Z</time>
      </trkpt>
      <trkpt lat="50.362719018012285" lon="7.729046037420631">
        <ele>143.81706600000001</ele>
        <time>2026-04-08T10:55:52Z</time>
      </trkpt>
      <trkpt lat="50.362766040489078" lon="7.729266984388232">
        <ele>144.327843</ele>
        <time>2026-04-08T10:55:57Z</time>
      </trkpt>
      <trkpt lat="50.363412033766508" lon="7.730287984013557">
        <ele>147.32867100000001</ele>
        <time>2026-04-08T10:56:28Z</time>
      </trkpt>
      <trkpt lat="50.364452982321382" lon="7.730847978964448">
        <ele>150.33418599999999</ele>
        <time>2026-04-08T10:57:06Z</time>
      </trkpt>
      <trkpt lat="50.365987960249186" lon="7.730817971751094">
        <ele>153.02713900000001</ele>
        <time>2026-04-08T10:57:53Z</time>
      </trkpt>
      <trkpt lat="50.367283970117569" lon="7.731253998354077">
        <ele>155.178179</ele>
        <time>2026-04-08T10:58:32Z</time>
      </trkpt>
      <trkpt lat="50.367357982322574" lon="7.731773005798459">
        <ele>155.80792299999999</ele>
        <time>2026-04-08T10:58:42Z</time>
      </trkpt>
      <trkpt lat="50.367553029209375" lon="7.733492972329259">
        <ele>158.59188499999999</ele>
        <time>2026-04-08T10:59:18Z</time>
      </trkpt>
      <trkpt lat="50.367643972858787" lon="7.733647031709552">
        <ele>158.92128099999999</ele>
        <time>2026-04-08T10:59:23Z</time>
      </trkpt>
      <trkpt lat="50.367939015850425" lon="7.733659017831087">
        <ele>159.661136</ele>
        <time>2026-04-08T10:59:31Z</time>
      </trkpt>
      <trkpt lat="50.368058960884809" lon="7.733757002279162">
        <ele>159.993979</ele>
        <time>2026-04-08T10:59:34Z</time>
      </trkpt>
      <trkpt lat="50.368822971358895" lon="7.734658978879452">
        <ele>161.84067300000001</ele>
        <time>2026-04-08T11:00:03Z</time>
      </trkpt>
      <trkpt lat="50.369902979582548" lon="7.736978000029922">
        <ele>164.10893899999999</ele>
        <time>2026-04-08T11:01:05Z</time>
      </trkpt>
      <trkpt lat="50.369986966252327" lon="7.737118983641267">
        <ele>164.20246800000001</ele>
        <time>2026-04-08T11:01:08Z</time>
      </trkpt>
      <trkpt lat="50.370417963713408" lon="7.738164961338043">
        <ele>164.86233100000001</ele>
        <time>2026-04-08T11:01:27Z</time>
      </trkpt>
      <trkpt lat="50.370718035846949" lon="7.739472035318613">
        <ele>165.63808700000001</ele>
        <time>2026-04-08T11:01:58Z</time>
      </trkpt>
      <trkpt lat="50.37106697447598" lon="7.739829020574689">
        <ele>166.014093</ele>
        <time>2026-04-08T11:02:14Z</time>
      </trkpt>
      <trkpt lat="50.371522027999163" lon="7.7404760196805">
        <ele>166.851517</ele>
        <time>2026-04-08T11:02:48Z</time>
      </trkpt>
      <trkpt lat="50.373071003705263" lon="7.740393960848451">
        <ele>170.11347000000001</ele>
        <time>2026-04-08T11:03:33Z</time>
      </trkpt>
      <trkpt lat="50.373200001195073" lon="7.740407036617398">
        <ele>171.107204</ele>
        <time>2026-04-08T11:03:37Z</time>
      </trkpt>
      <trkpt lat="50.373146021738648" lon="7.741128969937563">
        <ele>175.01561899999999</ele>
        <time>2026-04-08T11:03:56Z</time>
      </trkpt>
      <trkpt lat="50.373144010081887" lon="7.74116400629282">
        <ele>175.18768</ele>
        <time>2026-04-08T11:03:57Z</time>
      </trkpt>
      <trkpt lat="50.373120037838817" lon="7.741602966561914">
        <ele>177.35307499999999</ele>
        <time>2026-04-08T11:04:10Z</time>
      </trkpt>
      <trkpt lat="50.373110985383391" lon="7.741871019825339">
        <ele>178.66774000000001</ele>
        <time>2026-04-08T11:04:18Z</time>
      </trkpt>
      <trkpt lat="50.373210981488228" lon="7.742612985894084">
        <ele>182.38771</ele>
        <time>2026-04-08T11:04:41Z</time>
      </trkpt>
      <trkpt lat="50.373307038098574" lon="7.743140961974859">
        <ele>185.538656</ele>
        <time>2026-04-08T11:04:57Z</time>
      </trkpt>
      <trkpt lat="50.373316006734967" lon="7.743169041350484">
        <ele>185.72487799999999</ele>
        <time>2026-04-08T11:04:58Z</time>
      </trkpt>
      <trkpt lat="50.373391024768353" lon="7.743324022740126">
        <ele>186.88178400000001</ele>
        <time>2026-04-08T11:05:04Z</time>
      </trkpt>
      <trkpt lat="50.373584982007742" lon="7.743705986067653">
        <ele>189.78518700000001</ele>
        <time>2026-04-08T11:05:19Z</time>
      </trkpt>
      <trkpt lat="50.373839037492871" lon="7.743552010506392">
        <ele>192.92762400000001</ele>
        <time>2026-04-08T11:05:35Z</time>
      </trkpt>
      <trkpt lat="50.373860998079181" lon="7.743410021066666">
        <ele>193.795502</ele>
        <time>2026-04-08T11:05:39Z</time>
      </trkpt>
      <trkpt lat="50.373962000012398" lon="7.742980029433966">
        <ele>196.53319300000001</ele>
        <time>2026-04-08T11:05:52Z</time>
      </trkpt>
      <trkpt lat="50.374242961406708" lon="7.743082959204912">
        <ele>199.66462300000001</ele>
        <time>2026-04-08T11:06:08Z</time>
      </trkpt>
      <trkpt lat="50.374260982498527" lon="7.743101986125112">
        <ele>199.84769</ele>
        <time>2026-04-08T11:06:09Z</time>
      </trkpt>
      <trkpt lat="50.374409006908536" lon="7.743287980556488">
        <ele>201.39590699999999</ele>
        <time>2026-04-08T11:06:18Z</time>
      </trkpt>
      <trkpt lat="50.374440019950271" lon="7.743326034396887">
        <ele>201.71695600000001</ele>
        <time>2026-04-08T11:06:20Z</time>
      </trkpt>
      <trkpt lat="50.374399032443762" lon="7.743854010477662">
        <ele>204.98037600000001</ele>
        <time>2026-04-08T11:06:40Z</time>
      </trkpt>
      <trkpt lat="50.374415963888168" lon="7.743875971063972">
        <ele>205.16022000000001</ele>
        <time>2026-04-08T11:06:41Z</time>
      </trkpt>
      <trkpt lat="50.374645963311195" lon="7.744004968553782">
        <ele>207.157644</ele>
        <time>2026-04-08T11:06:53Z</time>
      </trkpt>
      <trkpt lat="50.374916028231382" lon="7.744147963821888">
        <ele>209.493774</ele>
        <time>2026-04-08T11:07:08Z</time>
      </trkpt>
      <trkpt lat="50.375185003504157" lon="7.744544008746743">
        <ele>212.51170500000001</ele>
        <time>2026-04-08T11:07:24Z</time>
      </trkpt>
      <trkpt lat="50.375794032588601" lon="7.745443973690271">
        <ele>215.51809399999999</ele>
        <time>2026-04-08T11:07:50Z</time>
      </trkpt>
      <trkpt lat="50.376229975372553" lon="7.745941020548344">
        <ele>216.52331599999999</ele>
        <time>2026-04-08T11:08:03Z</time>
      </trkpt>
      <trkpt lat="50.376335000619292" lon="7.746698996052146">
        <ele>217.47883999999999</ele>
        <time>2026-04-08T11:08:25Z</time>
      </trkpt>
      <trkpt lat="50.376364002004266" lon="7.746841991320252">
        <ele>217.65626399999999</ele>
        <time>2026-04-08T11:08:29Z</time>
      </trkpt>
      <trkpt lat="50.376165015622973" lon="7.746861018240452">
        <ele>219.17872199999999</ele>
        <time>2026-04-08T11:08:39Z</time>
      </trkpt>
      <trkpt lat="50.375895034521818" lon="7.746634036302567">
        <ele>221.277556</ele>
        <time>2026-04-08T11:08:52Z</time>
      </trkpt>
      <trkpt lat="50.375746004283428" lon="7.746550971642137">
        <ele>222.36578399999999</ele>
        <time>2026-04-08T11:08:59Z</time>
      </trkpt>
      <trkpt lat="50.375566966831684" lon="7.746591959148645">
        <ele>223.60661999999999</ele>
        <time>2026-04-08T11:09:07Z</time>
      </trkpt>
      <trkpt lat="50.375245017930865" lon="7.746611991897225">
        <ele>225.83473799999999</ele>
        <time>2026-04-08T11:09:21Z</time>
      </trkpt>
      <trkpt lat="50.374702960252762" lon="7.74679396301508">
        <ele>229.63083700000001</ele>
        <time>2026-04-08T11:09:44Z</time>
      </trkpt>
      <trkpt lat="50.374448988586664" lon="7.74687996134162">
        <ele>231.4982</ele>
        <time>2026-04-08T11:09:54Z</time>
      </trkpt>
      <trkpt lat="50.374149000272155" lon="7.746981969103217">
        <ele>233.73353499999999</ele>
        <time>2026-04-08T11:10:06Z</time>
      </trkpt>
      <trkpt lat="50.37377298809588" lon="7.747451020404697">
        <ele>237.27078800000001</ele>
        <time>2026-04-08T11:10:26Z</time>
      </trkpt>
      <trkpt lat="50.373706016689539" lon="7.747557973489165">
        <ele>237.967015</ele>
        <time>2026-04-08T11:10:30Z</time>
      </trkpt>
      <trkpt lat="50.373475011438131" lon="7.747986037284136">
        <ele>240.572396</ele>
        <time>2026-04-08T11:10:45Z</time>
      </trkpt>
      <trkpt lat="50.373334027826786" lon="7.74831997230649">
        <ele>242.432176</ele>
        <time>2026-04-08T11:10:56Z</time>
      </trkpt>
      <trkpt lat="50.373109979555011" lon="7.74896303191781">
        <ele>245.77465599999999</ele>
        <time>2026-04-08T11:11:16Z</time>
      </trkpt>
      <trkpt lat="50.37289397791028" lon="7.749363016337156">
        <ele>248.17831699999999</ele>
        <time>2026-04-08T11:11:30Z</time>
      </trkpt>
      <trkpt lat="50.372627014294267" lon="7.749725030735135">
        <ele>250.69199499999999</ele>
        <time>2026-04-08T11:11:45Z</time>
      </trkpt>
      <trkpt lat="50.372474966570735" lon="7.749920999631286">
        <ele>252.09362200000001</ele>
        <time>2026-04-08T11:11:53Z</time>
      </trkpt>
      <trkpt lat="50.372224012389779" lon="7.750270022079349">
        <ele>254.483079</ele>
        <time>2026-04-08T11:12:07Z</time>
      </trkpt>
      <trkpt lat="50.372045980766416" lon="7.750523993745446">
        <ele>256.23272400000002</ele>
        <time>2026-04-08T11:12:17Z</time>
      </trkpt>
      <trkpt lat="50.371740041300654" lon="7.750976029783487">
        <ele>259.59773300000001</ele>
        <time>2026-04-08T11:12:35Z</time>
      </trkpt>
      <trkpt lat="50.37136897444725" lon="7.751145008951426">
        <ele>262.846023</ele>
        <time>2026-04-08T11:12:52Z</time>
      </trkpt>
      <trkpt lat="50.37106798030436" lon="7.750718034803867">
        <ele>266.24596000000003</ele>
        <time>2026-04-08T11:13:09Z</time>
      </trkpt>
      <trkpt lat="50.371053982526064" lon="7.750565987080336">
        <ele>267.02998500000001</ele>
        <time>2026-04-08T11:13:13Z</time>
      </trkpt>
      <trkpt lat="50.371073009446263" lon="7.749959975481033">
        <ele>270.12938800000001</ele>
        <time>2026-04-08T11:13:29Z</time>
      </trkpt>
      <trkpt lat="50.371075021103024" lon="7.749560996890068">
        <ele>272.26854500000002</ele>
        <time>2026-04-08T11:13:40Z</time>
      </trkpt>
      <trkpt lat="50.37102498114109" lon="7.748998990282416">
        <ele>275.35116199999999</ele>
        <time>2026-04-08T11:13:56Z</time>
      </trkpt>
      <trkpt lat="50.370902018621564" lon="7.748614009469748">
        <ele>277.698868</ele>
        <time>2026-04-08T11:14:08Z</time>
      </trkpt>
      <trkpt lat="50.370591972023249" lon="7.748317960649729">
        <ele>280.768597</ele>
        <time>2026-04-08T11:14:23Z</time>
      </trkpt>
      <trkpt lat="50.370394997298717" lon="7.748194998130202">
        <ele>282.56277799999998</ele>
        <time>2026-04-08T11:14:32Z</time>
      </trkpt>
      <trkpt lat="50.370119987055659" lon="7.748185023665428">
        <ele>284.92627700000003</ele>
        <time>2026-04-08T11:14:44Z</time>
      </trkpt>
      <trkpt lat="50.370071036741138" lon="7.748675029724836">
        <ele>287.95840700000002</ele>
        <time>2026-04-08T11:14:59Z</time>
      </trkpt>
      <trkpt lat="50.370086040347815" lon="7.748863035812974">
        <ele>289.04785199999998</ele>
        <time>2026-04-08T11:15:05Z</time>
      </trkpt>
      <trkpt lat="50.370076987892389" lon="7.749191019684076">
        <ele>290.95665300000002</ele>
        <time>2026-04-08T11:15:16Z</time>
      </trkpt>
      <trkpt lat="50.369769036769867" lon="7.749600978568196">
        <ele>294.66327100000001</ele>
        <time>2026-04-08T11:15:36Z</time>
      </trkpt>
      <trkpt lat="50.369617994874716" lon="7.74990800768137">
        <ele>296.92499199999997</ele>
        <time>2026-04-08T11:15:48Z</time>
      </trkpt>
      <trkpt lat="50.369616989046335" lon="7.750464985147119">
        <ele>300.23561100000001</ele>
        <time>2026-04-08T11:16:05Z</time>
      </trkpt>
      <trkpt lat="50.369772976264358" lon="7.750861030071974">
        <ele>302.619508</ele>
        <time>2026-04-08T11:16:18Z</time>
      </trkpt>
      <trkpt lat="50.369490003213286" lon="7.750799003988504">
        <ele>305.331997</ele>
        <time>2026-04-08T11:16:35Z</time>
      </trkpt>
      <trkpt lat="50.369265032932162" lon="7.750549977645278">
        <ele>307.19922400000002</ele>
        <time>2026-04-08T11:16:47Z</time>
      </trkpt>
      <trkpt lat="50.368921039626002" lon="7.750312015414238">
        <ele>309.73858300000001</ele>
        <time>2026-04-08T11:17:02Z</time>
      </trkpt>
      <trkpt lat="50.368593977764249" lon="7.750023007392883">
        <ele>312.27779099999998</ele>
        <time>2026-04-08T11:17:15Z</time>
      </trkpt>
      <trkpt lat="50.368352998048067" lon="7.749787978827953">
        <ele>314.19579599999997</ele>
        <time>2026-04-08T11:17:26Z</time>
      </trkpt>
      <trkpt lat="50.367872966453433" lon="7.749562002718449">
        <ele>317.57477799999998</ele>
        <time>2026-04-08T11:17:44Z</time>
      </trkpt>
      <trkpt lat="50.367700969800353" lon="7.749519003555179">
        <ele>318.74465800000002</ele>
        <time>2026-04-08T11:17:50Z</time>
      </trkpt>
      <trkpt lat="50.367470970377326" lon="7.74997497908771">
        <ele>321.41022900000002</ele>
        <time>2026-04-08T11:18:05Z</time>
      </trkpt>
      <trkpt lat="50.367382038384676" lon="7.750685010105372">
        <ele>324.51844199999999</ele>
        <time>2026-04-08T11:18:22Z</time>
      </trkpt>
      <trkpt lat="50.367402993142605" lon="7.751345001161099">
        <ele>327.40387800000002</ele>
        <time>2026-04-08T11:18:37Z</time>
      </trkpt>
      <trkpt lat="50.367536013945937" lon="7.752095013856888">
        <ele>330.889004</ele>
        <time>2026-04-08T11:18:57Z</time>
      </trkpt>
      <trkpt lat="50.367771964520216" lon="7.752656014636159">
        <ele>333.89183800000001</ele>
        <time>2026-04-08T11:19:16Z</time>
      </trkpt>
      <trkpt lat="50.367913031950593" lon="7.752858018502593">
        <ele>335.22349100000002</ele>
        <time>2026-04-08T11:19:24Z</time>
      </trkpt>
      <trkpt lat="50.368179995566607" lon="7.753408038988709">
        <ele>338.36498599999999</ele>
        <time>2026-04-08T11:19:42Z</time>
      </trkpt>
      <trkpt lat="50.368249984458089" lon="7.753792013972998">
        <ele>340.25799599999999</ele>
        <time>2026-04-08T11:19:51Z</time>
      </trkpt>
      <trkpt lat="50.368532035499811" lon="7.754250001162291">
        <ele>343.39475700000003</ele>
        <time>2026-04-08T11:20:09Z</time>
      </trkpt>
      <trkpt lat="50.368945011869073" lon="7.754478994756937">
        <ele>346.66769299999999</ele>
        <time>2026-04-08T11:20:27Z</time>
      </trkpt>
      <trkpt lat="50.368966972455382" lon="7.754483018070459">
        <ele>346.83287899999999</ele>
        <time>2026-04-08T11:20:28Z</time>
      </trkpt>
      <trkpt lat="50.369401993229985" lon="7.754617966711521">
        <ele>350.14993099999998</ele>
        <time>2026-04-08T11:20:55Z</time>
      </trkpt>
      <trkpt lat="50.369535014033318" lon="7.754685021936894">
        <ele>351.19687299999998</ele>
        <time>2026-04-08T11:22:10Z</time>
      </trkpt>
      <trkpt lat="50.369876995682716" lon="7.754879985004664">
        <ele>355.14255100000003</ele>
        <time>2026-04-08T11:23:06Z</time>
      </trkpt>
      <trkpt lat="50.37009802646935" lon="7.755033960565925">
        <ele>358.02891699999998</ele>
        <time>2026-04-08T11:23:17Z</time>
      </trkpt>
      <trkpt lat="50.370345963165164" lon="7.755209980532527">
        <ele>361.27165400000001</ele>
        <time>2026-04-08T11:23:35Z</time>
      </trkpt>
      <trkpt lat="50.3704649861902" lon="7.755313999950886">
        <ele>362.89462600000002</ele>
        <time>2026-04-08T11:23:43Z</time>
      </trkpt>
      <trkpt lat="50.370720969513059" lon="7.755638966336846">
        <ele>366.88283799999999</ele>
        <time>2026-04-08T11:24:07Z</time>
      </trkpt>
      <trkpt lat="50.370737984776497" lon="7.75566796772182">
        <ele>367.18133499999999</ele>
        <time>2026-04-08T11:24:08Z</time>
      </trkpt>
      <trkpt lat="50.370839992538095" lon="7.755864020437002">
        <ele>369.11297500000001</ele>
        <time>2026-04-08T11:24:17Z</time>
      </trkpt>
      <trkpt lat="50.37085298448801" lon="7.7559470012784">
        <ele>369.76071400000001</ele>
        <time>2026-04-08T11:24:21Z</time>
      </trkpt>
      <trkpt lat="50.370871005579829" lon="7.756008021533489">
        <ele>370.27094</ele>
        <time>2026-04-08T11:25:18Z</time>
      </trkpt>
      <trkpt lat="50.37087201140821" lon="7.756103994324803">
        <ele>371.02887099999998</ele>
        <time>2026-04-08T11:25:44Z</time>
      </trkpt>
      <trkpt lat="50.370889026671648" lon="7.756551001220942">
        <ele>373.91798499999999</ele>
        <time>2026-04-08T11:26:09Z</time>
      </trkpt>
      <trkpt lat="50.370965972542763" lon="7.757224990054965">
        <ele>376.79295200000001</ele>
        <time>2026-04-08T11:26:31Z</time>
      </trkpt>
      <trkpt lat="50.371041996404529" lon="7.757568983361125">
        <ele>378.32272399999999</ele>
        <time>2026-04-08T11:27:10Z</time>
      </trkpt>
      <trkpt lat="50.371060017496347" lon="7.757731005549431">
        <ele>379.01226600000001</ele>
        <time>2026-04-08T11:27:17Z</time>
      </trkpt>
      <trkpt lat="50.371075021103024" lon="7.758605992421508">
        <ele>382.63431200000002</ele>
        <time>2026-04-08T11:27:46Z</time>
      </trkpt>
      <trkpt lat="50.371073009446263" lon="7.758635999634862">
        <ele>382.75877700000001</ele>
        <time>2026-04-08T11:27:47Z</time>
      </trkpt>
      <trkpt lat="50.371059011667967" lon="7.758892988786101">
        <ele>383.82365900000002</ele>
        <time>2026-04-08T11:27:54Z</time>
      </trkpt>
      <trkpt lat="50.371062029153109" lon="7.759083006531">
        <ele>384.62748099999999</ele>
        <time>2026-04-08T11:28:01Z</time>
      </trkpt>
      <trkpt lat="50.371073009446263" lon="7.759293979033828">
        <ele>385.83860199999998</ele>
        <time>2026-04-08T11:28:09Z</time>
      </trkpt>
      <trkpt lat="50.371102010831237" lon="7.759689018130302">
        <ele>388.39220999999998</ele>
        <time>2026-04-08T11:28:23Z</time>
      </trkpt>
      <trkpt lat="50.371089018881321" lon="7.760165026411414">
        <ele>391.46343999999999</ele>
        <time>2026-04-08T11:28:41Z</time>
      </trkpt>
      <trkpt lat="50.371080972254276" lon="7.760354038327932">
        <ele>392.697383</ele>
        <time>2026-04-08T11:29:27Z</time>
      </trkpt>
      <trkpt lat="50.371073009446263" lon="7.760368958115578">
        <ele>392.822765</ele>
        <time>2026-04-08T11:29:34Z</time>
      </trkpt>
      <trkpt lat="50.371062029153109" lon="7.760543972253799">
        <ele>393.95902999999998</ele>
        <time>2026-04-08T11:29:41Z</time>
      </trkpt>
      <trkpt lat="50.371062029153109" lon="7.760573979467154">
        <ele>394.15106300000002</ele>
        <time>2026-04-08T11:29:42Z</time>
      </trkpt>
      <trkpt lat="50.371080972254276" lon="7.760886959731579">
        <ele>396.19210900000002</ele>
        <time>2026-04-08T11:29:54Z</time>
      </trkpt>
      <trkpt lat="50.371064962819219" lon="7.761090975254774">
        <ele>397.54400600000002</ele>
        <time>2026-04-08T11:30:00Z</time>
      </trkpt>
      <trkpt lat="50.371077032759786" lon="7.761318041011691">
        <ele>399.00437699999998</ele>
        <time>2026-04-08T11:30:07Z</time>
      </trkpt>
      <trkpt lat="50.37106798030436" lon="7.761481991037726">
        <ele>400.06286899999998</ele>
        <time>2026-04-08T11:30:13Z</time>
      </trkpt>
      <trkpt lat="50.371078038588166" lon="7.761508980765939">
        <ele>400.263645</ele>
        <time>2026-04-08T11:30:40Z</time>
      </trkpt>
      <trkpt lat="50.371058005839586" lon="7.761643007397652">
        <ele>401.15893399999999</ele>
        <time>2026-04-08T11:30:45Z</time>
      </trkpt>
      <trkpt lat="50.371038978919387" lon="7.762040980160236">
        <ele>403.34761400000002</ele>
        <time>2026-04-08T11:30:59Z</time>
      </trkpt>
      <trkpt lat="50.371080972254276" lon="7.762976987287402">
        <ele>406.52460000000002</ele>
        <time>2026-04-08T11:31:31Z</time>
      </trkpt>
      <trkpt lat="50.371092036366463" lon="7.763172034174204">
        <ele>407.18431900000002</ele>
        <time>2026-04-08T11:31:37Z</time>
      </trkpt>
      <trkpt lat="50.371106034144759" lon="7.763532036915422">
        <ele>408.41857299999998</ele>
        <time>2026-04-08T11:31:50Z</time>
      </trkpt>
      <trkpt lat="50.37111097946763" lon="7.764195967465639">
        <ele>410.68007599999999</ele>
        <time>2026-04-08T11:32:06Z</time>
      </trkpt>
      <trkpt lat="50.371050965040922" lon="7.764395037665963">
        <ele>411.42400400000002</ele>
        <time>2026-04-08T11:32:11Z</time>
      </trkpt>
      <trkpt lat="50.370834963396192" lon="7.765587028115988">
        <ele>412.87168400000002</ele>
        <time>2026-04-08T11:32:39Z</time>
      </trkpt>
      <trkpt lat="50.370565988123417" lon="7.766269985586405">
        <ele>413.23646400000001</ele>
        <time>2026-04-08T11:32:49Z</time>
      </trkpt>
      <trkpt lat="50.370423998683691" lon="7.766707018017769">
        <ele>413.45919700000002</ele>
        <time>2026-04-08T11:32:54Z</time>
      </trkpt>
      <trkpt lat="50.370358033105731" lon="7.767358040437102">
        <ele>414.13767799999999</ele>
        <time>2026-04-08T11:33:03Z</time>
      </trkpt>
      <trkpt lat="50.370286032557487" lon="7.767952987924218">
        <ele>417.22963800000002</ele>
        <time>2026-04-08T11:33:21Z</time>
      </trkpt>
      <trkpt lat="50.370202967897058" lon="7.768679028376937">
        <ele>420.99190299999998</ele>
        <time>2026-04-08T11:33:41Z</time>
      </trkpt>
      <trkpt lat="50.370183018967509" lon="7.769081024453044">
        <ele>423.04789</ele>
        <time>2026-04-08T11:33:53Z</time>
      </trkpt>
      <trkpt lat="50.370171032845974" lon="7.769108014181256">
        <ele>423.21545300000002</ele>
        <time>2026-04-08T11:33:54Z</time>
      </trkpt>
      <trkpt lat="50.370118981227279" lon="7.769204992800951">
        <ele>423.86818299999999</ele>
        <time>2026-04-08T11:34:47Z</time>
      </trkpt>
      <trkpt lat="50.370075982064009" lon="7.769186971709132">
        <ele>424.31796400000002</ele>
        <time>2026-04-08T11:35:48Z</time>
      </trkpt>
      <trkpt lat="50.369743974879384" lon="7.769026039168239">
        <ele>427.11532499999998</ele>
        <time>2026-04-08T11:36:28Z</time>
      </trkpt>
      <trkpt lat="50.369402999058366" lon="7.768936017528176">
        <ele>430.394746</ele>
        <time>2026-04-08T11:37:01Z</time>
      </trkpt>
      <trkpt lat="50.369193032383919" lon="7.768888995051384">
        <ele>432.60110800000001</ele>
        <time>2026-04-08T11:37:50Z</time>
      </trkpt>
      <trkpt lat="50.369137041270733" lon="7.769011035561562">
        <ele>433.63749000000001</ele>
        <time>2026-04-08T11:38:05Z</time>
      </trkpt>
      <trkpt lat="50.369004020467401" lon="7.769495006650686">
        <ele>437.11598199999997</ele>
        <time>2026-04-08T11:38:36Z</time>
      </trkpt>
      <trkpt lat="50.368962027132511" lon="7.769592991098762">
        <ele>437.890106</ele>
        <time>2026-04-08T11:38:44Z</time>
      </trkpt>
      <trkpt lat="50.36885398440063" lon="7.770024994388223">
        <ele>440.94627800000001</ele>
        <time>2026-04-08T11:39:11Z</time>
      </trkpt>
      <trkpt lat="50.368832023814321" lon="7.770158015191555">
        <ele>441.86827599999998</ele>
        <time>2026-04-08T11:39:18Z</time>
      </trkpt>
      <trkpt lat="50.368798999115825" lon="7.770307967439294">
        <ele>442.90453100000002</ele>
        <time>2026-04-08T11:39:25Z</time>
      </trkpt>
      <trkpt lat="50.368700008839369" lon="7.770652966573834">
        <ele>445.39228300000002</ele>
        <time>2026-04-08T11:39:47Z</time>
      </trkpt>
      <trkpt lat="50.368685005232692" lon="7.770786993205547">
        <ele>446.28395699999999</ele>
        <time>2026-04-08T11:39:54Z</time>
      </trkpt>
      <trkpt lat="50.368622979149222" lon="7.77105001732707">
        <ele>447.49129399999998</ele>
        <time>2026-04-08T11:40:06Z</time>
      </trkpt>
      <trkpt lat="50.368537986651063" lon="7.771223019808531">
        <ele>448.389928</ele>
        <time>2026-04-08T11:40:16Z</time>
      </trkpt>
      <trkpt lat="50.368406977504492" lon="7.771902959793806">
        <ele>451.29209600000002</ele>
        <time>2026-04-08T11:40:58Z</time>
      </trkpt>
      <trkpt lat="50.368356015533209" lon="7.772091971710324">
        <ele>452.11888299999998</ele>
        <time>2026-04-08T11:41:10Z</time>
      </trkpt>
      <trkpt lat="50.368361966684461" lon="7.772218035534024">
        <ele>452.640852</ele>
        <time>2026-04-08T11:43:02Z</time>
      </trkpt>
      <trkpt lat="50.368333971127868" lon="7.772236978635192">
        <ele>452.83519899999999</ele>
        <time>2026-04-08T11:43:05Z</time>
      </trkpt>
      <trkpt lat="50.368289966136217" lon="7.772493967786431">
        <ele>453.91134399999999</ele>
        <time>2026-04-08T11:43:14Z</time>
      </trkpt>
      <trkpt lat="50.368121992796659" lon="7.773202992975712">
        <ele>456.956841</ele>
        <time>2026-04-08T11:43:34Z</time>
      </trkpt>
      <trkpt lat="50.367827033624053" lon="7.774804020300508">
        <ele>455.32839799999999</ele>
        <time>2026-04-08T11:44:15Z</time>
      </trkpt>
      <trkpt lat="50.367753021419048" lon="7.775057991966605">
        <ele>454.85180000000003</ele>
        <time>2026-04-08T11:44:19Z</time>
      </trkpt>
      <trkpt lat="50.367731982842088" lon="7.77513200417161">
        <ele>454.71366</ele>
        <time>2026-04-08T11:44:20Z</time>
      </trkpt>
      <trkpt lat="50.367479017004371" lon="7.776011014357209">
        <ele>453.06548900000001</ele>
        <time>2026-04-08T11:44:32Z</time>
      </trkpt>
      <trkpt lat="50.367406010627747" lon="7.776289964094758">
        <ele>452.52945699999998</ele>
        <time>2026-04-08T11:45:02Z</time>
      </trkpt>
      <trkpt lat="50.36739100702107" lon="7.776284012943506">
        <ele>452.486853</ele>
        <time>2026-04-08T11:45:24Z</time>
      </trkpt>
      <trkpt lat="50.367334010079503" lon="7.776162978261709">
        <ele>452.21918599999998</ele>
        <time>2026-04-08T11:45:28Z</time>
      </trkpt>
      <trkpt lat="50.366797987371683" lon="7.774520041421056">
        <ele>448.97829400000001</ele>
        <time>2026-04-08T11:46:01Z</time>
      </trkpt>
      <trkpt lat="50.36666396073997" lon="7.774149980396032">
        <ele>448.23066899999998</ele>
        <time>2026-04-08T11:46:08Z</time>
      </trkpt>
      <trkpt lat="50.365700963884592" lon="7.772369999438524">
        <ele>445.33549199999999</ele>
        <time>2026-04-08T11:46:45Z</time>
      </trkpt>
      <trkpt lat="50.365482028573751" lon="7.771959034726024">
        <ele>444.68777299999999</ele>
        <time>2026-04-08T11:46:54Z</time>
      </trkpt>
      <trkpt lat="50.364540992304683" lon="7.769956011325121">
        <ele>444.640624</ele>
        <time>2026-04-08T11:47:45Z</time>
      </trkpt>
      <trkpt lat="50.363814029842615" lon="7.768134037032723">
        <ele>444.04070300000001</ele>
        <time>2026-04-08T11:48:28Z</time>
      </trkpt>
      <trkpt lat="50.3636110201478" lon="7.767023015767336">
        <ele>442.99145299999998</ele>
        <time>2026-04-08T11:48:51Z</time>
      </trkpt>
      <trkpt lat="50.363497026264668" lon="7.766691008582711">
        <ele>441.569253</ele>
        <time>2026-04-08T11:48:56Z</time>
      </trkpt>
      <trkpt lat="50.363295022398233" lon="7.766227992251515">
        <ele>439.454545</ele>
        <time>2026-04-08T11:49:03Z</time>
      </trkpt>
      <trkpt lat="50.363062005490065" lon="7.765745026990771">
        <ele>437.17141600000002</ele>
        <time>2026-04-08T11:49:11Z</time>
      </trkpt>
      <trkpt lat="50.363039039075375" lon="7.765684006735683">
        <ele>436.90427699999998</ele>
        <time>2026-04-08T11:49:12Z</time>
      </trkpt>
      <trkpt lat="50.36296796053648" lon="7.765401033684611">
        <ele>435.75616300000002</ele>
        <time>2026-04-08T11:49:17Z</time>
      </trkpt>
      <trkpt lat="50.362764028832316" lon="7.764807008206844">
        <ele>433.20851800000003</ele>
        <time>2026-04-08T11:49:27Z</time>
      </trkpt>
      <trkpt lat="50.362654980272055" lon="7.764525040984154">
        <ele>431.94829900000002</ele>
        <time>2026-04-08T11:49:32Z</time>
      </trkpt>
      <trkpt lat="50.36253503523767" lon="7.764250030741096">
        <ele>430.67263200000002</ele>
        <time>2026-04-08T11:49:37Z</time>
      </trkpt>
      <trkpt lat="50.362376030534506" lon="7.763867983594537">
        <ele>428.92691600000001</ele>
        <time>2026-04-08T11:49:44Z</time>
      </trkpt>
      <trkpt lat="50.362116023898125" lon="7.763189971446991">
        <ele>425.89943799999998</ele>
        <time>2026-04-08T11:49:56Z</time>
      </trkpt>
      <trkpt lat="50.361830033361912" lon="7.762379022315145">
        <ele>422.35244</ele>
        <time>2026-04-08T11:50:08Z</time>
      </trkpt>
      <trkpt lat="50.361466007307172" lon="7.76166002266109">
        <ele>418.85362099999998</ele>
        <time>2026-04-08T11:50:20Z</time>
      </trkpt>
      <trkpt lat="50.361437005922198" lon="7.761607971042395">
        <ele>418.59081200000003</ele>
        <time>2026-04-08T11:50:21Z</time>
      </trkpt>
      <trkpt lat="50.361318988725543" lon="7.761419964954257">
        <ele>417.58728100000002</ele>
        <time>2026-04-08T11:50:25Z</time>
      </trkpt>
      <trkpt lat="50.361126037314534" lon="7.761404039338231">
        <ele>416.36324100000002</ele>
        <time>2026-04-08T11:50:30Z</time>
      </trkpt>
      <trkpt lat="50.36096602678299" lon="7.761548040434718">
        <ele>415.26280500000001</ele>
        <time>2026-04-08T11:50:34Z</time>
      </trkpt>
      <trkpt lat="50.360921015962958" lon="7.761573018506169">
        <ele>414.97804200000002</ele>
        <time>2026-04-08T11:50:35Z</time>
      </trkpt>
      <trkpt lat="50.360655980184674" lon="7.761695981025696">
        <ele>413.32765000000001</ele>
        <time>2026-04-08T11:50:41Z</time>
      </trkpt>
      <trkpt lat="50.36045297048986" lon="7.762154974043369">
        <ele>411.39939099999998</ele>
        <time>2026-04-08T11:50:50Z</time>
      </trkpt>
      <trkpt lat="50.360372001305223" lon="7.762421015650034">
        <ele>410.916788</ele>
        <time>2026-04-08T11:50:56Z</time>
      </trkpt>
      <trkpt lat="50.360316010192037" lon="7.762423027306795">
        <ele>410.76942500000001</ele>
        <time>2026-04-08T11:51:33Z</time>
      </trkpt>
      <trkpt lat="50.360305029898882" lon="7.762411963194609">
        <ele>410.73607199999998</ele>
        <time>2026-04-08T11:51:45Z</time>
      </trkpt>
      <trkpt lat="50.360193969681859" lon="7.762156985700131">
        <ele>410.23108200000001</ele>
        <time>2026-04-08T11:51:54Z</time>
      </trkpt>
      <trkpt lat="50.360121969133615" lon="7.762023964896798">
        <ele>409.94651099999999</ele>
        <time>2026-04-08T11:51:59Z</time>
      </trkpt>
      <trkpt lat="50.360106965526938" lon="7.761967973783612">
        <ele>409.80715099999998</ele>
        <time>2026-04-08T11:52:44Z</time>
      </trkpt>
      <trkpt lat="50.360105037689209" lon="7.761899996548891">
        <ele>409.692814</ele>
        <time>2026-04-08T11:52:47Z</time>
      </trkpt>
      <trkpt lat="50.359281012788415" lon="7.760514970868826">
        <ele>406.80805099999998</ele>
        <time>2026-04-08T11:53:21Z</time>
      </trkpt>
      <trkpt lat="50.358467968180776" lon="7.75946899317205">
        <ele>405.62046299999997</ele>
        <time>2026-04-08T11:53:52Z</time>
      </trkpt>
      <trkpt lat="50.358026996254921" lon="7.758321007713676">
        <ele>404.702224</ele>
        <time>2026-04-08T11:54:19Z</time>
      </trkpt>
      <trkpt lat="50.357427019625902" lon="7.756831040605903">
        <ele>403.61634299999997</ele>
        <time>2026-04-08T11:54:50Z</time>
      </trkpt>
      <trkpt lat="50.357309002429247" lon="7.756027970463038">
        <ele>403.44656900000001</ele>
        <time>2026-04-08T11:55:36Z</time>
      </trkpt>
      <trkpt lat="50.357374968007207" lon="7.756100976839662">
        <ele>403.60836499999999</ele>
        <time>2026-04-08T11:56:23Z</time>
      </trkpt>
      <trkpt lat="50.35731403157115" lon="7.756196027621627">
        <ele>403.72460799999999</ele>
        <time>2026-04-08T11:58:36Z</time>
      </trkpt>
      <trkpt lat="50.35727497190237" lon="7.756227040663362">
        <ele>403.78244699999999</ele>
        <time>2026-04-08T11:58:39Z</time>
      </trkpt>
      <trkpt lat="50.357240019366145" lon="7.756257969886065">
        <ele>403.835509</ele>
        <time>2026-04-08T11:58:41Z</time>
      </trkpt>
      <trkpt lat="50.35701303742826" lon="7.756208013743162">
        <ele>404.13820500000003</ele>
        <time>2026-04-08T11:58:50Z</time>
      </trkpt>
      <trkpt lat="50.355891035869718" lon="7.755910037085414">
        <ele>405.66975100000002</ele>
        <time>2026-04-08T11:59:28Z</time>
      </trkpt>
      <trkpt lat="50.355860022827983" lon="7.755477027967572">
        <ele>406.93658499999998</ele>
        <time>2026-04-08T11:59:58Z</time>
      </trkpt>
      <trkpt lat="50.355787016451359" lon="7.75549303740263">
        <ele>407.28837099999998</ele>
        <time>2026-04-08T12:00:27Z</time>
      </trkpt>
      <trkpt lat="50.355733036994934" lon="7.755439979955554">
        <ele>407.54833600000001</ele>
        <time>2026-04-08T12:00:33Z</time>
      </trkpt>
      <trkpt lat="50.355693977326155" lon="7.755407961085439">
        <ele>407.72764000000001</ele>
        <time>2026-04-08T12:00:37Z</time>
      </trkpt>
      <trkpt lat="50.355032980442047" lon="7.755263037979603">
        <ele>410.453282</ele>
        <time>2026-04-08T12:01:29Z</time>
      </trkpt>
      <trkpt lat="50.354529982432723" lon="7.755126999691129">
        <ele>412.54059599999999</ele>
        <time>2026-04-08T12:02:18Z</time>
      </trkpt>
      <trkpt lat="50.353782987222075" lon="7.754342034459114">
        <ele>415.07151499999998</ele>
        <time>2026-04-08T12:02:57Z</time>
      </trkpt>
      <trkpt lat="50.35340596921742" lon="7.753546005114913">
        <ele>416.72780799999998</ele>
        <time>2026-04-08T12:03:30Z</time>
      </trkpt>
      <trkpt lat="50.353159960359335" lon="7.753074020147324">
        <ele>417.90270800000002</ele>
        <time>2026-04-08T12:04:22Z</time>
      </trkpt>
      <trkpt lat="50.352810015901923" lon="7.752650985494256">
        <ele>420.98678899999999</ele>
        <time>2026-04-08T12:04:46Z</time>
      </trkpt>
      <trkpt lat="50.35235102288425" lon="7.752260975539684">
        <ele>424.61800299999999</ele>
        <time>2026-04-08T12:05:16Z</time>
      </trkpt>
      <trkpt lat="50.351939974352717" lon="7.75180097669363">
        <ele>428.13850300000001</ele>
        <time>2026-04-08T12:05:45Z</time>
      </trkpt>
      <trkpt lat="50.351585000753403" lon="7.751428987830877">
        <ele>430.749889</ele>
        <time>2026-04-08T12:06:33Z</time>
      </trkpt>
      <trkpt lat="50.351078985258937" lon="7.750795986503363">
        <ele>433.54472900000002</ele>
        <time>2026-04-08T12:07:44Z</time>
      </trkpt>
      <trkpt lat="50.350537011399865" lon="7.750042034313083">
        <ele>436.67046499999998</ele>
        <time>2026-04-08T12:08:23Z</time>
      </trkpt>
      <trkpt lat="50.35039602778852" lon="7.749836007133126">
        <ele>437.52143000000001</ele>
        <time>2026-04-08T12:09:12Z</time>
      </trkpt>
      <trkpt lat="50.350407008081675" lon="7.749796025454998">
        <ele>437.640964</ele>
        <time>2026-04-08T12:09:18Z</time>
      </trkpt>
      <trkpt lat="50.3503970336169" lon="7.749726036563516">
        <ele>437.88414399999999</ele>
        <time>2026-04-08T12:09:25Z</time>
      </trkpt>
      <trkpt lat="50.350286979228258" lon="7.749531995505095">
        <ele>439.08061800000002</ele>
        <time>2026-04-08T12:09:38Z</time>
      </trkpt>
      <trkpt lat="50.3501380328089" lon="7.749244999140501">
        <ele>440.79232100000002</ele>
        <time>2026-04-08T12:10:00Z</time>
      </trkpt>
      <trkpt lat="50.350072989240289" lon="7.748893965035677">
        <ele>442.46784600000001</ele>
        <time>2026-04-08T12:10:43Z</time>
      </trkpt>
      <trkpt lat="50.350041976198554" lon="7.748173959553242">
        <ele>445.76733999999999</ele>
        <time>2026-04-08T12:11:23Z</time>
      </trkpt>
      <trkpt lat="50.350069971755147" lon="7.748019983991981">
        <ele>446.49955599999998</ele>
        <time>2026-04-08T12:11:33Z</time>
      </trkpt>
      <trkpt lat="50.350268958136439" lon="7.747602984309197">
        <ele>448.91980999999998</ele>
        <time>2026-04-08T12:12:06Z</time>
      </trkpt>
      <trkpt lat="50.35026703029871" lon="7.746876021847129">
        <ele>450.60302000000001</ele>
        <time>2026-04-08T12:12:46Z</time>
      </trkpt>
      <trkpt lat="50.350251020863652" lon="7.746836040169001">
        <ele>450.59070500000001</ele>
        <time>2026-04-08T12:12:49Z</time>
      </trkpt>
      <trkpt lat="50.350144989788532" lon="7.746789017692208">
        <ele>450.54281400000002</ele>
        <time>2026-04-08T12:13:19Z</time>
      </trkpt>
      <trkpt lat="50.350105008110404" lon="7.74679203517735">
        <ele>450.52645899999999</ele>
        <time>2026-04-08T12:13:21Z</time>
      </trkpt>
      <trkpt lat="50.349814994260669" lon="7.7467480301857">
        <ele>450.40648800000002</ele>
        <time>2026-04-08T12:13:33Z</time>
      </trkpt>
      <trkpt lat="50.349347032606602" lon="7.745974967256188">
        <ele>450.10894400000001</ele>
        <time>2026-04-08T12:14:07Z</time>
      </trkpt>
      <trkpt lat="50.348729034885764" lon="7.745887041091919">
        <ele>448.05447299999997</ele>
        <time>2026-04-08T12:14:39Z</time>
      </trkpt>
      <trkpt lat="50.348222013562918" lon="7.745784027501941">
        <ele>444.51078200000001</ele>
        <time>2026-04-08T12:15:04Z</time>
      </trkpt>
      <trkpt lat="50.3481849655509" lon="7.745789978653193">
        <ele>444.25416899999999</ele>
        <time>2026-04-08T12:15:06Z</time>
      </trkpt>
      <trkpt lat="50.347706023603678" lon="7.745854016393423">
        <ele>440.89443499999999</ele>
        <time>2026-04-08T12:15:29Z</time>
      </trkpt>
      <trkpt lat="50.347224986180663" lon="7.745935991406441">
        <ele>437.49688099999997</ele>
        <time>2026-04-08T12:15:50Z</time>
      </trkpt>
      <trkpt lat="50.346850985661149" lon="7.745888968929648">
        <ele>433.53279300000003</ele>
        <time>2026-04-08T12:16:05Z</time>
      </trkpt>
      <trkpt lat="50.34683296456933" lon="7.745874971151352">
        <ele>433.322247</ele>
        <time>2026-04-08T12:16:06Z</time>
      </trkpt>
      <trkpt lat="50.346686029806733" lon="7.745789978653193">
        <ele>431.67953299999999</ele>
        <time>2026-04-08T12:16:14Z</time>
      </trkpt>
      <trkpt lat="50.34648603759706" lon="7.745595015585423">
        <ele>429.18291799999997</ele>
        <time>2026-04-08T12:16:26Z</time>
      </trkpt>
      <trkpt lat="50.346342958509922" lon="7.745430981740356">
        <ele>427.25910599999997</ele>
        <time>2026-04-08T12:17:10Z</time>
      </trkpt>
      <trkpt lat="50.34633600153029" lon="7.745441040024161">
        <ele>427.15986099999998</ele>
        <time>2026-04-08T12:17:26Z</time>
      </trkpt>
      <trkpt lat="50.346338013187051" lon="7.74548102170229">
        <ele>426.891594</ele>
        <time>2026-04-08T12:17:28Z</time>
      </trkpt>
      <trkpt lat="50.34631596878171" lon="7.7456100191921">
        <ele>425.99542700000001</ele>
        <time>2026-04-08T12:17:32Z</time>
      </trkpt>
      <trkpt lat="50.346281016245484" lon="7.745991982519627">
        <ele>423.40887300000003</ele>
        <time>2026-04-08T12:17:44Z</time>
      </trkpt>
      <trkpt lat="50.346133997663856" lon="7.74614998139441">
        <ele>421.520915</ele>
        <time>2026-04-08T12:18:08Z</time>
      </trkpt>
      <trkpt lat="50.345828980207443" lon="7.746249977499247">
        <ele>418.43338</ele>
        <time>2026-04-08T12:18:33Z</time>
      </trkpt>
      <trkpt lat="50.345695037394762" lon="7.746269004419446">
        <ele>417.59873299999998</ele>
        <time>2026-04-08T12:18:43Z</time>
      </trkpt>
      <trkpt lat="50.34539395943284" lon="7.746489029377699">
        <ele>415.54610700000001</ele>
        <time>2026-04-08T12:19:11Z</time>
      </trkpt>
      <trkpt lat="50.345309972763062" lon="7.746602017432451">
        <ele>414.859196</ele>
        <time>2026-04-08T12:19:20Z</time>
      </trkpt>
      <trkpt lat="50.34524098969996" lon="7.746661026030779">
        <ele>414.376713</ele>
        <time>2026-04-08T12:19:25Z</time>
      </trkpt>
      <trkpt lat="50.345243001356721" lon="7.747108032926917">
        <ele>412.47374200000002</ele>
        <time>2026-04-08T12:19:56Z</time>
      </trkpt>
      <trkpt lat="50.345191033557057" lon="7.747121024876833">
        <ele>412.12778500000002</ele>
        <time>2026-04-08T12:20:22Z</time>
      </trkpt>
      <trkpt lat="50.344730028882623" lon="7.746761022135615">
        <ele>408.96059200000002</ele>
        <time>2026-04-08T12:20:40Z</time>
      </trkpt>
      <trkpt lat="50.344151007011533" lon="7.746258024126291">
        <ele>405.72130900000002</ele>
        <time>2026-04-08T12:20:56Z</time>
      </trkpt>
      <trkpt lat="50.343765020370483" lon="7.745947977527976">
        <ele>403.85080099999999</ele>
        <time>2026-04-08T12:21:06Z</time>
      </trkpt>
      <trkpt lat="50.34360802732408" lon="7.745809005573392">
        <ele>403.072881</ele>
        <time>2026-04-08T12:21:11Z</time>
      </trkpt>
      <trkpt lat="50.343581959605217" lon="7.745463000610471">
        <ele>402.00243699999999</ele>
        <time>2026-04-08T12:21:19Z</time>
      </trkpt>
      <trkpt lat="50.343554969877005" lon="7.745420001447201">
        <ele>400.56967200000003</ele>
        <time>2026-04-08T12:25:02Z</time>
      </trkpt>
      <trkpt lat="50.343509959056973" lon="7.745576994493604">
        <ele>400.10250200000002</ele>
        <time>2026-04-08T12:25:06Z</time>
      </trkpt>
      <trkpt lat="50.343239977955818" lon="7.745025968179107">
        <ele>398.374573</ele>
        <time>2026-04-08T12:25:20Z</time>
      </trkpt>
      <trkpt lat="50.342889027670026" lon="7.743680002167821">
        <ele>395.41595699999999</ele>
        <time>2026-04-08T12:25:32Z</time>
      </trkpt>
      <trkpt lat="50.342837981879711" lon="7.743558967486024">
        <ele>395.12102299999998</ele>
        <time>2026-04-08T12:25:33Z</time>
      </trkpt>
      <trkpt lat="50.342708984389901" lon="7.743239030241966">
        <ele>394.34605900000003</ele>
        <time>2026-04-08T12:25:36Z</time>
      </trkpt>
      <trkpt lat="50.342642012983561" lon="7.743002995848656">
        <ele>393.87044500000002</ele>
        <time>2026-04-08T12:25:38Z</time>
      </trkpt>
      <trkpt lat="50.342393992468715" lon="7.742524975910783">
        <ele>392.79215299999998</ele>
        <time>2026-04-08T12:25:47Z</time>
      </trkpt>
      <trkpt lat="50.342322997748852" lon="7.742458004504442">
        <ele>392.56846100000001</ele>
        <time>2026-04-08T12:25:49Z</time>
      </trkpt>
      <trkpt lat="50.341434013098478" lon="7.741385037079454">
        <ele>389.53850999999997</ele>
        <time>2026-04-08T12:26:08Z</time>
      </trkpt>
      <trkpt lat="50.34100997261703" lon="7.740829987451434">
        <ele>386.31316500000003</ele>
        <time>2026-04-08T12:26:17Z</time>
      </trkpt>
      <trkpt lat="50.340913999825716" lon="7.740695038810372">
        <ele>385.47948200000002</ele>
        <time>2026-04-08T12:26:19Z</time>
      </trkpt>
      <trkpt lat="50.340719958767295" lon="7.74041198194027">
        <ele>383.76630999999998</ele>
        <time>2026-04-08T12:26:23Z</time>
      </trkpt>
      <trkpt lat="50.340261971578002" lon="7.739910995587707">
        <ele>380.15625</ele>
        <time>2026-04-08T12:26:31Z</time>
      </trkpt>
      <trkpt lat="50.340142026543617" lon="7.7397680003196">
        <ele>379.18223799999998</ele>
        <time>2026-04-08T12:26:33Z</time>
      </trkpt>
      <trkpt lat="50.339881014078856" lon="7.739461977034807">
        <ele>376.97084000000001</ele>
        <time>2026-04-08T12:26:37Z</time>
      </trkpt>
      <trkpt lat="50.339752016589046" lon="7.739288974553347">
        <ele>375.69406600000002</ele>
        <time>2026-04-08T12:26:39Z</time>
      </trkpt>
      <trkpt lat="50.33937600441277" lon="7.738954033702612">
        <ele>372.44135299999999</ele>
        <time>2026-04-08T12:26:45Z</time>
      </trkpt>
      <trkpt lat="50.33900803886354" lon="7.738615991547704">
        <ele>369.23340300000001</ele>
        <time>2026-04-08T12:26:52Z</time>
      </trkpt>
      <trkpt lat="50.338663961738348" lon="7.73828499019146">
        <ele>366.19780900000001</ele>
        <time>2026-04-08T12:26:58Z</time>
      </trkpt>
      <trkpt lat="50.338436979800463" lon="7.738060019910336">
        <ele>364.17791</ele>
        <time>2026-04-08T12:27:02Z</time>
      </trkpt>
      <trkpt lat="50.338119976222515" lon="7.73779297247529">
        <ele>361.00352600000002</ele>
        <time>2026-04-08T12:27:08Z</time>
      </trkpt>
      <trkpt lat="50.338072031736374" lon="7.737757014110684">
        <ele>360.53338500000001</ele>
        <time>2026-04-08T12:27:09Z</time>
      </trkpt>
      <trkpt lat="50.337766008451581" lon="7.737592980265617">
        <ele>357.66925400000002</ele>
        <time>2026-04-08T12:27:14Z</time>
      </trkpt>
      <trkpt lat="50.337685961276293" lon="7.737541012465954">
        <ele>356.90408000000002</ele>
        <time>2026-04-08T12:27:15Z</time>
      </trkpt>
      <trkpt lat="50.337560987100005" lon="7.737402962520719">
        <ele>355.553043</ele>
        <time>2026-04-08T12:27:17Z</time>
      </trkpt>
      <trkpt lat="50.337435007095337" lon="7.73714798502624">
        <ele>353.73352599999998</ele>
        <time>2026-04-08T12:27:20Z</time>
      </trkpt>
      <trkpt lat="50.33740097656846" lon="7.73652596399188">
        <ele>350.20326599999999</ele>
        <time>2026-04-08T12:27:26Z</time>
      </trkpt>
      <trkpt lat="50.337369041517377" lon="7.735805036500096">
        <ele>345.49531300000001</ele>
        <time>2026-04-08T12:27:33Z</time>
      </trkpt>
      <trkpt lat="50.337338028475642" lon="7.735588029026985">
        <ele>343.86905100000001</ele>
        <time>2026-04-08T12:27:35Z</time>
      </trkpt>
      <trkpt lat="50.337274996563792" lon="7.735100034624338">
        <ele>340.20862099999999</ele>
        <time>2026-04-08T12:27:40Z</time>
      </trkpt>
      <trkpt lat="50.337169971317053" lon="7.73489098995924">
        <ele>337.80747200000002</ele>
        <time>2026-04-08T12:27:56Z</time>
      </trkpt>
      <trkpt lat="50.337169971317053" lon="7.734914040192962">
        <ele>337.63931100000002</ele>
        <time>2026-04-08T12:28:10Z</time>
      </trkpt>
      <trkpt lat="50.337183969095349" lon="7.735093999654055">
        <ele>336.31011599999999</ele>
        <time>2026-04-08T12:28:15Z</time>
      </trkpt>
      <trkpt lat="50.337171982973814" lon="7.735581994056702">
        <ele>332.69904500000001</ele>
        <time>2026-04-08T12:28:27Z</time>
      </trkpt>
      <trkpt lat="50.337086990475655" lon="7.736076023429632">
        <ele>328.93948599999999</ele>
        <time>2026-04-08T12:28:38Z</time>
      </trkpt>
      <trkpt lat="50.337018007412553" lon="7.736275009810925">
        <ele>327.16302999999999</ele>
        <time>2026-04-08T12:28:42Z</time>
      </trkpt>
      <trkpt lat="50.336907031014562" lon="7.736557982861996">
        <ele>323.835151</ele>
        <time>2026-04-08T12:28:49Z</time>
      </trkpt>
      <trkpt lat="50.33690401352942" lon="7.736564017832279">
        <ele>323.76155699999998</ele>
        <time>2026-04-08T12:28:50Z</time>
      </trkpt>
      <trkpt lat="50.336692035198212" lon="7.736574998125434">
        <ele>320.50495999999998</ele>
        <time>2026-04-08T12:28:59Z</time>
      </trkpt>
      <trkpt lat="50.336636966094375" lon="7.736568041145802">
        <ele>319.67017800000002</ele>
        <time>2026-04-08T12:29:01Z</time>
      </trkpt>
      <trkpt lat="50.336380982771516" lon="7.736582038924098">
        <ele>315.76199400000002</ele>
        <time>2026-04-08T12:29:10Z</time>
      </trkpt>
      <trkpt lat="50.336128016933799" lon="7.736558988690376">
        <ele>311.91661299999998</ele>
        <time>2026-04-08T12:29:18Z</time>
      </trkpt>
      <trkpt lat="50.33587203361094" lon="7.736493023112416">
        <ele>307.98201899999998</ele>
        <time>2026-04-08T12:29:26Z</time>
      </trkpt>
      <trkpt lat="50.335670029744506" lon="7.736529987305403">
        <ele>304.85574500000001</ele>
        <time>2026-04-08T12:29:33Z</time>
      </trkpt>
      <trkpt lat="50.335472971200943" lon="7.736619003117085">
        <ele>301.74433399999998</ele>
        <time>2026-04-08T12:29:42Z</time>
      </trkpt>
      <trkpt lat="50.335256969556212" lon="7.736631995067">
        <ele>297.717625</ele>
        <time>2026-04-08T12:29:51Z</time>
      </trkpt>
      <trkpt lat="50.335103999823332" lon="7.736574998125434">
        <ele>294.45309400000002</ele>
        <time>2026-04-08T12:29:57Z</time>
      </trkpt>
      <trkpt lat="50.335059994831681" lon="7.736582038924098">
        <ele>293.49296399999997</ele>
        <time>2026-04-08T12:30:00Z</time>
      </trkpt>
      <trkpt lat="50.334904007613659" lon="7.736504003405571">
        <ele>289.99756400000001</ele>
        <time>2026-04-08T12:30:23Z</time>
      </trkpt>
      <trkpt lat="50.334829995408654" lon="7.73645899258554">
        <ele>288.35220299999997</ele>
        <time>2026-04-08T12:30:28Z</time>
      </trkpt>
      <trkpt lat="50.334725975990295" lon="7.736446000635624">
        <ele>286.18096500000001</ele>
        <time>2026-04-08T12:30:36Z</time>
      </trkpt>
      <trkpt lat="50.334612987935543" lon="7.736418005079031">
        <ele>283.79336799999999</ele>
        <time>2026-04-08T12:30:44Z</time>
      </trkpt>
      <trkpt lat="50.334535036236048" lon="7.736420016735792">
        <ele>282.16869500000001</ele>
        <time>2026-04-08T12:30:50Z</time>
      </trkpt>
      <trkpt lat="50.334461024031043" lon="7.736372994259">
        <ele>280.507701</ele>
        <time>2026-04-08T12:30:57Z</time>
      </trkpt>
      <trkpt lat="50.334430010989308" lon="7.736342987045646">
        <ele>279.75052799999997</ele>
        <time>2026-04-08T12:31:00Z</time>
      </trkpt>
      <trkpt lat="50.334351975470781" lon="7.736295964568853">
        <ele>277.98324200000002</ele>
        <time>2026-04-08T12:31:10Z</time>
      </trkpt>
      <trkpt lat="50.334296990185976" lon="7.736231004819274">
        <ele>276.50529599999999</ele>
        <time>2026-04-08T12:31:18Z</time>
      </trkpt>
      <trkpt lat="50.334265977144241" lon="7.736119022592902">
        <ele>274.86582499999997</ele>
        <time>2026-04-08T12:31:22Z</time>
      </trkpt>
      <trkpt lat="50.33426002599299" lon="7.736054984852672">
        <ele>274.00118600000002</ele>
        <time>2026-04-08T12:31:25Z</time>
      </trkpt>
      <trkpt lat="50.334279974922538" lon="7.736023971810937">
        <ele>273.40869500000002</ele>
        <time>2026-04-08T12:31:49Z</time>
      </trkpt>
      <trkpt lat="50.334381982684135" lon="7.735949037596583">
        <ele>271.05103000000003</ele>
        <time>2026-04-08T12:32:04Z</time>
      </trkpt>
      <trkpt lat="50.334535036236048" lon="7.735891034826636">
        <ele>267.77541500000001</ele>
        <time>2026-04-08T12:32:20Z</time>
      </trkpt>
      <trkpt lat="50.334642995148897" lon="7.735855998471379">
        <ele>265.487326</ele>
        <time>2026-04-08T12:32:30Z</time>
      </trkpt>
      <trkpt lat="50.334814991801977" lon="7.735775029286742">
        <ele>262.26970799999998</ele>
        <time>2026-04-08T12:32:48Z</time>
      </trkpt>
      <trkpt lat="50.334950024262071" lon="7.735760025680065">
        <ele>260.42721599999999</ele>
        <time>2026-04-08T12:33:54Z</time>
      </trkpt>
      <trkpt lat="50.335170971229672" lon="7.735572019591928">
        <ele>257.07681300000002</ele>
        <time>2026-04-08T12:34:11Z</time>
      </trkpt>
      <trkpt lat="50.335176000371575" lon="7.735569002106786">
        <ele>257.006776</ele>
        <time>2026-04-08T12:34:12Z</time>
      </trkpt>
      <trkpt lat="50.335279013961554" lon="7.735464982688427">
        <ele>255.39846800000001</ele>
        <time>2026-04-08T12:34:20Z</time>
      </trkpt>
      <trkpt lat="50.335385967046022" lon="7.735311007127166">
        <ele>253.40500800000001</ele>
        <time>2026-04-08T12:34:30Z</time>
      </trkpt>
      <trkpt lat="50.335384039208293" lon="7.735245963558555">
        <ele>252.73792800000001</ele>
        <time>2026-04-08T12:35:09Z</time>
      </trkpt>
      <trkpt lat="50.335354031994939" lon="7.735267002135515">
        <ele>252.307624</ele>
        <time>2026-04-08T12:35:11Z</time>
      </trkpt>
      <trkpt lat="50.335096037015319" lon="7.735339002683759">
        <ele>248.84355300000001</ele>
        <time>2026-04-08T12:35:24Z</time>
      </trkpt>
      <trkpt lat="50.335093019530177" lon="7.735313018783927">
        <ele>248.52068800000001</ele>
        <time>2026-04-08T12:35:37Z</time>
      </trkpt>
      <trkpt lat="50.335322013124824" lon="7.735120989382267">
        <ele>245.07510600000001</ele>
        <time>2026-04-08T12:35:49Z</time>
      </trkpt>
      <trkpt lat="50.335325030609965" lon="7.734726034104824">
        <ele>241.58840900000001</ele>
        <time>2026-04-08T12:35:56Z</time>
      </trkpt>
      <trkpt lat="50.335229979828" lon="7.734472984448075">
        <ele>239.35269099999999</ele>
        <time>2026-04-08T12:36:01Z</time>
      </trkpt>
      <trkpt lat="50.334937032312155" lon="7.733926987275481">
        <ele>235.960272</ele>
        <time>2026-04-08T12:36:12Z</time>
      </trkpt>
      <trkpt lat="50.334662022069097" lon="7.733346959576011">
        <ele>232.50521599999999</ele>
        <time>2026-04-08T12:36:26Z</time>
      </trkpt>
      <trkpt lat="50.334607036784291" lon="7.7329779881984">
        <ele>230.70417800000001</ele>
        <time>2026-04-08T12:36:33Z</time>
      </trkpt>
      <trkpt lat="50.334559008479118" lon="7.732696020975709">
        <ele>229.317519</ele>
        <time>2026-04-08T12:36:38Z</time>
      </trkpt>
      <trkpt lat="50.334549034014344" lon="7.732637012377381">
        <ele>229.02748299999999</ele>
        <time>2026-04-08T12:36:39Z</time>
      </trkpt>
      <trkpt lat="50.334462029859424" lon="7.732296958565712">
        <ele>227.28644</ele>
        <time>2026-04-08T12:36:45Z</time>
      </trkpt>
      <trkpt lat="50.334449959918857" lon="7.73224800825119">
        <ele>227.037083</ele>
        <time>2026-04-08T12:36:46Z</time>
      </trkpt>
      <trkpt lat="50.334415007382631" lon="7.732084980234504">
        <ele>226.22494</ele>
        <time>2026-04-08T12:36:49Z</time>
      </trkpt>
      <trkpt lat="50.334461024031043" lon="7.731789015233517">
        <ele>225.001937</ele>
        <time>2026-04-08T12:36:54Z</time>
      </trkpt>
      <trkpt lat="50.334504023194313" lon="7.731623975560069">
        <ele>224.300558</ele>
        <time>2026-04-08T12:36:57Z</time>
      </trkpt>
      <trkpt lat="50.334515003487468" lon="7.731557004153729">
        <ele>224.02830299999999</ele>
        <time>2026-04-08T12:36:58Z</time>
      </trkpt>
      <trkpt lat="50.334365973249078" lon="7.731146039441228">
        <ele>221.995678</ele>
        <time>2026-04-08T12:37:06Z</time>
      </trkpt>
      <trkpt lat="50.334333032369614" lon="7.731107985600829">
        <ele>221.74317199999999</ele>
        <time>2026-04-08T12:37:07Z</time>
      </trkpt>
      <trkpt lat="50.334127005189657" lon="7.730988040566444">
        <ele>220.374843</ele>
        <time>2026-04-08T12:37:13Z</time>
      </trkpt>
      <trkpt lat="50.333943022415042" lon="7.731004972010851">
        <ele>219.23678100000001</ele>
        <time>2026-04-08T12:37:18Z</time>
      </trkpt>
      <trkpt lat="50.333733977749944" lon="7.73100002668798">
        <ele>217.94740300000001</ele>
        <time>2026-04-08T12:37:24Z</time>
      </trkpt>
      <trkpt lat="50.333526022732258" lon="7.730689980089665">
        <ele>216.126341</ele>
        <time>2026-04-08T12:37:32Z</time>
      </trkpt>
      <trkpt lat="50.333500960841775" lon="7.730629965662956">
        <ele>215.844357</ele>
        <time>2026-04-08T12:37:33Z</time>
      </trkpt>
      <trkpt lat="50.333074992522597" lon="7.729613995179534">
        <ele>212.740005</ele>
        <time>2026-04-08T12:37:52Z</time>
      </trkpt>
      <trkpt lat="50.332621028646827" lon="7.728425022214651">
        <ele>209.532296</ele>
        <time>2026-04-08T12:38:18Z</time>
      </trkpt>
      <trkpt lat="50.332591021433473" lon="7.728330977261066">
        <ele>209.28944899999999</ele>
        <time>2026-04-08T12:38:21Z</time>
      </trkpt>
      <trkpt lat="50.332577023655176" lon="7.728304993361235">
        <ele>209.210848</ele>
        <time>2026-04-08T12:38:22Z</time>
      </trkpt>
      <trkpt lat="50.332471998408437" lon="7.727872990071774">
        <ele>207.58985799999999</ele>
        <time>2026-04-08T12:38:33Z</time>
      </trkpt>
      <trkpt lat="50.332364961504936" lon="7.727493960410357">
        <ele>205.590169</ele>
        <time>2026-04-08T12:38:45Z</time>
      </trkpt>
      <trkpt lat="50.33232799731195" lon="7.72739295847714">
        <ele>205.029854</ele>
        <time>2026-04-08T12:38:49Z</time>
      </trkpt>
      <trkpt lat="50.332389017567039" lon="7.727743992581964">
        <ele>202.89590999999999</ele>
        <time>2026-04-08T12:39:01Z</time>
      </trkpt>
      <trkpt lat="50.332419024780393" lon="7.727892016991973">
        <ele>202.14860400000001</ele>
        <time>2026-04-08T12:39:05Z</time>
      </trkpt>
      <trkpt lat="50.332450037822127" lon="7.728142971172929">
        <ele>200.917069</ele>
        <time>2026-04-08T12:39:12Z</time>
      </trkpt>
      <trkpt lat="50.332560008391738" lon="7.728793993592262">
        <ele>197.67379</ele>
        <time>2026-04-08T12:39:28Z</time>
      </trkpt>
      <trkpt lat="50.33256403170526" lon="7.728836992755532">
        <ele>197.46470600000001</ele>
        <time>2026-04-08T12:39:29Z</time>
      </trkpt>
      <trkpt lat="50.332709960639477" lon="7.729482986032963">
        <ele>194.06228100000001</ele>
        <time>2026-04-08T12:39:44Z</time>
      </trkpt>
      <trkpt lat="50.332723958417773" lon="7.729534031823278">
        <ele>193.76607799999999</ele>
        <time>2026-04-08T12:39:45Z</time>
      </trkpt>
      <trkpt lat="50.332795958966017" lon="7.729765959084034">
        <ele>192.388407</ele>
        <time>2026-04-08T12:39:50Z</time>
      </trkpt>
      <trkpt lat="50.332848010584712" lon="7.7302719745785">
        <ele>189.63881499999999</ele>
        <time>2026-04-08T12:40:20Z</time>
      </trkpt>
      <trkpt lat="50.332937026396394" lon="7.730627031996846">
        <ele>187.584363</ele>
        <time>2026-04-08T12:40:27Z</time>
      </trkpt>
      <trkpt lat="50.333100976422429" lon="7.731085019186139">
        <ele>184.77982800000001</ele>
        <time>2026-04-08T12:40:38Z</time>
      </trkpt>
      <trkpt lat="50.3332510124892" lon="7.731566978618503">
        <ele>181.91575700000001</ele>
        <time>2026-04-08T12:40:48Z</time>
      </trkpt>
      <trkpt lat="50.333597017452121" lon="7.73205497302115">
        <ele>178.66322400000001</ele>
        <time>2026-04-08T12:41:03Z</time>
      </trkpt>
      <trkpt lat="50.333607997745275" lon="7.7323960326612">
        <ele>177.76641100000001</ele>
        <time>2026-04-08T12:41:08Z</time>
      </trkpt>
      <trkpt lat="50.333626018837094" lon="7.732668025419116">
        <ele>177.051637</ele>
        <time>2026-04-08T12:41:12Z</time>
      </trkpt>
      <trkpt lat="50.333592994138598" lon="7.732803979888558">
        <ele>176.671505</ele>
        <time>2026-04-08T12:41:14Z</time>
      </trkpt>
      <trkpt lat="50.333541026338935" lon="7.733022999018431">
        <ele>176.06102300000001</ele>
        <time>2026-04-08T12:41:18Z</time>
      </trkpt>
      <trkpt lat="50.333330975845456" lon="7.733147973194718">
        <ele>175.11061799999999</ele>
        <time>2026-04-08T12:41:24Z</time>
      </trkpt>
      <trkpt lat="50.33310198225081" lon="7.733049988746643">
        <ele>174.135997</ele>
        <time>2026-04-08T12:41:30Z</time>
      </trkpt>
      <trkpt lat="50.332173015922308" lon="7.732961978763342">
        <ele>170.93141900000001</ele>
        <time>2026-04-08T12:41:57Z</time>
      </trkpt>
      <trkpt lat="50.331655014306307" lon="7.734046010300517">
        <ele>168.38653600000001</ele>
        <time>2026-04-08T12:42:23Z</time>
      </trkpt>
      <trkpt lat="50.331289982423186" lon="7.734842039644718">
        <ele>165.96202099999999</ele>
        <time>2026-04-08T12:42:40Z</time>
      </trkpt>
      <trkpt lat="50.331164002418518" lon="7.735034991055727">
        <ele>165.105661</ele>
        <time>2026-04-08T12:42:44Z</time>
      </trkpt>
      <trkpt lat="50.33104196190834" lon="7.735315030440688">
        <ele>164.05138500000001</ele>
        <time>2026-04-08T12:42:49Z</time>
      </trkpt>
      <trkpt lat="50.331022012978792" lon="7.735372027382255">
        <ele>163.84963099999999</ele>
        <time>2026-04-08T12:42:50Z</time>
      </trkpt>
      <trkpt lat="50.330649018287659" lon="7.736225975677371">
        <ele>160.613058</ele>
        <time>2026-04-08T12:43:09Z</time>
      </trkpt>
      <trkpt lat="50.330598978325725" lon="7.736520012840629">
        <ele>159.659413</ele>
        <time>2026-04-08T12:43:16Z</time>
      </trkpt>
      <trkpt lat="50.33086703158915" lon="7.736798040568829">
        <ele>157.55669800000001</ele>
        <time>2026-04-08T12:43:29Z</time>
      </trkpt>
      <trkpt lat="50.331010026857257" lon="7.736898036673665">
        <ele>156.29808600000001</ele>
        <time>2026-04-08T12:43:35Z</time>
      </trkpt>
      <trkpt lat="50.331012960523367" lon="7.736924020573497">
        <ele>156.162532</ele>
        <time>2026-04-08T12:43:36Z</time>
      </trkpt>
      <trkpt lat="50.330915981903672" lon="7.736987974494696">
        <ele>155.11167800000001</ele>
        <time>2026-04-08T12:43:42Z</time>
      </trkpt>
      <trkpt lat="50.330669973045588" lon="7.736901976168156">
        <ele>153.08560900000001</ele>
        <time>2026-04-08T12:43:51Z</time>
      </trkpt>
      <trkpt lat="50.33043896779418" lon="7.736811032518745">
        <ele>151.170233</ele>
        <time>2026-04-08T12:43:59Z</time>
      </trkpt>
      <trkpt lat="50.330324973911047" lon="7.736746994778514">
        <ele>150.19694799999999</ele>
        <time>2026-04-08T12:44:02Z</time>
      </trkpt>
      <trkpt lat="50.329824993386865" lon="7.736356984823942">
        <ele>145.70597699999999</ele>
        <time>2026-04-08T12:44:15Z</time>
      </trkpt>
      <trkpt lat="50.329776965081692" lon="7.736323960125446">
        <ele>145.28468000000001</ele>
        <time>2026-04-08T12:44:16Z</time>
      </trkpt>
      <trkpt lat="50.329522993415594" lon="7.735925987362862">
        <ele>141.76428799999999</ele>
        <time>2026-04-08T12:44:28Z</time>
      </trkpt>
      <trkpt lat="50.329543026164174" lon="7.735867984592915">
        <ele>141.39003</ele>
        <time>2026-04-08T12:44:29Z</time>
      </trkpt>
      <trkpt lat="50.329681998118758" lon="7.735382001847029">
        <ele>138.363226</ele>
        <time>2026-04-08T12:44:35Z</time>
      </trkpt>
      <trkpt lat="50.329703958705068" lon="7.735300026834011">
        <ele>137.858237</ele>
        <time>2026-04-08T12:44:36Z</time>
      </trkpt>
      <trkpt lat="50.329895988106728" lon="7.734857965260744">
        <ele>134.82078899999999</ele>
        <time>2026-04-08T12:44:42Z</time>
      </trkpt>
      <trkpt lat="50.330154988914728" lon="7.734337029978633">
        <ele>131.07117199999999</ele>
        <time>2026-04-08T12:44:49Z</time>
      </trkpt>
      <trkpt lat="50.330342995002866" lon="7.733994964510202">
        <ele>128.50812199999999</ele>
        <time>2026-04-08T12:44:54Z</time>
      </trkpt>
      <trkpt lat="50.330484984442592" lon="7.733830008655787">
        <ele>126.65557699999999</ele>
        <time>2026-04-08T12:44:57Z</time>
      </trkpt>
      <trkpt lat="50.330583974719048" lon="7.733611995354295">
        <ele>124.806966</ele>
        <time>2026-04-08T12:45:00Z</time>
      </trkpt>
      <trkpt lat="50.3306969627738" lon="7.733295997604728">
        <ele>122.311334</ele>
        <time>2026-04-08T12:45:04Z</time>
      </trkpt>
      <trkpt lat="50.330787990242243" lon="7.732846979051828">
        <ele>119.063457</ele>
        <time>2026-04-08T12:45:10Z</time>
      </trkpt>
      <trkpt lat="50.330799976363778" lon="7.732782019302249">
        <ele>118.597261</ele>
        <time>2026-04-08T12:45:11Z</time>
      </trkpt>
      <trkpt lat="50.330831995233893" lon="7.732514971867204">
        <ele>116.72367300000001</ele>
        <time>2026-04-08T12:45:15Z</time>
      </trkpt>
      <trkpt lat="50.330877006053925" lon="7.73216200992465">
        <ele>114.243247</ele>
        <time>2026-04-08T12:45:19Z</time>
      </trkpt>
      <trkpt lat="50.330871976912022" lon="7.731622969731689">
        <ele>110.52269800000001</ele>
        <time>2026-04-08T12:45:25Z</time>
      </trkpt>
      <trkpt lat="50.330837024375796" lon="7.731350976973772">
        <ele>108.652444</ele>
        <time>2026-04-08T12:45:28Z</time>
      </trkpt>
      <trkpt lat="50.330686988309026" lon="7.73067899979651">
        <ele>104.722959</ele>
        <time>2026-04-08T12:45:36Z</time>
      </trkpt>
      <trkpt lat="50.330553967505693" lon="7.730153035372496">
        <ele>101.60024300000001</ele>
        <time>2026-04-08T12:45:42Z</time>
      </trkpt>
      <trkpt lat="50.330509040504694" lon="7.729995036497712">
        <ele>100.64542</ele>
        <time>2026-04-08T12:45:44Z</time>
      </trkpt>
      <trkpt lat="50.330264959484339" lon="7.729453984647989">
        <ele>96.975457000000006</ele>
        <time>2026-04-08T12:45:52Z</time>
      </trkpt>
      <trkpt lat="50.330203017219901" lon="7.729350971058011">
        <ele>96.194156000000007</ele>
        <time>2026-04-08T12:45:54Z</time>
      </trkpt>
      <trkpt lat="50.329979974776506" lon="7.72954199463129">
        <ele>93.667783</ele>
        <time>2026-04-08T12:46:01Z</time>
      </trkpt>
      <trkpt lat="50.329747041687369" lon="7.729996964335442">
        <ele>92.806826000000001</ele>
        <time>2026-04-08T12:46:11Z</time>
      </trkpt>
      <trkpt lat="50.329574961215258" lon="7.730230987071991">
        <ele>92.478055999999995</ele>
        <time>2026-04-08T12:46:16Z</time>
      </trkpt>
      <trkpt lat="50.329235997051001" lon="7.730668019503355">
        <ele>91.844607999999994</ele>
        <time>2026-04-08T12:46:26Z</time>
      </trkpt>
      <trkpt lat="50.328912958502769" lon="7.730941018089652">
        <ele>91.315031000000005</ele>
        <time>2026-04-08T12:46:35Z</time>
      </trkpt>
      <trkpt lat="50.328792007640004" lon="7.730994997546077">
        <ele>91.128992999999994</ele>
        <time>2026-04-08T12:46:50Z</time>
      </trkpt>
      <trkpt lat="50.328678013756871" lon="7.730760974809527">
        <ele>90.853182000000004</ele>
        <time>2026-04-08T12:46:57Z</time>
      </trkpt>
      <trkpt lat="50.328524960204959" lon="7.730338023975492">
        <ele>90.456405000000004</ele>
        <time>2026-04-08T12:47:04Z</time>
      </trkpt>
      <trkpt lat="50.328652029857039" lon="7.729876013472676">
        <ele>90.007115999999996</ele>
        <time>2026-04-08T12:47:11Z</time>
      </trkpt>
      <trkpt lat="50.328887980431318" lon="7.729652971029282">
        <ele>89.681678000000005</ele>
        <time>2026-04-08T12:47:16Z</time>
      </trkpt>
      <trkpt lat="50.329325012862682" lon="7.728979988023639">
        <ele>88.953768999999994</ele>
        <time>2026-04-08T12:47:28Z</time>
      </trkpt>
      <trkpt lat="50.329582002013922" lon="7.728283032774925">
        <ele>88.764178000000001</ele>
        <time>2026-04-08T12:47:38Z</time>
      </trkpt>
      <trkpt lat="50.32949298620224" lon="7.727682972326875">
        <ele>89.340331000000006</ele>
        <time>2026-04-08T12:47:52Z</time>
      </trkpt>
      <trkpt lat="50.329147987067699" lon="7.727493038401008">
        <ele>89.744366999999997</ele>
        <time>2026-04-08T12:48:03Z</time>
      </trkpt>
      <trkpt lat="50.328791001811624" lon="7.726922985166311">
        <ele>90.309577000000004</ele>
        <time>2026-04-08T12:48:16Z</time>
      </trkpt>
      <trkpt lat="50.328703997656703" lon="7.726820977404714">
        <ele>90.429400000000001</ele>
        <time>2026-04-08T12:48:18Z</time>
      </trkpt>
      <trkpt lat="50.32837500795722" lon="7.726953998208046">
        <ele>91.388515999999996</ele>
        <time>2026-04-08T12:48:27Z</time>
      </trkpt>
      <trkpt lat="50.327793974429369" lon="7.728107012808323">
        <ele>93.997934000000001</ele>
        <time>2026-04-08T12:48:56Z</time>
      </trkpt>
      <trkpt lat="50.327329030260444" lon="7.728385962545872">
        <ele>95.577348999999998</ele>
        <time>2026-04-08T12:49:16Z</time>
      </trkpt>
      <trkpt lat="50.327226016670465" lon="7.728472966700792">
        <ele>96.347359999999995</ele>
        <time>2026-04-08T12:49:38Z</time>
      </trkpt>
      <trkpt lat="50.327043039724231" lon="7.728212038055062">
        <ele>97.995856000000003</ele>
        <time>2026-04-08T12:49:58Z</time>
      </trkpt>
      <trkpt lat="50.326761994510889" lon="7.727852035313845">
        <ele>100.330849</ele>
        <time>2026-04-08T12:50:16Z</time>
      </trkpt>
      <trkpt lat="50.326375002041459" lon="7.727452972903848">
        <ele>103.285447</ele>
        <time>2026-04-08T12:50:38Z</time>
      </trkpt>
      <trkpt lat="50.32635304145515" lon="7.727407962083817">
        <ele>103.515063</ele>
        <time>2026-04-08T12:50:40Z</time>
      </trkpt>
      <trkpt lat="50.326264025643468" lon="7.727280976250768">
        <ele>104.279044</ele>
        <time>2026-04-08T12:50:46Z</time>
      </trkpt>
      <trkpt lat="50.326235024258494" lon="7.72724200040102">
        <ele>104.521587</ele>
        <time>2026-04-08T12:50:48Z</time>
      </trkpt>
      <trkpt lat="50.325922966003418" lon="7.726858025416732">
        <ele>107.17070099999999</ele>
        <time>2026-04-08T12:51:09Z</time>
      </trkpt>
      <trkpt lat="50.325734037905931" lon="7.726457035169005">
        <ele>110.71944999999999</ele>
        <time>2026-04-08T12:51:26Z</time>
      </trkpt>
      <trkpt lat="50.325722973793745" lon="7.726432979106903">
        <ele>110.929104</ele>
        <time>2026-04-08T12:51:27Z</time>
      </trkpt>
      <trkpt lat="50.325576039031148" lon="7.72612301632762">
        <ele>113.67635199999999</ele>
        <time>2026-04-08T12:51:41Z</time>
      </trkpt>
      <trkpt lat="50.325533961877227" lon="7.726054033264518">
        <ele>114.50625599999999</ele>
        <time>2026-04-08T12:52:17Z</time>
      </trkpt>
      <trkpt lat="50.32555902376771" lon="7.726178001612425">
        <ele>115.44117</ele>
        <time>2026-04-08T12:52:22Z</time>
      </trkpt>
      <trkpt lat="50.325652984902263" lon="7.726558959111571">
        <ele>118.35014200000001</ele>
        <time>2026-04-08T12:52:36Z</time>
      </trkpt>
      <trkpt lat="50.325783994048834" lon="7.727032033726573">
        <ele>122.013283</ele>
        <time>2026-04-08T12:52:54Z</time>
      </trkpt>
      <trkpt lat="50.325778964906931" lon="7.72704997099936">
        <ele>122.152582</ele>
        <time>2026-04-08T12:52:55Z</time>
      </trkpt>
      <trkpt lat="50.325702019035816" lon="7.726916028186679">
        <ele>123.622321</ele>
        <time>2026-04-08T12:53:40Z</time>
      </trkpt>
      <trkpt lat="50.325506972149014" lon="7.726550996303558">
        <ele>127.067504</ele>
        <time>2026-04-08T12:54:12Z</time>
      </trkpt>
      <trkpt lat="50.325341010466218" lon="7.7262759860605">
        <ele>130.195379</ele>
        <time>2026-04-08T12:54:41Z</time>
      </trkpt>
      <trkpt lat="50.32517303712666" lon="7.726041041314602">
        <ele>133.14013</ele>
        <time>2026-04-08T12:55:11Z</time>
      </trkpt>
      <trkpt lat="50.325058959424496" lon="7.725892011076212">
        <ele>135.040504</ele>
        <time>2026-04-08T12:55:56Z</time>
      </trkpt>
      <trkpt lat="50.324878999963403" lon="7.725655976682901">
        <ele>138.05297899999999</ele>
        <time>2026-04-08T12:56:21Z</time>
      </trkpt>
      <trkpt lat="50.324770035222173" lon="7.72550200112164">
        <ele>139.93641099999999</ele>
        <time>2026-04-08T12:56:43Z</time>
      </trkpt>
      <trkpt lat="50.324544981122017" lon="7.725186003372073">
        <ele>143.77908600000001</ele>
        <time>2026-04-08T12:57:00Z</time>
      </trkpt>
      <trkpt lat="50.324377007782459" lon="7.724939994513989">
        <ele>146.71571499999999</ele>
        <time>2026-04-08T12:57:41Z</time>
      </trkpt>
      <trkpt lat="50.324284974485636" lon="7.724808985367417">
        <ele>148.29670400000001</ele>
        <time>2026-04-08T12:57:57Z</time>
      </trkpt>
      <trkpt lat="50.324267959222198" lon="7.724755005910993">
        <ele>148.79927900000001</ele>
        <time>2026-04-08T12:58:00Z</time>
      </trkpt>
      <trkpt lat="50.324167041108012" lon="7.724571023136377">
        <ele>150.59897900000001</ele>
        <time>2026-04-08T12:58:16Z</time>
      </trkpt>
      <trkpt lat="50.324083976447582" lon="7.724413024261594">
        <ele>152.04352</ele>
        <time>2026-04-08T12:58:44Z</time>
      </trkpt>
      <trkpt lat="50.324027985334396" lon="7.724202973768115">
        <ele>153.607991</ele>
        <time>2026-04-08T12:59:09Z</time>
      </trkpt>
      <trkpt lat="50.323932012543082" lon="7.724098032340407">
        <ele>154.84862699999999</ele>
        <time>2026-04-08T12:59:18Z</time>
      </trkpt>
      <trkpt lat="50.323719028383493" lon="7.723754961043596">
        <ele>158.10026400000001</ele>
        <time>2026-04-08T12:59:44Z</time>
      </trkpt>
      <trkpt lat="50.323715005069971" lon="7.723745992407203">
        <ele>158.174286</ele>
        <time>2026-04-08T12:59:45Z</time>
      </trkpt>
      <trkpt lat="50.323661025613546" lon="7.723599979653955">
        <ele>159.31358</ele>
        <time>2026-04-08T12:59:54Z</time>
      </trkpt>
      <trkpt lat="50.323661025613546" lon="7.723577013239265">
        <ele>159.46883399999999</ele>
        <time>2026-04-08T12:59:55Z</time>
      </trkpt>
      <trkpt lat="50.323538985103369" lon="7.723366962745786">
        <ele>161.39303000000001</ele>
        <time>2026-04-08T13:00:04Z</time>
      </trkpt>
      <trkpt lat="50.323526998981833" lon="7.723346007987857">
        <ele>161.583269</ele>
        <time>2026-04-08T13:00:05Z</time>
      </trkpt>
      <trkpt lat="50.323316026479006" lon="7.722993968054652">
        <ele>164.87326400000001</ele>
        <time>2026-04-08T13:00:36Z</time>
      </trkpt>
      <trkpt lat="50.32324000261724" lon="7.722871005535126">
        <ele>166.032411</ele>
        <time>2026-04-08T13:00:45Z</time>
      </trkpt>
      <trkpt lat="50.323092984035611" lon="7.722528018057346">
        <ele>168.877228</ele>
        <time>2026-04-08T13:01:03Z</time>
      </trkpt>
      <trkpt lat="50.323040010407567" lon="7.72234202362597">
        <ele>170.41491500000001</ele>
        <time>2026-04-08T13:01:13Z</time>
      </trkpt>
      <trkpt lat="50.323012014850974" lon="7.722259964793921">
        <ele>171.144396</ele>
        <time>2026-04-08T13:01:21Z</time>
      </trkpt>
      <trkpt lat="50.322971027344465" lon="7.722206991165876">
        <ele>171.77153000000001</ele>
        <time>2026-04-08T13:01:27Z</time>
      </trkpt>
      <trkpt lat="50.322932973504066" lon="7.722111018374562">
        <ele>172.62093200000001</ele>
        <time>2026-04-08T13:01:33Z</time>
      </trkpt>
      <trkpt lat="50.32283297739923" lon="7.721862997859716">
        <ele>174.91226399999999</ele>
        <time>2026-04-08T13:01:52Z</time>
      </trkpt>
      <trkpt lat="50.32278997823596" lon="7.721759984269738">
        <ele>175.91144499999999</ele>
        <time>2026-04-08T13:02:03Z</time>
      </trkpt>
      <trkpt lat="50.322646982967854" lon="7.721577007323504">
        <ele>178.10396399999999</ele>
        <time>2026-04-08T13:02:31Z</time>
      </trkpt>
      <trkpt lat="50.322527037933469" lon="7.721423031762242">
        <ele>179.93405999999999</ele>
        <time>2026-04-08T13:02:44Z</time>
      </trkpt>
      <trkpt lat="50.322513962164521" lon="7.721564015373588">
        <ele>182.26578699999999</ele>
        <time>2026-04-08T13:03:14Z</time>
      </trkpt>
      <trkpt lat="50.322553021833301" lon="7.721640961244702">
        <ele>183.006507</ele>
        <time>2026-04-08T13:03:21Z</time>
      </trkpt>
      <trkpt lat="50.322639020159841" lon="7.721918988972902">
        <ele>185.368514</ele>
        <time>2026-04-08T13:03:46Z</time>
      </trkpt>
      <trkpt lat="50.322648994624615" lon="7.72197799757123">
        <ele>185.83209299999999</ele>
        <time>2026-04-08T13:03:49Z</time>
      </trkpt>
      <trkpt lat="50.322685958817601" lon="7.722152005881071">
        <ele>187.21741900000001</ele>
        <time>2026-04-08T13:03:58Z</time>
      </trkpt>
      <trkpt lat="50.322657041251659" lon="7.722468003630638">
        <ele>189.67164199999999</ele>
        <time>2026-04-08T13:04:21Z</time>
      </trkpt>
      <trkpt lat="50.322671039029956" lon="7.722921967506409">
        <ele>193.11194900000001</ele>
        <time>2026-04-08T13:04:53Z</time>
      </trkpt>
      <trkpt lat="50.322671039029956" lon="7.722936971113086">
        <ele>193.22210699999999</ele>
        <time>2026-04-08T13:04:54Z</time>
      </trkpt>
      <trkpt lat="50.322671961039305" lon="7.723166970536113">
        <ele>194.997162</ele>
        <time>2026-04-08T13:05:40Z</time>
      </trkpt>
      <trkpt lat="50.322723006829619" lon="7.723616994917393">
        <ele>198.38422499999999</ele>
        <time>2026-04-08T13:06:33Z</time>
      </trkpt>
      <trkpt lat="50.322782015427947" lon="7.723989989608526">
        <ele>201.28242499999999</ele>
        <time>2026-04-08T13:06:58Z</time>
      </trkpt>
      <trkpt lat="50.322785032913089" lon="7.724009016528726">
        <ele>201.42616200000001</ele>
        <time>2026-04-08T13:07:05Z</time>
      </trkpt>
      <trkpt lat="50.322872959077358" lon="7.724286038428545">
        <ele>203.704127</ele>
        <time>2026-04-08T13:07:22Z</time>
      </trkpt>
      <trkpt lat="50.322906989604235" lon="7.724439008161426">
        <ele>204.89697000000001</ele>
        <time>2026-04-08T13:07:29Z</time>
      </trkpt>
      <trkpt lat="50.322949988767505" lon="7.724594995379448">
        <ele>206.15251900000001</ele>
        <time>2026-04-08T13:07:42Z</time>
      </trkpt>
      <trkpt lat="50.323058031499386" lon="7.724820971488953">
        <ele>208.23885799999999</ele>
        <time>2026-04-08T13:07:55Z</time>
      </trkpt>
      <trkpt lat="50.323060965165496" lon="7.724848967045546">
        <ele>208.44736</ele>
        <time>2026-04-08T13:07:58Z</time>
      </trkpt>
      <trkpt lat="50.32311100512743" lon="7.725034961476922">
        <ele>209.99909199999999</ele>
        <time>2026-04-08T13:08:17Z</time>
      </trkpt>
      <trkpt lat="50.323193985968828" lon="7.725325981155038">
        <ele>211.76915099999999</ele>
        <time>2026-04-08T13:08:41Z</time>
      </trkpt>
      <trkpt lat="50.323345027863979" lon="7.725635021924973">
        <ele>213.68905699999999</ele>
        <time>2026-04-08T13:09:06Z</time>
      </trkpt>
      <trkpt lat="50.323371011763811" lon="7.725678021088243">
        <ele>213.97632200000001</ele>
        <time>2026-04-08T13:09:09Z</time>
      </trkpt>
      <trkpt lat="50.323529010638595" lon="7.726200968027115">
        <ele>216.82488000000001</ele>
        <time>2026-04-08T13:09:37Z</time>
      </trkpt>
      <trkpt lat="50.323551977053285" lon="7.726392997428775">
        <ele>217.88316</ele>
        <time>2026-04-08T13:10:18Z</time>
      </trkpt>
      <trkpt lat="50.323291970416903" lon="7.7262759860605">
        <ele>219.95939200000001</ele>
        <time>2026-04-08T13:10:52Z</time>
      </trkpt>
      <trkpt lat="50.32326003536582" lon="7.72625201381743">
        <ele>220.23248799999999</ele>
        <time>2026-04-08T13:11:01Z</time>
      </trkpt>
      <trkpt lat="50.323024000972509" lon="7.726009022444487">
        <ele>222.39376300000001</ele>
        <time>2026-04-08T13:11:17Z</time>
      </trkpt>
      <trkpt lat="50.322888968512416" lon="7.725926963612437">
        <ele>223.49629200000001</ele>
        <time>2026-04-08T13:11:22Z</time>
      </trkpt>
      <trkpt lat="50.322869019582868" lon="7.725921012461186">
        <ele>223.65100100000001</ele>
        <time>2026-04-08T13:11:23Z</time>
      </trkpt>
      <trkpt lat="50.32246601767838" lon="7.72539203055203">
        <ele>225.07268099999999</ele>
        <time>2026-04-08T13:11:45Z</time>
      </trkpt>
      <trkpt lat="50.322438022121787" lon="7.725365962833166">
        <ele>225.13273899999999</ele>
        <time>2026-04-08T13:11:46Z</time>
      </trkpt>
      <trkpt lat="50.321857994422317" lon="7.724591977894306">
        <ele>226.55202700000001</ele>
        <time>2026-04-08T13:12:12Z</time>
      </trkpt>
      <trkpt lat="50.321687003597617" lon="7.724377987906337">
        <ele>226.95612499999999</ele>
        <time>2026-04-08T13:12:20Z</time>
      </trkpt>
      <trkpt lat="50.320873958989978" lon="7.723199995234609">
        <ele>229.261539</ele>
        <time>2026-04-08T13:13:05Z</time>
      </trkpt>
      <trkpt lat="50.319712981581688" lon="7.721535013988614">
        <ele>230.073262</ele>
        <time>2026-04-08T13:14:04Z</time>
      </trkpt>
      <trkpt lat="50.318870013579726" lon="7.720077987760305">
        <ele>226.73764299999999</ele>
        <time>2026-04-08T13:14:40Z</time>
      </trkpt>
      <trkpt lat="50.318591985851526" lon="7.719843965023756">
        <ele>223.20702199999999</ele>
        <time>2026-04-08T13:14:47Z</time>
      </trkpt>
      <trkpt lat="50.318272970616817" lon="7.71987296640873">
        <ele>219.59742499999999</ele>
        <time>2026-04-08T13:14:55Z</time>
      </trkpt>
      <trkpt lat="50.318241035565734" lon="7.719897022470832">
        <ele>219.20524800000001</ele>
        <time>2026-04-08T13:14:56Z</time>
      </trkpt>
      <trkpt lat="50.317972982302308" lon="7.720155017450452">
        <ele>215.72139100000001</ele>
        <time>2026-04-08T13:15:05Z</time>
      </trkpt>
      <trkpt lat="50.31789000146091" lon="7.72023699246347">
        <ele>214.636664</ele>
        <time>2026-04-08T13:15:07Z</time>
      </trkpt>
      <trkpt lat="50.317763015627861" lon="7.720578974112868">
        <ele>211.81832600000001</ele>
        <time>2026-04-08T13:15:12Z</time>
      </trkpt>
      <trkpt lat="50.317727979272604" lon="7.72075398825109">
        <ele>210.52401800000001</ele>
        <time>2026-04-08T13:15:14Z</time>
      </trkpt>
      <trkpt lat="50.31756604090333" lon="7.721149027347565">
        <ele>207.479524</ele>
        <time>2026-04-08T13:15:19Z</time>
      </trkpt>
      <trkpt lat="50.317517006769776" lon="7.721225973218679">
        <ele>207.221206</ele>
        <time>2026-04-08T13:15:20Z</time>
      </trkpt>
      <trkpt lat="50.31698802486062" lon="7.721408028155565">
        <ele>205.125902</ele>
        <time>2026-04-08T13:15:31Z</time>
      </trkpt>
      <trkpt lat="50.31696698628366" lon="7.721393024548888">
        <ele>204.952618</ele>
        <time>2026-04-08T13:15:44Z</time>
      </trkpt>
      <trkpt lat="50.316971009597182" lon="7.721492014825344">
        <ele>204.60254599999999</ele>
        <time>2026-04-08T13:16:00Z</time>
      </trkpt>
      <trkpt lat="50.316889034584165" lon="7.721539959311485">
        <ele>204.274722</ele>
        <time>2026-04-08T13:16:06Z</time>
      </trkpt>
      <trkpt lat="50.316242035478354" lon="7.721626963466406">
        <ele>201.805161</ele>
        <time>2026-04-08T13:16:27Z</time>
      </trkpt>
      <trkpt lat="50.315782036632299" lon="7.721404004842043">
        <ele>203.633948</ele>
        <time>2026-04-08T13:16:49Z</time>
      </trkpt>
      <trkpt lat="50.315508032217622" lon="7.721318006515503">
        <ele>206.64167599999999</ele>
        <time>2026-04-08T13:17:05Z</time>
      </trkpt>
      <trkpt lat="50.315394960343838" lon="7.721323035657406">
        <ele>207.85377800000001</ele>
        <time>2026-04-08T13:17:12Z</time>
      </trkpt>
      <trkpt lat="50.315383980050683" lon="7.721318006515503">
        <ele>207.97652400000001</ele>
        <time>2026-04-08T13:17:13Z</time>
      </trkpt>
      <trkpt lat="50.315346010029316" lon="7.721349019557238">
        <ele>208.473028</ele>
        <time>2026-04-08T13:18:00Z</time>
      </trkpt>
      <trkpt lat="50.315242996439338" lon="7.721397969871759">
        <ele>209.62983800000001</ele>
        <time>2026-04-08T13:18:06Z</time>
      </trkpt>
      <trkpt lat="50.314966980367899" lon="7.721491008996964">
        <ele>212.67040900000001</ele>
        <time>2026-04-08T13:18:22Z</time>
      </trkpt>
      <trkpt lat="50.314942002296448" lon="7.721497965976596">
        <ele>212.94257099999999</ele>
        <time>2026-04-08T13:18:24Z</time>
      </trkpt>
      <trkpt lat="50.314573030918837" lon="7.721589999273419">
        <ele>216.95419799999999</ele>
        <time>2026-04-08T13:18:42Z</time>
      </trkpt>
      <trkpt lat="50.314390975981951" lon="7.721775993704796">
        <ele>219.342296</ele>
        <time>2026-04-08T13:19:27Z</time>
      </trkpt>
      <trkpt lat="50.314312018454075" lon="7.721862997859716">
        <ele>220.292385</ele>
        <time>2026-04-08T13:19:38Z</time>
      </trkpt>
      <trkpt lat="50.314271030947566" lon="7.721867021173239">
        <ele>220.483881</ele>
        <time>2026-04-08T13:20:02Z</time>
      </trkpt>
      <trkpt lat="50.313712963834405" lon="7.721416996791959">
        <ele>223.39921699999999</ele>
        <time>2026-04-08T13:20:34Z</time>
      </trkpt>
      <trkpt lat="50.313106030225754" lon="7.720947023481131">
        <ele>226.54046299999999</ele>
        <time>2026-04-08T13:21:07Z</time>
      </trkpt>
      <trkpt lat="50.312486020848155" lon="7.720432039350271">
        <ele>229.646691</ele>
        <time>2026-04-08T13:21:45Z</time>
      </trkpt>
      <trkpt lat="50.312164993956685" lon="7.720132973045111">
        <ele>231.17595</ele>
        <time>2026-04-08T13:22:31Z</time>
      </trkpt>
      <trkpt lat="50.31150902621448" lon="7.71952897310257">
        <ele>234.28414000000001</ele>
        <time>2026-04-08T13:23:12Z</time>
      </trkpt>
      <trkpt lat="50.310567989945412" lon="7.718859007582068">
        <ele>236.148752</ele>
        <time>2026-04-08T13:23:55Z</time>
      </trkpt>
      <trkpt lat="50.309904981404543" lon="7.718217959627509">
        <ele>236.47398899999999</ele>
        <time>2026-04-08T13:24:32Z</time>
      </trkpt>
      <trkpt lat="50.309881009161472" lon="7.717516981065273">
        <ele>236.33338499999999</ele>
        <time>2026-04-08T13:24:51Z</time>
      </trkpt>
      <trkpt lat="50.309802973642945" lon="7.717312965542078">
        <ele>236.002576</ele>
        <time>2026-04-08T13:24:56Z</time>
      </trkpt>
      <trkpt lat="50.309848990291357" lon="7.71634703502059">
        <ele>234.631078</ele>
        <time>2026-04-08T13:25:30Z</time>
      </trkpt>
      <trkpt lat="50.309862988069654" lon="7.716314010322094">
        <ele>234.57595699999999</ele>
        <time>2026-04-08T13:26:04Z</time>
      </trkpt>
      <trkpt lat="50.309957033023238" lon="7.715942021459341">
        <ele>234.01495800000001</ele>
        <time>2026-04-08T13:26:14Z</time>
      </trkpt>
      <trkpt lat="50.310573019087315" lon="7.714626984670758">
        <ele>232.07259199999999</ele>
        <time>2026-04-08T13:26:47Z</time>
      </trkpt>
      <trkpt lat="50.311201997101307" lon="7.711777975782752">
        <ele>229.97742099999999</ele>
        <time>2026-04-08T13:27:18Z</time>
      </trkpt>
      <trkpt lat="50.311330994591117" lon="7.711155032739043">
        <ele>229.76988600000001</ele>
        <time>2026-04-08T13:27:23Z</time>
      </trkpt>
      <trkpt lat="50.311596030369401" lon="7.7109569683671">
        <ele>229.61596399999999</ele>
        <time>2026-04-08T13:27:28Z</time>
      </trkpt>
      <trkpt lat="50.311791999265552" lon="7.710952023044229">
        <ele>229.51855499999999</ele>
        <time>2026-04-08T13:27:34Z</time>
      </trkpt>
      <trkpt lat="50.311641963198781" lon="7.710486995056272">
        <ele>230.49192600000001</ele>
        <time>2026-04-08T13:27:50Z</time>
      </trkpt>
      <trkpt lat="50.311624025925994" lon="7.71046101115644">
        <ele>230.687455</ele>
        <time>2026-04-08T13:27:51Z</time>
      </trkpt>
      <trkpt lat="50.311340969055891" lon="7.710024984553456">
        <ele>233.85806099999999</ele>
        <time>2026-04-08T13:28:07Z</time>
      </trkpt>
      <trkpt lat="50.311252037063241" lon="7.709879977628589">
        <ele>234.88355999999999</ele>
        <time>2026-04-08T13:28:12Z</time>
      </trkpt>
      <trkpt lat="50.311157992109656" lon="7.709737988188863">
        <ele>235.92643699999999</ele>
        <time>2026-04-08T13:28:17Z</time>
      </trkpt>
      <trkpt lat="50.310795977711678" lon="7.709632962942123">
        <ele>239.003028</ele>
        <time>2026-04-08T13:28:32Z</time>
      </trkpt>
      <trkpt lat="50.310642002150416" lon="7.709772018715739">
        <ele>240.431588</ele>
        <time>2026-04-08T13:28:39Z</time>
      </trkpt>
      <trkpt lat="50.310459025204182" lon="7.710293959826231">
        <ele>243.48439999999999</ele>
        <time>2026-04-08T13:28:54Z</time>
      </trkpt>
      <trkpt lat="50.310447961091995" lon="7.710330002009869">
        <ele>243.68789799999999</ele>
        <time>2026-04-08T13:28:55Z</time>
      </trkpt>
      <trkpt lat="50.310289040207863" lon="7.710822019726038">
        <ele>246.92489699999999</ele>
        <time>2026-04-08T13:29:08Z</time>
      </trkpt>
      <trkpt lat="50.310287028551102" lon="7.710854960605502">
        <ele>247.119891</ele>
        <time>2026-04-08T13:29:09Z</time>
      </trkpt>
      <trkpt lat="50.310203963890672" lon="7.711244970560074">
        <ele>249.538149</ele>
        <time>2026-04-08T13:29:19Z</time>
      </trkpt>
      <trkpt lat="50.310074966400862" lon="7.71179398521781">
        <ele>252.988224</ele>
        <time>2026-04-08T13:29:33Z</time>
      </trkpt>
      <trkpt lat="50.310068009421229" lon="7.711826004087925">
        <ele>253.18720200000001</ele>
        <time>2026-04-08T13:29:34Z</time>
      </trkpt>
      <trkpt lat="50.309969019144773" lon="7.712465962395072">
        <ele>257.06444599999998</ele>
        <time>2026-04-08T13:29:51Z</time>
      </trkpt>
      <trkpt lat="50.309961978346109" lon="7.712505022063851">
        <ele>257.30275399999999</ele>
        <time>2026-04-08T13:29:52Z</time>
      </trkpt>
      <trkpt lat="50.309874974191189" lon="7.712895032018423">
        <ele>259.73495700000001</ele>
        <time>2026-04-08T13:30:02Z</time>
      </trkpt>
      <trkpt lat="50.309782018885016" lon="7.713054958730936">
        <ele>260.99403699999999</ele>
        <time>2026-04-08T13:30:07Z</time>
      </trkpt>
      <trkpt lat="50.309760980308056" lon="7.713069962337613">
        <ele>261.20246200000003</ele>
        <time>2026-04-08T13:30:08Z</time>
      </trkpt>
      <trkpt lat="50.309579009190202" lon="7.71284700371325">
        <ele>263.565473</ele>
        <time>2026-04-08T13:30:19Z</time>
      </trkpt>
      <trkpt lat="50.309644974768162" lon="7.712418017908931">
        <ele>266.12632500000001</ele>
        <time>2026-04-08T13:30:30Z</time>
      </trkpt>
      <trkpt lat="50.309733990579844" lon="7.711824998259544">
        <ele>269.65803199999999</ele>
        <time>2026-04-08T13:30:45Z</time>
      </trkpt>
      <trkpt lat="50.309736002236605" lon="7.711785016581416">
        <ele>269.889409</ele>
        <time>2026-04-08T13:30:46Z</time>
      </trkpt>
      <trkpt lat="50.309714963659644" lon="7.71138402633369">
        <ele>272.21609999999998</ele>
        <time>2026-04-08T13:30:56Z</time>
      </trkpt>
      <trkpt lat="50.309571968391538" lon="7.710845991969109">
        <ele>275.60423500000002</ele>
        <time>2026-04-08T13:31:10Z</time>
      </trkpt>
      <trkpt lat="50.309558976441622" lon="7.710810033604503">
        <ele>275.84273100000001</ele>
        <time>2026-04-08T13:31:11Z</time>
      </trkpt>
      <trkpt lat="50.309334006160498" lon="7.710324972867966">
        <ele>279.02106900000001</ele>
        <time>2026-04-08T13:31:26Z</time>
      </trkpt>
      <trkpt lat="50.30912303365767" lon="7.709965975955129">
        <ele>281.559639</ele>
        <time>2026-04-08T13:31:39Z</time>
      </trkpt>
      <trkpt lat="50.30921196565032" lon="7.71046201698482">
        <ele>284.64653099999998</ele>
        <time>2026-04-08T13:31:59Z</time>
      </trkpt>
      <trkpt lat="50.309180030599236" lon="7.71091103553772">
        <ele>287.061893</ele>
        <time>2026-04-08T13:32:17Z</time>
      </trkpt>
      <trkpt lat="50.309072993695736" lon="7.711357036605477">
        <ele>289.54458799999998</ele>
        <time>2026-04-08T13:32:33Z</time>
      </trkpt>
      <trkpt lat="50.309003004804254" lon="7.711539007723332">
        <ele>290.64668</ele>
        <time>2026-04-08T13:32:40Z</time>
      </trkpt>
      <trkpt lat="50.308732017874718" lon="7.711934968829155">
        <ele>293.58383600000002</ele>
        <time>2026-04-08T13:33:00Z</time>
      </trkpt>
      <trkpt lat="50.308401016518474" lon="7.712014010176063">
        <ele>296.189819</ele>
        <time>2026-04-08T13:33:17Z</time>
      </trkpt>
      <trkpt lat="50.30830898322165" lon="7.712421035394073">
        <ele>298.40189500000002</ele>
        <time>2026-04-08T13:33:33Z</time>
      </trkpt>
      <trkpt lat="50.308237988501787" lon="7.712670983746648">
        <ele>299.75659100000001</ele>
        <time>2026-04-08T13:33:40Z</time>
      </trkpt>
      <trkpt lat="50.308193983510137" lon="7.713065017014742">
        <ele>301.73988600000001</ele>
        <time>2026-04-08T13:33:52Z</time>
      </trkpt>
      <trkpt lat="50.308169005438685" lon="7.713264003396034">
        <ele>302.744192</ele>
        <time>2026-04-08T13:33:59Z</time>
      </trkpt>
      <trkpt lat="50.308123994618654" lon="7.71338302642107">
        <ele>303.433785</ele>
        <time>2026-04-08T13:34:03Z</time>
      </trkpt>
      <trkpt lat="50.308003965765238" lon="7.713704975321889">
        <ele>305.12546300000002</ele>
        <time>2026-04-08T13:34:16Z</time>
      </trkpt>
      <trkpt lat="50.30781302601099" lon="7.714057015255094">
        <ele>305.85425199999997</ele>
        <time>2026-04-08T13:35:06Z</time>
      </trkpt>
      <trkpt lat="50.307416981086135" lon="7.715431982651353">
        <ele>308.28560399999998</ele>
        <time>2026-04-08T13:35:49Z</time>
      </trkpt>
      <trkpt lat="50.307094026356936" lon="7.716319039463997">
        <ele>310.16095999999999</ele>
        <time>2026-04-08T13:36:16Z</time>
      </trkpt>
      <trkpt lat="50.306993024423718" lon="7.716290960088372">
        <ele>317.61067800000001</ele>
        <time>2026-04-08T13:38:17Z</time>
      </trkpt>
      <trkpt lat="50.306828990578651" lon="7.716135978698731">
        <ele>320.13066800000001</ele>
        <time>2026-04-08T13:39:38Z</time>
      </trkpt>
      <trkpt lat="50.306765958666801" lon="7.716061966493726">
        <ele>321.18923000000001</ele>
        <time>2026-04-08T13:40:24Z</time>
      </trkpt>
      <trkpt lat="50.306753972545266" lon="7.7160460408777">
        <ele>321.394679</ele>
        <time>2026-04-08T13:40:33Z</time>
      </trkpt>
      <trkpt lat="50.306616006419063" lon="7.715943027287722">
        <ele>323.39477599999998</ele>
        <time>2026-04-08T13:40:50Z</time>
      </trkpt>
      <trkpt lat="50.30654601752758" lon="7.715882007032633">
        <ele>324.502431</ele>
        <time>2026-04-08T13:41:36Z</time>
      </trkpt>
      <trkpt lat="50.306578958407044" lon="7.715710010379553">
        <ele>326.02112399999999</ele>
        <time>2026-04-08T13:41:47Z</time>
      </trkpt>
      <trkpt lat="50.306608965620399" lon="7.715351013466716">
        <ele>329.21507400000002</ele>
        <time>2026-04-08T13:42:12Z</time>
      </trkpt>
      <trkpt lat="50.306474016979337" lon="7.715221010148525">
        <ele>331.30992300000003</ele>
        <time>2026-04-08T13:42:44Z</time>
      </trkpt>
      <trkpt lat="50.306379972025752" lon="7.715163007378578">
        <ele>332.63840399999998</ele>
        <time>2026-04-08T13:43:11Z</time>
      </trkpt>
      <trkpt lat="50.306190038099885" lon="7.715068040415645">
        <ele>335.26813399999998</ele>
        <time>2026-04-08T13:43:45Z</time>
      </trkpt>
      <trkpt lat="50.306144021451473" lon="7.71503996104002">
        <ele>335.91464300000001</ele>
        <time>2026-04-08T13:43:53Z</time>
      </trkpt>
      <trkpt lat="50.306109990924597" lon="7.714988999068737">
        <ele>336.52839299999999</ele>
        <time>2026-04-08T13:44:00Z</time>
      </trkpt>
      <trkpt lat="50.305868005380034" lon="7.714875005185604">
        <ele>339.83784600000001</ele>
        <time>2026-04-08T13:44:26Z</time>
      </trkpt>
      <trkpt lat="50.305615961551666" lon="7.71475899964571">
        <ele>343.13477799999998</ele>
        <time>2026-04-08T13:44:57Z</time>
      </trkpt>
      <trkpt lat="50.305402977392077" lon="7.714601000770927">
        <ele>346.102555</ele>
        <time>2026-04-08T13:45:30Z</time>
      </trkpt>
      <trkpt lat="50.305233998224139" lon="7.714525982737541">
        <ele>348.33663200000001</ele>
        <time>2026-04-08T13:46:22Z</time>
      </trkpt>
      <trkpt lat="50.30519200488925" lon="7.714477032423019">
        <ele>348.985026</ele>
        <time>2026-04-08T13:46:27Z</time>
      </trkpt>
      <trkpt lat="50.305054038763046" lon="7.714412994682789">
        <ele>350.78079700000001</ele>
        <time>2026-04-08T13:46:38Z</time>
      </trkpt>
      <trkpt lat="50.304843988269567" lon="7.714272011071444">
        <ele>353.63958700000001</ele>
        <time>2026-04-08T13:47:12Z</time>
      </trkpt>
      <trkpt lat="50.304637039080262" lon="7.714163968339562">
        <ele>356.34651200000002</ele>
        <time>2026-04-08T13:47:28Z</time>
      </trkpt>
      <trkpt lat="50.304623963311315" lon="7.714148964732885">
        <ele>356.54642200000001</ele>
        <time>2026-04-08T13:47:29Z</time>
      </trkpt>
      <trkpt lat="50.304404022172093" lon="7.714072018861771">
        <ele>359.36704099999997</ele>
        <time>2026-04-08T13:47:55Z</time>
      </trkpt>
      <trkpt lat="50.304133035242558" lon="7.713888958096504">
        <ele>362.43982</ele>
        <time>2026-04-08T13:48:39Z</time>
      </trkpt>
      <trkpt lat="50.3035609703511" lon="7.713624006137252">
        <ele>365.65672699999999</ele>
        <time>2026-04-08T13:49:47Z</time>
      </trkpt>
      <trkpt lat="50.303412023931742" lon="7.713475981727243">
        <ele>366.73473899999999</ele>
        <time>2026-04-08T13:50:28Z</time>
      </trkpt>
      <trkpt lat="50.303688040003181" lon="7.71297499537468">
        <ele>369.027108</ele>
        <time>2026-04-08T13:50:50Z</time>
      </trkpt>
      <trkpt lat="50.304068997502327" lon="7.712163040414453">
        <ele>371.05665499999998</ele>
        <time>2026-04-08T13:51:14Z</time>
      </trkpt>
      <trkpt lat="50.304309977218509" lon="7.711664987728">
        <ele>369.620135</ele>
        <time>2026-04-08T13:51:24Z</time>
      </trkpt>
      <trkpt lat="50.304496977478266" lon="7.711323006078601">
        <ele>368.59127699999999</ele>
        <time>2026-04-08T13:51:30Z</time>
      </trkpt>
      <trkpt lat="50.304726976901293" lon="7.710858983919025">
        <ele>367.245879</ele>
        <time>2026-04-08T13:51:40Z</time>
      </trkpt>
      <trkpt lat="50.305072981864214" lon="7.710040993988514">
        <ele>364.995363</ele>
        <time>2026-04-08T13:51:59Z</time>
      </trkpt>
      <trkpt lat="50.3052550368011" lon="7.709201965481043">
        <ele>362.798134</ele>
        <time>2026-04-08T13:52:14Z</time>
      </trkpt>
      <trkpt lat="50.3052550368011" lon="7.709143040701747">
        <ele>362.66024299999998</ele>
        <time>2026-04-08T13:52:15Z</time>
      </trkpt>
      <trkpt lat="50.305178007110953" lon="7.708519008010626">
        <ele>361.17334799999998</ele>
        <time>2026-04-08T13:52:25Z</time>
      </trkpt>
      <trkpt lat="50.305153029039502" lon="7.708332007750869">
        <ele>360.72441199999997</ele>
        <time>2026-04-08T13:52:28Z</time>
      </trkpt>
      <trkpt lat="50.305116986855865" lon="7.707991031929851">
        <ele>359.90923400000003</ele>
        <time>2026-04-08T13:52:33Z</time>
      </trkpt>
      <trkpt lat="50.30508304014802" lon="7.70777503028512">
        <ele>359.38930699999997</ele>
        <time>2026-04-08T13:52:36Z</time>
      </trkpt>
      <trkpt lat="50.305084967985749" lon="7.70764896646142">
        <ele>359.09473700000001</ele>
        <time>2026-04-08T13:52:38Z</time>
      </trkpt>
      <trkpt lat="50.305071976035833" lon="7.707407986745238">
        <ele>358.46648900000002</ele>
        <time>2026-04-08T13:52:42Z</time>
      </trkpt>
      <trkpt lat="50.305050015449524" lon="7.707294998690486">
        <ele>358.06206200000003</ele>
        <time>2026-04-08T13:52:44Z</time>
      </trkpt>
      <trkpt lat="50.305010033771396" lon="7.706712037324905">
        <ele>355.9846</ele>
        <time>2026-04-08T13:52:56Z</time>
      </trkpt>
      <trkpt lat="50.304959993809462" lon="7.706549009308219">
        <ele>355.36314599999997</ele>
        <time>2026-04-08T13:52:59Z</time>
      </trkpt>
      <trkpt lat="50.30493400990963" lon="7.706474997103214">
        <ele>355.074005</ele>
        <time>2026-04-08T13:53:00Z</time>
      </trkpt>
      <trkpt lat="50.304930992424488" lon="7.70642202347517">
        <ele>354.89184899999998</ele>
        <time>2026-04-08T13:53:01Z</time>
      </trkpt>
      <trkpt lat="50.304925041273236" lon="7.706169979646802">
        <ele>354.02852799999999</ele>
        <time>2026-04-08T13:53:05Z</time>
      </trkpt>
      <trkpt lat="50.304908026009798" lon="7.706096973270178">
        <ele>353.762519</ele>
        <time>2026-04-08T13:53:06Z</time>
      </trkpt>
      <trkpt lat="50.304836025461555" lon="7.705772006884217">
        <ele>352.582382</ele>
        <time>2026-04-08T13:53:11Z</time>
      </trkpt>
      <trkpt lat="50.304703004658222" lon="7.705251993611455">
        <ele>350.65383800000001</ele>
        <time>2026-04-08T13:53:18Z</time>
      </trkpt>
      <trkpt lat="50.304680960252881" lon="7.705106986686587">
        <ele>350.14361500000001</ele>
        <time>2026-04-08T13:53:20Z</time>
      </trkpt>
      <trkpt lat="50.30472001992166" lon="7.704728962853551">
        <ele>348.93179400000002</ele>
        <time>2026-04-08T13:53:26Z</time>
      </trkpt>
      <trkpt lat="50.304565960541368" lon="7.703750040382147">
        <ele>347.778099</ele>
        <time>2026-04-08T13:53:40Z</time>
      </trkpt>
      <trkpt lat="50.304564032703638" lon="7.703649960458279">
        <ele>347.665459</ele>
        <time>2026-04-08T13:53:42Z</time>
      </trkpt>
      <trkpt lat="50.304554980248213" lon="7.701885988935828">
        <ele>345.81006400000001</ele>
        <time>2026-04-08T13:54:11Z</time>
      </trkpt>
      <trkpt lat="50.304579958319664" lon="7.701250975951552">
        <ele>345.81006400000001</ele>
        <time>2026-04-08T13:54:23Z</time>
      </trkpt>
      <trkpt lat="50.304364962503314" lon="7.700594002380967">
        <ele>345.81006400000001</ele>
        <time>2026-04-08T13:54:51Z</time>
      </trkpt>
      <trkpt lat="50.304361023008823" lon="7.700592996552587">
        <ele>345.81006400000001</ele>
        <time>2026-04-08T13:55:27Z</time>
      </trkpt>
    </trkseg>
  </trk>

</gpx>